Site Date RecNum LOGGERID PROGID Year_RTM Day_RTM Hour_Minute_RTM AIRTEMP_MEAN_150_0_02 AIRTEMP_MEAN_450_0_01 RELHUM_MEAN_150_0_02 RELHUM_MEAN_450_0_01 DEWPT_MEAN_150_0_02 DEWPT_MEAN_450_0_01 WSPD_PRO_MEAN_500_0_01 WMAG_PRO_MEAN_500_0_01 WDIR_PRO_MEAN_500_0_01 WDIR_PRO_STDDEV_500_0_01 SATVP_MEAN_150_0_02 VAP_MEAN_150_0_02 VPD_MEAN_150_0_02 SATVP_MEAN_450_0_01 VAP_MEAN_450_0_01 VPD_MEAN_450_0_01
H15MET 2017-10-01 00:00:00 991 208 900.0 2017.0 273.00 2400.0 6.8630 6.6710 100.000 100.000 6.8630 6.6710 0.00000 0.00000 0.00 0.000 9.924 9.924 0.000 9.794 9.794 0.000
H15MET 2017-09-30 23:45:00 990 208 900.0 2017.0 273.00 2345.0 6.8690 6.6710 100.000 100.000 6.8690 6.6710 0.00000 0.00000 0.00 0.000 9.928 9.928 0.000 9.794 9.794 0.000
H15MET 2017-09-30 23:30:00 989 208 900.0 2017.0 273.00 2330.0 6.8950 6.6950 100.000 100.000 6.8940 6.6950 0.00000 0.00000 0.00 0.000 9.946 9.945 0.000 9.810 9.810 0.000
H15MET 2017-09-30 23:15:00 988 208 900.0 2017.0 273.00 2315.0 6.8680 6.7050 100.000 100.000 6.8680 6.7050 0.00000 0.00000 0.00 0.000 9.928 9.928 0.000 9.817 9.817 0.000
H15MET 2017-09-30 23:00:00 987 208 900.0 2017.0 273.00 2300.0 6.7970 6.6060 100.000 100.000 6.7970 6.6060 0.00000 0.00000 0.00 0.000 9.879 9.879 0.000 9.750 9.750 0.000
H15MET 2017-09-30 22:45:00 986 208 900.0 2017.0 273.00 2245.0 6.7850 6.6030 100.000 100.000 6.7850 6.6030 0.00000 0.00000 0.00 0.000 9.871 9.871 0.000 9.748 9.748 0.000
H15MET 2017-09-30 22:30:00 985 208 900.0 2017.0 273.00 2230.0 6.7910 6.6170 100.000 100.000 6.7910 6.6170 0.00000 0.00000 0.00 0.000 9.875 9.875 0.000 9.758 9.758 0.000
H15MET 2017-09-30 22:15:00 984 208 900.0 2017.0 273.00 2215.0 6.7900 6.6310 100.000 100.000 6.7900 6.6310 0.00000 0.00000 0.00 0.000 9.874 9.874 0.000 9.767 9.767 0.000
H15MET 2017-09-30 22:00:00 983 208 900.0 2017.0 273.00 2200.0 6.8240 6.6320 100.000 100.000 6.8240 6.6320 0.00000 0.00000 0.00 0.000 9.898 9.898 0.000 9.768 9.768 0.000
H15MET 2017-09-30 21:45:00 982 208 900.0 2017.0 273.00 2145.0 6.8540 6.6740 100.000 100.000 6.8540 6.6740 0.00000 0.00000 0.00 0.000 9.918 9.918 0.000 9.796 9.796 0.000
H15MET 2017-09-30 21:30:00 981 208 900.0 2017.0 273.00 2130.0 6.8710 6.7230 100.000 100.000 6.8710 6.7220 0.00000 0.00000 0.00 0.000 9.930 9.930 0.000 9.829 9.828 0.000
H15MET 2017-09-30 21:15:00 980 208 900.0 2017.0 273.00 2115.0 6.8110 6.6820 100.000 100.000 6.8110 6.6820 0.00000 0.00000 0.00 0.000 9.889 9.889 0.000 9.801 9.801 0.000
H15MET 2017-09-30 21:00:00 979 208 900.0 2017.0 273.00 2100.0 6.7880 6.6330 100.000 100.000 6.7880 6.6330 0.00000 0.00000 0.00 0.000 9.873 9.873 0.000 9.768 9.768 0.000
H15MET 2017-09-30 20:45:00 978 208 900.0 2017.0 273.00 2045.0 6.7450 6.5920 100.000 100.000 6.7450 6.5920 0.00000 0.00000 0.00 0.000 9.844 9.844 0.000 9.741 9.741 0.000
H15MET 2017-09-30 20:30:00 977 208 900.0 2017.0 273.00 2030.0 6.7400 6.5760 100.000 100.000 6.7400 6.5760 0.00000 0.00000 0.00 0.000 9.841 9.841 0.000 9.730 9.730 0.000
H15MET 2017-09-30 20:15:00 976 208 900.0 2017.0 273.00 2015.0 6.7020 6.5530 100.000 100.000 6.7020 6.5530 0.00000 0.00000 0.00 0.000 9.815 9.815 0.000 9.715 9.715 0.000
H15MET 2017-09-30 20:00:00 975 208 900.0 2017.0 273.00 2000.0 6.7090 6.5740 100.000 100.000 6.7090 6.5740 0.00000 0.00000 0.00 0.000 9.820 9.820 0.000 9.729 9.729 0.000
H15MET 2017-09-30 19:45:00 974 208 900.0 2017.0 273.00 1945.0 6.8530 6.6640 100.000 100.000 6.8530 6.6640 0.00000 0.00000 0.00 0.000 9.917 9.917 0.000 9.789 9.789 0.000
H15MET 2017-09-30 19:30:00 973 208 900.0 2017.0 273.00 1930.0 6.8810 6.7200 100.000 100.000 6.8810 6.7200 0.00000 0.00000 0.00 0.000 9.936 9.936 0.000 9.827 9.827 0.000
H15MET 2017-09-30 19:15:00 972 208 900.0 2017.0 273.00 1915.0 6.8660 6.7200 100.000 100.000 6.8660 6.7200 0.00000 0.00000 0.00 0.000 9.926 9.926 0.000 9.827 9.827 0.000
H15MET 2017-09-30 19:00:00 971 208 900.0 2017.0 273.00 1900.0 6.8770 6.6970 100.000 100.000 6.8760 6.6970 0.00000 0.00000 0.00 0.000 9.934 9.933 0.000 9.811 9.811 0.000
H15MET 2017-09-30 18:45:00 970 208 900.0 2017.0 273.00 1845.0 6.9860 6.8180 100.000 100.000 6.9850 6.8180 0.00000 0.00000 0.00 0.000 10.008 10.008 0.000 9.893 9.893 0.000
H15MET 2017-09-30 18:30:00 969 208 900.0 2017.0 273.00 1830.0 6.9430 6.8050 99.900 100.000 6.9210 6.8050 0.00000 0.00000 0.00 0.000 9.979 9.964 0.010 9.885 9.885 0.000
H15MET 2017-09-30 18:15:00 968 208 900.0 2017.0 273.00 1815.0 7.0100 6.8480 99.800 100.000 6.9790 6.8480 0.00000 0.00000 0.00 0.000 10.025 10.004 0.020 9.914 9.914 0.000
H15MET 2017-09-30 18:00:00 967 208 900.0 2017.0 273.00 1800.0 7.0200 6.8400 99.500 100.000 6.9460 6.8390 0.00000 0.00000 0.00 0.000 10.032 9.981 0.050 9.908 9.908 0.000
H15MET 2017-09-30 17:45:00 966 208 900.0 2017.0 273.00 1745.0 7.2700 7.0300 99.400 100.000 7.1900 7.0300 0.00000 0.00000 0.00 0.000 10.205 10.149 0.061 10.039 10.039 0.000
H15MET 2017-09-30 17:30:00 965 208 900.0 2017.0 273.00 1730.0 7.5400 7.3200 99.200 99.900 7.4300 7.2900 0.00800 0.00800 119.40 0.235 10.396 10.318 0.083 10.240 10.219 0.010
H15MET 2017-09-30 17:15:00 964 208 900.0 2017.0 273.00 1715.0 7.8000 7.5700 98.400 98.700 7.5700 7.3900 0.00000 0.00000 0.00 0.000 10.582 10.417 0.169 10.417 10.289 0.135
H15MET 2017-09-30 17:00:00 963 208 900.0 2017.0 273.00 1700.0 8.2600 8.0700 97.000 96.900 7.8100 7.6000 0.04800 0.04800 150.90 1.839 10.918 10.589 0.328 10.778 10.438 0.334
H15MET 2017-09-30 16:45:00 962 208 900.0 2017.0 273.00 1645.0 8.8500 8.6900 90.700 89.700 7.4100 7.0900 0.00000 0.00000 0.00 0.000 11.364 10.304 1.057 11.242 10.080 1.158
H15MET 2017-09-30 16:30:00 961 208 900.0 2017.0 273.00 1630.0 9.1300 8.9700 88.900 87.900 7.4100 7.0800 0.00000 0.00000 0.00 0.000 11.581 10.304 1.285 11.457 10.073 1.386
H15MET 2017-09-30 16:15:00 960 208 900.0 2017.0 273.00 1615.0 9.3900 9.1900 87.200 86.700 7.3700 7.1000 0.00000 0.00000 0.00 0.000 11.786 10.275 1.509 11.628 10.087 1.547
H15MET 2017-09-30 16:00:00 959 208 900.0 2017.0 273.00 1600.0 9.6500 9.4000 88.000 85.800 7.7500 7.1400 0.00000 0.00000 0.00 0.000 11.994 10.546 1.439 11.794 10.115 1.675
H15MET 2017-09-30 15:45:00 958 208 900.0 2017.0 273.00 1545.0 9.7500 9.5600 86.900 85.300 7.6800 7.2100 0.00000 0.00000 0.00 0.000 12.075 10.495 1.582 11.921 10.163 1.752
H15MET 2017-09-30 15:30:00 957 208 900.0 2017.0 273.00 1530.0 9.6100 9.4700 87.900 85.600 7.7100 7.1800 0.00000 0.00000 0.00 0.000 11.962 10.517 1.447 11.849 10.142 1.706
H15MET 2017-09-30 15:15:00 956 208 900.0 2017.0 273.00 1515.0 9.6200 9.4400 88.200 85.000 7.7600 7.0500 0.00000 0.00000 0.00 0.000 11.970 10.553 1.412 11.826 10.052 1.774
H15MET 2017-09-30 15:00:00 955 208 900.0 2017.0 273.00 1500.0 9.5800 9.3400 88.800 86.800 7.8300 7.2600 0.00000 0.00000 0.00 0.000 11.937 10.603 1.337 11.746 10.198 1.550
H15MET 2017-09-30 14:45:00 954 208 900.0 2017.0 273.00 1445.0 9.5600 9.3300 88.200 85.900 7.7000 7.1000 0.00000 0.00000 0.00 0.000 11.921 10.510 1.407 11.738 10.087 1.655
H15MET 2017-09-30 14:30:00 953 208 900.0 2017.0 273.00 1430.0 9.4400 9.2600 87.900 86.000 7.5400 7.0400 0.00000 0.00000 0.00 0.000 11.826 10.396 1.431 11.683 10.046 1.636
H15MET 2017-09-30 14:15:00 952 208 900.0 2017.0 273.00 1415.0 9.3000 9.0800 84.300 83.300 6.7880 6.3950 0.00000 0.00000 0.00 0.000 11.715 9.873 1.839 11.542 9.609 1.928
H15MET 2017-09-30 14:00:00 951 208 900.0 2017.0 273.00 1400.0 9.1900 8.8700 89.200 87.900 7.5100 6.9670 0.00000 0.00000 0.00 0.000 11.628 10.374 1.256 11.379 9.995 1.377
H15MET 2017-09-30 13:45:00 950 208 900.0 2017.0 273.00 1345.0 9.1800 8.9100 92.400 91.100 8.0100 7.5400 0.00000 0.00000 0.00 0.000 11.620 10.734 0.883 11.410 10.396 1.016
H15MET 2017-09-30 13:30:00 949 208 900.0 2017.0 273.00 1330.0 8.7400 8.4500 93.100 92.300 7.6800 7.2800 0.00000 0.00000 0.00 0.000 11.280 10.495 0.778 11.060 10.212 0.852
H15MET 2017-09-30 13:15:00 948 208 900.0 2017.0 273.00 1315.0 8.3900 8.1300 95.900 95.500 7.7800 7.4500 0.00000 0.00000 0.00 0.000 11.015 10.567 0.452 10.822 10.332 0.487
H15MET 2017-09-30 13:00:00 947 208 900.0 2017.0 273.00 1300.0 8.4400 8.1500 95.800 95.100 7.8100 7.4200 0.00000 0.00000 0.00 0.000 11.053 10.589 0.464 10.837 10.311 0.531
H15MET 2017-09-30 12:45:00 946 208 900.0 2017.0 273.00 1245.0 8.7100 8.4300 94.300 93.300 7.8400 7.4200 0.00000 0.00000 0.00 0.000 11.257 10.611 0.642 11.045 10.311 0.740
H15MET 2017-09-30 12:30:00 945 208 900.0 2017.0 273.00 1230.0 8.9200 8.7200 92.600 91.500 7.7900 7.4100 0.00000 0.00000 0.00 0.000 11.418 10.575 0.845 11.264 10.304 0.957
H15MET 2017-09-30 12:15:00 944 208 900.0 2017.0 273.00 1215.0 9.0000 8.8200 88.400 87.200 7.1800 6.8010 0.00000 0.00000 0.00 0.000 11.480 10.142 1.332 11.341 9.882 1.452
H15MET 2017-09-30 12:00:00 943 208 900.0 2017.0 273.00 1200.0 9.0900 8.9000 85.100 83.800 6.7230 6.3120 0.00000 0.00000 0.00 0.000 11.550 9.829 1.721 11.402 9.554 1.847
H15MET 2017-09-30 11:45:00 942 208 900.0 2017.0 273.00 1145.0 9.1300 8.8700 83.900 81.700 6.5640 5.9090 0.00000 0.00000 0.00 0.000 11.581 9.722 1.865 11.379 9.292 2.082
H15MET 2017-09-30 11:30:00 941 208 900.0 2017.0 273.00 1130.0 9.1300 8.8100 87.400 83.800 7.1300 6.2100 0.00000 0.00000 0.00 0.000 11.581 10.108 1.459 11.333 9.487 1.836
H15MET 2017-09-30 11:15:00 940 208 900.0 2017.0 273.00 1115.0 8.9200 8.7200 89.000 87.100 7.2100 6.6940 0.00000 0.00000 0.00 0.000 11.418 10.163 1.256 11.264 9.809 1.453
H15MET 2017-09-30 11:00:00 939 208 900.0 2017.0 273.00 1100.0 8.8600 8.6200 85.200 83.500 6.5130 5.9890 0.00000 0.00000 0.00 0.000 11.372 9.688 1.683 11.188 9.343 1.846
H15MET 2017-09-30 10:45:00 938 208 900.0 2017.0 273.00 1045.0 8.8900 8.6500 81.100 79.200 5.8290 5.2490 0.00000 0.00000 0.00 0.000 11.395 9.240 2.154 11.211 8.875 2.332
H15MET 2017-09-30 10:30:00 937 208 900.0 2017.0 273.00 1030.0 8.9600 8.7300 82.400 78.900 6.1110 5.2830 0.00000 0.00000 0.00 0.000 11.449 9.423 2.015 11.272 8.896 2.378
H15MET 2017-09-30 10:15:00 936 208 900.0 2017.0 273.00 1015.0 9.0200 8.7800 84.200 80.800 6.4980 5.6670 0.00000 0.00000 0.00 0.000 11.495 9.678 1.816 11.310 9.137 2.172
H15MET 2017-09-30 10:00:00 935 208 900.0 2017.0 273.00 1000.0 8.7100 8.4600 81.700 79.900 5.7540 5.1840 0.00000 0.00000 0.00 0.000 11.257 9.193 2.060 11.068 8.835 2.225
H15MET 2017-09-30 09:45:00 934 208 900.0 2017.0 273.00 945.0 8.6600 8.3100 86.200 83.500 6.4570 5.6650 0.00000 0.00000 0.00 0.000 11.219 9.651 1.548 10.956 9.136 1.808
H15MET 2017-09-30 09:30:00 933 208 900.0 2017.0 273.00 930.0 8.2600 8.0400 88.900 87.400 6.5440 6.0710 0.00000 0.00000 0.00 0.000 10.918 9.709 1.212 10.756 9.397 1.355
H15MET 2017-09-30 09:15:00 932 208 900.0 2017.0 273.00 915.0 8.0500 7.8100 87.700 86.300 6.1340 5.6590 0.00000 0.00000 0.00 0.000 10.764 9.438 1.324 10.589 9.132 1.451
H15MET 2017-09-30 09:00:00 931 208 900.0 2017.0 273.00 900.0 7.9200 7.7600 92.700 91.600 6.8130 6.4810 0.00000 0.00000 0.00 0.000 10.669 9.890 0.779 10.553 9.667 0.886
H15MET 2017-09-30 08:45:00 930 208 900.0 2017.0 273.00 845.0 7.7100 7.4800 94.300 93.500 6.8450 6.5110 0.00000 0.00000 0.00 0.000 10.517 9.912 0.599 10.353 9.687 0.673
H15MET 2017-09-30 08:30:00 929 208 900.0 2017.0 273.00 830.0 7.5000 7.2400 95.700 95.000 6.8590 6.4970 0.00000 0.00000 0.00 0.000 10.367 9.921 0.446 10.184 9.677 0.509
H15MET 2017-09-30 08:15:00 928 208 900.0 2017.0 273.00 815.0 7.2900 7.0700 96.400 95.900 6.7580 6.4570 0.00000 0.00000 0.00 0.000 10.219 9.853 0.368 10.066 9.651 0.413
H15MET 2017-09-30 08:00:00 927 208 900.0 2017.0 273.00 800.0 7.0600 6.8330 96.900 96.200 6.5990 6.2770 0.00000 0.00000 0.00 0.000 10.059 9.745 0.312 9.904 9.531 0.376
H15MET 2017-09-30 07:45:00 926 208 900.0 2017.0 273.00 745.0 6.9790 6.7890 97.500 96.700 6.6080 6.3070 0.00000 0.00000 0.00 0.000 10.004 9.752 0.250 9.874 9.551 0.326
H15MET 2017-09-30 07:30:00 925 208 900.0 2017.0 273.00 730.0 6.8790 6.6810 99.100 98.700 6.7470 6.4920 0.00000 0.00000 0.00 0.000 9.935 9.845 0.089 9.801 9.674 0.127
H15MET 2017-09-30 07:15:00 924 208 900.0 2017.0 273.00 715.0 6.6050 6.4390 99.100 99.000 6.4800 6.2940 0.00000 0.00000 0.00 0.000 9.749 9.666 0.088 9.639 9.543 0.096
H15MET 2017-09-30 07:00:00 923 208 900.0 2017.0 273.00 700.0 6.3980 6.2470 99.300 99.200 6.2970 6.1330 0.00000 0.00000 0.00 0.000 9.611 9.545 0.067 9.512 9.437 0.076
H15MET 2017-09-30 06:45:00 922 208 900.0 2017.0 273.00 645.0 6.1970 6.0360 99.500 99.500 6.1240 5.9680 0.00000 0.00000 0.00 0.000 9.479 9.431 0.047 9.374 9.330 0.047
H15MET 2017-09-30 06:30:00 921 208 900.0 2017.0 273.00 630.0 6.0130 5.8680 99.500 99.700 5.9450 5.8260 0.00000 0.00000 0.00 0.000 9.359 9.315 0.047 9.265 9.239 0.028
H15MET 2017-09-30 06:15:00 920 208 900.0 2017.0 273.00 615.0 5.9560 5.7750 99.800 100.000 5.9340 5.7710 0.00000 0.00000 0.00 0.000 9.322 9.308 0.019 9.206 9.203 0.000
H15MET 2017-09-30 06:00:00 919 208 900.0 2017.0 273.00 600.0 5.7100 5.5740 100.000 100.000 5.7030 5.5740 0.00000 0.00000 0.00 0.000 9.164 9.160 0.000 9.078 9.078 0.000
H15MET 2017-09-30 05:45:00 918 208 900.0 2017.0 273.00 545.0 5.3890 5.3020 99.800 100.000 5.3610 5.3020 0.00000 0.00000 0.00 0.000 8.962 8.945 0.018 8.908 8.908 0.000
H15MET 2017-09-30 05:30:00 917 208 900.0 2017.0 273.00 530.0 5.1640 5.0830 99.400 99.800 5.0800 5.0590 0.00000 0.00000 0.00 0.000 8.823 8.771 0.053 8.773 8.759 0.018
H15MET 2017-09-30 05:15:00 916 208 900.0 2017.0 273.00 515.0 5.2190 5.1550 99.100 99.300 5.0950 5.0550 0.00000 0.00000 0.00 0.000 8.857 8.781 0.080 8.817 8.756 0.062
H15MET 2017-09-30 05:00:00 915 208 900.0 2017.0 273.00 500.0 5.3920 5.3530 99.000 99.000 5.2450 5.2140 0.00000 0.00000 0.00 0.000 8.964 8.873 0.090 8.940 8.854 0.089
H15MET 2017-09-30 04:45:00 914 208 900.0 2017.0 273.00 445.0 5.6310 5.6060 98.800 98.800 5.4600 5.4290 0.00000 0.00000 0.00 0.000 9.114 9.007 0.109 9.099 8.987 0.109
H15MET 2017-09-30 04:30:00 913 208 900.0 2017.0 273.00 430.0 5.9430 5.9010 98.700 98.600 5.7600 5.6950 0.00000 0.00000 0.00 0.000 9.314 9.196 0.121 9.287 9.155 0.130
H15MET 2017-09-30 04:15:00 912 208 900.0 2017.0 273.00 415.0 6.3200 6.3010 98.500 98.200 6.1060 6.0350 0.00000 0.00000 0.00 0.000 9.560 9.419 0.143 9.547 9.373 0.172
H15MET 2017-09-30 04:00:00 911 208 900.0 2017.0 273.00 400.0 6.7230 6.6770 98.400 98.100 6.4820 6.3910 0.00000 0.00000 0.00 0.000 9.829 9.667 0.157 9.798 9.607 0.186
H15MET 2017-09-30 03:45:00 910 208 900.0 2017.0 273.00 345.0 7.0900 6.9810 98.200 97.800 6.8170 6.6640 0.00000 0.00000 0.00 0.000 10.080 9.893 0.181 10.005 9.789 0.220
H15MET 2017-09-30 03:30:00 909 208 900.0 2017.0 273.00 330.0 7.2600 7.1300 98.400 98.000 7.0200 6.8280 0.00000 0.00000 0.00 0.000 10.198 10.032 0.163 10.108 9.900 0.202
H15MET 2017-09-30 03:15:00 908 208 900.0 2017.0 273.00 315.0 7.3800 7.2500 99.100 98.700 7.2500 7.0600 0.00000 0.00000 0.00 0.000 10.282 10.191 0.093 10.191 10.059 0.132
H15MET 2017-09-30 03:00:00 907 208 900.0 2017.0 273.00 300.0 7.3700 7.2900 99.400 99.200 7.2800 7.1600 0.00000 0.00000 0.00 0.000 10.275 10.212 0.062 10.219 10.129 0.082
H15MET 2017-09-30 02:45:00 906 208 900.0 2017.0 273.00 245.0 7.3100 7.2300 99.500 99.300 7.2500 7.1200 0.00000 0.00000 0.00 0.000 10.233 10.191 0.051 10.177 10.101 0.071
H15MET 2017-09-30 02:30:00 905 208 900.0 2017.0 273.00 230.0 7.2300 7.1300 99.600 99.300 7.1700 7.0300 0.00000 0.00000 0.00 0.000 10.177 10.136 0.041 10.108 10.039 0.071
H15MET 2017-09-30 02:15:00 904 208 900.0 2017.0 273.00 215.0 7.0100 6.9580 99.300 98.900 6.8980 6.7970 0.00000 0.00000 0.00 0.000 10.025 9.948 0.070 9.989 9.879 0.110
H15MET 2017-09-30 02:00:00 903 208 900.0 2017.0 273.00 200.0 6.9250 6.9290 98.600 98.000 6.7190 6.6320 0.00000 0.00000 0.00 0.000 9.966 9.826 0.140 9.969 9.768 0.199
H15MET 2017-09-30 01:45:00 902 208 900.0 2017.0 273.00 145.0 7.2100 7.2000 98.300 97.700 6.9650 6.8630 0.00000 0.00000 0.00 0.000 10.163 9.994 0.173 10.156 9.924 0.234
H15MET 2017-09-30 01:30:00 901 208 900.0 2017.0 273.00 130.0 7.5400 7.4800 98.000 97.500 7.2400 7.1100 0.00000 0.00000 0.00 0.000 10.396 10.184 0.208 10.353 10.094 0.259
H15MET 2017-09-30 01:15:00 900 208 900.0 2017.0 273.00 115.0 7.7900 7.6900 98.000 97.300 7.4900 7.2900 0.00000 0.00000 0.00 0.000 10.575 10.360 0.211 10.503 10.219 0.284
H15MET 2017-09-30 01:00:00 899 208 900.0 2017.0 273.00 100.0 7.9800 7.9300 97.500 96.800 7.6100 7.4400 0.00000 0.00000 0.00 0.000 10.712 10.445 0.268 10.676 10.325 0.342
H15MET 2017-09-30 00:45:00 898 208 900.0 2017.0 273.00 45.0 8.1900 8.1200 97.200 96.400 7.7700 7.5700 0.00000 0.00000 0.00 0.000 10.867 10.560 0.304 10.815 10.417 0.389
H15MET 2017-09-30 00:30:00 897 208 900.0 2017.0 273.00 30.0 8.3300 8.2200 96.900 96.300 7.8600 7.6600 0.00000 0.00000 0.00 0.000 10.970 10.625 0.340 10.889 10.481 0.403
H15MET 2017-09-30 00:15:00 896 208 900.0 2017.0 273.00 15.0 8.5000 8.3900 97.000 96.200 8.0400 7.8100 0.00000 0.00000 0.00 0.000 11.098 10.756 0.333 11.015 10.589 0.419
H15MET 2017-09-30 00:00:00 895 208 900.0 2017.0 272.00 2400.0 8.5900 8.4800 97.100 96.300 8.1600 7.9300 0.00000 0.00000 0.00 0.000 11.166 10.844 0.324 11.083 10.676 0.410
H15MET 2017-09-29 23:45:00 894 208 900.0 2017.0 272.00 2345.0 8.6300 8.5400 96.800 95.800 8.1600 7.9200 0.00000 0.00000 0.00 0.000 11.196 10.844 0.358 11.128 10.669 0.467
H15MET 2017-09-29 23:30:00 893 208 900.0 2017.0 272.00 2330.0 8.7100 8.5900 96.900 95.800 8.2500 7.9600 0.00000 0.00000 0.00 0.000 11.257 10.911 0.349 11.166 10.698 0.469
H15MET 2017-09-29 23:15:00 892 208 900.0 2017.0 272.00 2315.0 8.7600 8.6400 97.100 96.000 8.3300 8.0400 0.00000 0.00000 0.00 0.000 11.295 10.970 0.328 11.204 10.756 0.448
H15MET 2017-09-29 23:00:00 891 208 900.0 2017.0 272.00 2300.0 8.8800 8.7400 97.500 96.400 8.5100 8.2000 0.00000 0.00000 0.00 0.000 11.387 11.105 0.285 11.280 10.874 0.406
H15MET 2017-09-29 22:45:00 890 208 900.0 2017.0 272.00 2245.0 8.9800 8.8600 97.400 96.400 8.5900 8.3200 0.00000 0.00000 0.00 0.000 11.464 11.166 0.298 11.372 10.963 0.409
H15MET 2017-09-29 22:30:00 889 208 900.0 2017.0 272.00 2230.0 9.0700 8.9400 96.400 95.500 8.5300 8.2600 0.00000 0.00000 0.00 0.000 11.534 11.120 0.415 11.433 10.918 0.515
H15MET 2017-09-29 22:15:00 888 208 900.0 2017.0 272.00 2215.0 9.2200 9.1000 97.000 96.400 8.7800 8.5600 0.00000 0.00000 0.00 0.000 11.652 11.310 0.350 11.558 11.143 0.416
H15MET 2017-09-29 22:00:00 887 208 900.0 2017.0 272.00 2200.0 9.3300 9.1900 97.300 96.800 8.9200 8.7100 0.00000 0.00000 0.00 0.000 11.738 11.418 0.317 11.628 11.257 0.372
H15MET 2017-09-29 21:45:00 886 208 900.0 2017.0 272.00 2145.0 9.5900 9.4300 97.000 96.300 9.1300 8.8700 0.00000 0.00000 0.00 0.000 11.945 11.581 0.358 11.818 11.379 0.437
H15MET 2017-09-29 21:30:00 885 208 900.0 2017.0 272.00 2130.0 9.8100 9.6700 98.000 97.600 9.5200 9.3100 0.00000 0.00000 0.00 0.000 12.123 11.889 0.242 12.010 11.722 0.288
H15MET 2017-09-29 21:15:00 884 208 900.0 2017.0 272.00 2115.0 9.9600 9.8100 99.000 99.200 9.8000 9.6900 0.00000 0.00000 0.00 0.000 12.246 12.115 0.122 12.123 12.026 0.097
H15MET 2017-09-29 21:00:00 883 208 900.0 2017.0 272.00 2100.0 10.1000 9.9500 99.400 99.700 10.0100 9.9000 0.00000 0.00000 0.00 0.000 12.361 12.287 0.074 12.238 12.197 0.037
H15MET 2017-09-29 20:45:00 882 208 900.0 2017.0 272.00 2045.0 10.1300 9.9900 99.300 99.600 10.0300 9.9300 0.00000 0.00000 0.00 0.000 12.386 12.303 0.087 12.271 12.221 0.049
H15MET 2017-09-29 20:30:00 881 208 900.0 2017.0 272.00 2030.0 10.2200 10.0800 99.300 99.500 10.1200 10.0000 0.00000 0.00000 0.00 0.000 12.461 12.378 0.087 12.345 12.279 0.062
H15MET 2017-09-29 20:15:00 880 208 900.0 2017.0 272.00 2015.0 10.3500 10.2100 99.300 99.600 10.2500 10.1400 0.00000 0.00000 0.00 0.000 12.570 12.486 0.088 12.453 12.394 0.050
H15MET 2017-09-29 20:00:00 879 208 900.0 2017.0 272.00 2000.0 10.4700 10.3000 99.200 99.400 10.3400 10.2100 0.00000 0.00000 0.00 0.000 12.671 12.561 0.101 12.528 12.453 0.075
H15MET 2017-09-29 19:45:00 878 208 900.0 2017.0 272.00 1945.0 10.5500 10.3800 98.800 98.700 10.3700 10.1800 0.00000 0.00000 0.00 0.000 12.739 12.586 0.153 12.595 12.428 0.164
H15MET 2017-09-29 19:30:00 877 208 900.0 2017.0 272.00 1930.0 10.6500 10.5400 98.000 97.200 10.3500 10.1200 0.00000 0.00000 0.00 0.000 12.824 12.570 0.256 12.730 12.378 0.356
H15MET 2017-09-29 19:15:00 876 208 900.0 2017.0 272.00 1915.0 10.7500 10.6600 99.000 98.500 10.6000 10.4300 0.00200 0.00200 58.79 0.004 12.910 12.781 0.129 12.832 12.637 0.192
H15MET 2017-09-29 19:00:00 875 208 900.0 2017.0 272.00 1900.0 10.8100 10.7200 98.600 98.100 10.6000 10.4300 0.00000 0.00000 0.00 0.000 12.961 12.781 0.181 12.884 12.637 0.245
H15MET 2017-09-29 18:45:00 874 208 900.0 2017.0 272.00 1845.0 10.9900 10.8700 98.200 97.600 10.7100 10.5100 0.00000 0.00000 0.00 0.000 13.117 12.875 0.236 13.013 12.705 0.312
H15MET 2017-09-29 18:30:00 873 208 900.0 2017.0 272.00 1830.0 11.1700 11.0400 98.300 97.700 10.9100 10.6900 0.00000 0.00000 0.00 0.000 13.275 13.048 0.226 13.161 12.858 0.303
H15MET 2017-09-29 18:15:00 872 208 900.0 2017.0 272.00 1815.0 11.2300 11.1300 98.600 97.900 11.0100 10.8100 0.00000 0.00000 0.00 0.000 13.328 13.135 0.187 13.240 12.961 0.278
H15MET 2017-09-29 18:00:00 871 208 900.0 2017.0 272.00 1800.0 11.2400 11.1700 98.400 97.700 11.0000 10.8100 0.00000 0.00000 0.00 0.000 13.337 13.126 0.213 13.275 12.961 0.305
H15MET 2017-09-29 17:45:00 870 208 900.0 2017.0 272.00 1745.0 11.2800 11.2400 97.900 97.100 10.9600 10.7900 0.00000 0.00000 0.00 0.000 13.372 13.091 0.281 13.337 12.944 0.387
H15MET 2017-09-29 17:30:00 869 208 900.0 2017.0 272.00 1730.0 11.5000 11.4100 97.100 96.400 11.0600 10.8600 0.00000 0.00000 0.00 0.000 13.569 13.179 0.393 13.488 13.004 0.486
H15MET 2017-09-29 17:15:00 868 208 900.0 2017.0 272.00 1715.0 11.5500 11.3900 97.100 96.300 11.1000 10.8200 0.00000 0.00000 0.00 0.000 13.614 13.214 0.395 13.470 12.970 0.498
H15MET 2017-09-29 17:00:00 867 208 900.0 2017.0 272.00 1700.0 11.5300 11.3600 96.800 96.100 11.0400 10.7700 0.00000 0.00000 0.00 0.000 13.596 13.161 0.435 13.444 12.927 0.524
H15MET 2017-09-29 16:45:00 866 208 900.0 2017.0 272.00 1645.0 11.5400 11.3700 96.500 95.800 11.0000 10.7300 0.00000 0.00000 0.00 0.000 13.605 13.126 0.476 13.452 12.892 0.565
H15MET 2017-09-29 16:30:00 865 208 900.0 2017.0 272.00 1630.0 11.6300 11.4900 95.100 93.900 10.8600 10.5500 0.00000 0.00000 0.00 0.000 13.686 13.004 0.671 13.560 12.739 0.827
H15MET 2017-09-29 16:15:00 864 208 900.0 2017.0 272.00 1615.0 11.9200 11.7400 93.900 92.900 10.9700 10.6300 0.00100 0.00100 295.50 0.006 13.951 13.100 0.851 13.786 12.807 0.979
H15MET 2017-09-29 16:00:00 863 208 900.0 2017.0 272.00 1600.0 12.4400 12.2400 94.800 93.200 11.6300 11.1800 0.02400 0.02400 155.20 1.068 14.437 13.686 0.751 14.248 13.284 0.969
H15MET 2017-09-29 15:45:00 862 208 900.0 2017.0 272.00 1545.0 12.7800 12.5600 96.100 94.300 12.1600 11.6700 0.00000 0.00000 0.00 0.000 14.762 14.173 0.576 14.551 13.722 0.829
H15MET 2017-09-29 15:30:00 861 208 900.0 2017.0 272.00 1530.0 12.6500 12.4400 96.500 95.300 12.1100 11.7100 0.00000 0.00000 0.00 0.000 14.637 14.127 0.512 14.437 13.759 0.679
H15MET 2017-09-29 15:15:00 860 208 900.0 2017.0 272.00 1515.0 12.6000 12.3400 96.400 95.200 12.0500 11.5900 0.00000 0.00000 0.00 0.000 14.589 14.071 0.525 14.342 13.650 0.688
H15MET 2017-09-29 15:00:00 859 208 900.0 2017.0 272.00 1500.0 12.4500 12.3100 96.000 94.700 11.8200 11.4800 0.00000 0.00000 0.00 0.000 14.446 13.859 0.578 14.314 13.551 0.759
H15MET 2017-09-29 14:45:00 858 208 900.0 2017.0 272.00 1445.0 12.5300 12.4400 95.000 93.500 11.7500 11.4100 0.00000 0.00000 0.00 0.000 14.522 13.795 0.726 14.437 13.488 0.938
H15MET 2017-09-29 14:30:00 857 208 900.0 2017.0 272.00 1430.0 12.7400 12.6400 93.500 92.000 11.7100 11.3600 0.00000 0.00000 0.00 0.000 14.724 13.759 0.957 14.627 13.444 1.170
H15MET 2017-09-29 14:15:00 856 208 900.0 2017.0 272.00 1415.0 12.7000 12.5400 94.200 92.800 11.8000 11.4100 0.00000 0.00000 0.00 0.000 14.685 13.841 0.852 14.532 13.488 1.046
H15MET 2017-09-29 14:00:00 855 208 900.0 2017.0 272.00 1400.0 12.5500 12.3300 94.600 93.500 11.7100 11.3200 0.00000 0.00000 0.00 0.000 14.541 13.759 0.785 14.333 13.408 0.932
H15MET 2017-09-29 13:45:00 854 208 900.0 2017.0 272.00 1345.0 12.9200 12.6800 93.100 91.800 11.8400 11.3800 0.00000 0.00000 0.00 0.000 14.898 13.877 1.028 14.666 13.461 1.203
H15MET 2017-09-29 13:30:00 853 208 900.0 2017.0 272.00 1330.0 13.1200 12.8900 93.000 92.400 12.0200 11.6800 0.00000 0.00000 0.00 0.000 15.094 14.043 1.057 14.869 13.731 1.130
H15MET 2017-09-29 13:15:00 852 208 900.0 2017.0 272.00 1315.0 12.9800 12.7100 94.100 93.100 12.0500 11.6200 0.00000 0.00000 0.00 0.000 14.957 14.071 0.882 14.695 13.677 1.014
H15MET 2017-09-29 13:00:00 851 208 900.0 2017.0 272.00 1300.0 12.9900 12.7100 93.600 92.800 11.9800 11.5700 0.00000 0.00000 0.00 0.000 14.967 14.006 0.958 14.695 13.632 1.058
H15MET 2017-09-29 12:45:00 850 208 900.0 2017.0 272.00 1245.0 12.9100 12.5400 93.000 91.400 11.8000 11.1800 0.00600 0.00600 261.90 2.290 14.889 13.841 1.042 14.532 13.284 1.250
H15MET 2017-09-29 12:30:00 849 208 900.0 2017.0 272.00 1230.0 12.9300 12.5700 92.300 91.000 11.7000 11.1500 0.00000 0.00000 0.00 0.000 14.908 13.749 1.148 14.560 13.258 1.310
H15MET 2017-09-29 12:15:00 848 208 900.0 2017.0 272.00 1215.0 12.7800 12.3900 93.400 93.000 11.7400 11.2900 0.00000 0.00000 0.00 0.000 14.762 13.786 0.974 14.389 13.381 1.007
H15MET 2017-09-29 12:00:00 847 208 900.0 2017.0 272.00 1200.0 12.9400 12.6100 95.500 94.400 12.2400 11.7400 0.00000 0.00000 0.00 0.000 14.918 14.248 0.671 14.599 13.786 0.818
H15MET 2017-09-29 11:45:00 846 208 900.0 2017.0 272.00 1145.0 12.5900 12.3100 95.400 95.000 11.8700 11.5200 0.00000 0.00000 0.00 0.000 14.579 13.905 0.671 14.314 13.587 0.716
H15MET 2017-09-29 11:30:00 845 208 900.0 2017.0 272.00 1130.0 11.8100 11.4900 98.200 98.400 11.5400 11.2500 0.00000 0.00000 0.00 0.000 13.850 13.605 0.249 13.560 13.346 0.217
H15MET 2017-09-29 11:15:00 844 208 900.0 2017.0 272.00 1115.0 11.7000 11.3400 98.500 99.100 11.4700 11.2000 0.00000 0.00000 0.00 0.000 13.749 13.542 0.206 13.426 13.302 0.121
H15MET 2017-09-29 11:00:00 843 208 900.0 2017.0 272.00 1100.0 11.7300 11.1700 98.500 98.800 11.5100 11.0000 0.00000 0.00000 0.00 0.000 13.777 13.578 0.207 13.275 13.126 0.159
H15MET 2017-09-29 10:45:00 842 208 900.0 2017.0 272.00 1045.0 11.6400 11.1800 99.600 99.400 11.5700 11.0900 0.00600 0.00600 278.30 0.060 13.695 13.632 0.055 13.284 13.205 0.080
H15MET 2017-09-29 10:30:00 841 208 900.0 2017.0 272.00 1030.0 11.1100 10.8600 98.500 98.500 10.8800 10.6400 0.00000 0.00000 0.00 0.000 13.222 13.022 0.198 13.004 12.815 0.195
H15MET 2017-09-29 10:15:00 840 208 900.0 2017.0 272.00 1015.0 11.0000 10.8200 96.600 96.300 10.4800 10.2600 0.00000 0.00000 187.50 0.000 13.126 12.679 0.446 12.970 12.494 0.480
H15MET 2017-09-29 10:00:00 839 208 900.0 2017.0 272.00 1000.0 11.3500 11.1800 92.900 92.200 10.2500 9.9500 0.00000 0.00000 0.00 0.000 13.435 12.486 0.954 13.284 12.238 1.036
H15MET 2017-09-29 09:45:00 838 208 900.0 2017.0 272.00 945.0 11.5600 11.2900 92.200 91.700 10.3400 10.0000 0.00000 0.00000 0.00 0.000 13.623 12.561 1.063 13.381 12.279 1.111
H15MET 2017-09-29 09:30:00 837 208 900.0 2017.0 272.00 930.0 11.7100 11.4100 91.800 91.100 10.4200 10.0000 0.00000 0.00000 0.00 0.000 13.759 12.629 1.128 13.488 12.279 1.200
H15MET 2017-09-29 09:15:00 836 208 900.0 2017.0 272.00 915.0 11.7500 11.3600 92.800 91.800 10.6200 10.0700 0.00000 0.00000 0.00 0.000 13.795 12.798 0.993 13.444 12.336 1.102
H15MET 2017-09-29 09:00:00 835 208 900.0 2017.0 272.00 900.0 11.5400 11.3800 91.900 90.800 10.2700 9.9300 0.00000 0.00000 0.00 0.000 13.605 12.503 1.102 13.461 12.221 1.238
H15MET 2017-09-29 08:45:00 834 208 900.0 2017.0 272.00 845.0 11.5700 11.3500 92.800 91.600 10.4500 10.0300 0.00000 0.00000 0.00 0.000 13.632 12.654 0.981 13.435 12.303 1.129
H15MET 2017-09-29 08:30:00 833 208 900.0 2017.0 272.00 830.0 11.6000 11.3600 92.700 91.500 10.4500 10.0300 0.00000 0.00000 0.00 0.000 13.659 12.654 0.997 13.444 12.303 1.143
H15MET 2017-09-29 08:15:00 832 208 900.0 2017.0 272.00 815.0 11.5300 11.4100 93.100 91.500 10.4500 10.0700 0.00000 0.00000 0.00 0.000 13.596 12.654 0.938 13.488 12.336 1.146
H15MET 2017-09-29 08:00:00 831 208 900.0 2017.0 272.00 800.0 11.4300 11.3100 92.900 90.900 10.3300 9.8800 0.00000 0.00000 0.00 0.000 13.506 12.553 0.959 13.399 12.180 1.219
H15MET 2017-09-29 07:45:00 830 208 900.0 2017.0 272.00 745.0 11.2900 11.1900 93.200 90.900 10.2200 9.7700 0.00000 0.00000 0.00 0.000 13.381 12.461 0.910 13.293 12.091 1.210
H15MET 2017-09-29 07:30:00 829 208 900.0 2017.0 272.00 730.0 10.9900 10.9600 92.700 91.000 9.8500 9.5600 0.00000 0.00000 0.00 0.000 13.117 12.156 0.958 13.091 11.921 1.178
H15MET 2017-09-29 07:15:00 828 208 900.0 2017.0 272.00 715.0 10.8600 10.8400 92.800 91.300 9.7400 9.4900 0.00000 0.00000 0.00 0.000 13.004 12.066 0.936 12.987 11.865 1.130
H15MET 2017-09-29 07:00:00 827 208 900.0 2017.0 272.00 700.0 10.7800 10.7900 92.700 91.400 9.6500 9.4500 0.00000 0.00000 0.00 0.000 12.935 11.994 0.944 12.944 11.833 1.113
H15MET 2017-09-29 06:45:00 826 208 900.0 2017.0 272.00 645.0 10.8000 10.7800 92.600 91.000 9.6500 9.3800 0.00000 0.00000 0.00 0.000 12.953 11.994 0.958 12.935 11.778 1.164
H15MET 2017-09-29 06:30:00 825 208 900.0 2017.0 272.00 630.0 10.7800 10.8000 92.400 90.900 9.6000 9.3700 0.00000 0.00000 0.00 0.000 12.935 11.953 0.983 12.953 11.770 1.179
H15MET 2017-09-29 06:15:00 824 208 900.0 2017.0 272.00 615.0 10.8200 10.8100 91.900 90.400 9.5600 9.3000 0.00000 0.00000 0.00 0.000 12.970 11.921 1.051 12.961 11.715 1.244
H15MET 2017-09-29 06:00:00 823 208 900.0 2017.0 272.00 600.0 10.9000 10.9100 91.900 90.400 9.6400 9.4000 0.00000 0.00000 0.00 0.000 13.039 11.986 1.056 13.048 11.794 1.253
H15MET 2017-09-29 05:45:00 822 208 900.0 2017.0 272.00 545.0 10.8700 10.8700 92.400 91.000 9.6800 9.4700 0.00000 0.00000 0.00 0.000 13.013 12.018 0.989 13.013 11.849 1.171
H15MET 2017-09-29 05:30:00 821 208 900.0 2017.0 272.00 530.0 10.8200 10.8300 91.300 89.900 9.4600 9.2300 0.00000 0.00000 0.00 0.000 12.970 11.841 1.128 12.979 11.659 1.311
H15MET 2017-09-29 05:15:00 820 208 900.0 2017.0 272.00 515.0 10.8100 10.8300 91.300 89.500 9.4400 9.1800 0.00000 0.00000 0.00 0.000 12.961 11.826 1.128 12.979 11.620 1.363
H15MET 2017-09-29 05:00:00 819 208 900.0 2017.0 272.00 500.0 10.8200 10.8300 91.000 89.600 9.4100 9.1800 0.00000 0.00000 0.00 0.000 12.970 11.802 1.167 12.979 11.620 1.350
H15MET 2017-09-29 04:45:00 818 208 900.0 2017.0 272.00 445.0 10.8900 10.9000 91.200 89.800 9.5100 9.3000 0.00000 0.00000 0.00 0.000 13.030 11.881 1.147 13.039 11.715 1.330
H15MET 2017-09-29 04:30:00 817 208 900.0 2017.0 272.00 430.0 10.9900 11.0600 90.800 89.000 9.5400 9.3200 0.00000 0.00000 0.00 0.000 13.117 11.905 1.207 13.179 11.730 1.450
H15MET 2017-09-29 04:15:00 816 208 900.0 2017.0 272.00 415.0 11.2300 11.2900 90.000 88.300 9.6500 9.4300 0.00000 0.00000 0.00 0.000 13.328 11.994 1.333 13.381 11.818 1.566
H15MET 2017-09-29 04:00:00 815 208 900.0 2017.0 272.00 400.0 11.4600 11.5100 89.900 88.100 9.8600 9.6100 0.00000 0.00000 0.00 0.000 13.533 12.164 1.367 13.578 11.962 1.616
H15MET 2017-09-29 03:45:00 814 208 900.0 2017.0 272.00 345.0 11.6300 11.7000 89.800 88.000 10.0100 9.7800 0.00000 0.00000 0.00 0.000 13.686 12.287 1.396 13.749 12.099 1.650
H15MET 2017-09-29 03:30:00 813 208 900.0 2017.0 272.00 330.0 11.7600 11.8200 90.500 88.500 10.2500 9.9800 0.00000 0.00000 0.00 0.000 13.804 12.486 1.311 13.859 12.262 1.594
H15MET 2017-09-29 03:15:00 812 208 900.0 2017.0 272.00 315.0 11.8000 11.8600 89.400 88.400 10.1100 10.0100 0.00000 0.00000 0.00 0.000 13.841 12.370 1.467 13.896 12.287 1.612
H15MET 2017-09-29 03:00:00 811 208 900.0 2017.0 272.00 300.0 11.9400 11.9500 89.200 87.800 10.2100 9.9900 0.00000 0.00000 0.00 0.000 13.969 12.453 1.509 13.978 12.271 1.705
H15MET 2017-09-29 02:45:00 810 208 900.0 2017.0 272.00 245.0 11.8600 11.8600 87.700 87.400 9.8900 9.8400 0.00000 0.00000 0.00 0.000 13.896 12.189 1.709 13.896 12.148 1.751
H15MET 2017-09-29 02:30:00 809 208 900.0 2017.0 272.00 230.0 11.7700 11.8300 89.500 88.700 10.1000 10.0300 0.00000 0.00000 0.00 0.000 13.813 12.361 1.450 13.868 12.303 1.567
H15MET 2017-09-29 02:15:00 808 208 900.0 2017.0 272.00 215.0 11.7400 11.8900 88.400 87.300 9.8900 9.8500 0.00000 0.00000 0.00 0.000 13.786 12.189 1.599 13.923 12.156 1.768
H15MET 2017-09-29 02:00:00 807 208 900.0 2017.0 272.00 200.0 11.7800 11.9100 88.500 86.000 9.9500 9.6400 0.00000 0.00000 0.00 0.000 13.822 12.238 1.590 13.941 11.986 1.952
H15MET 2017-09-29 01:45:00 806 208 900.0 2017.0 272.00 145.0 11.8400 11.9600 90.400 88.500 10.3200 10.1200 0.00000 0.00000 0.00 0.000 13.877 12.545 1.332 13.988 12.378 1.609
H15MET 2017-09-29 01:30:00 805 208 900.0 2017.0 272.00 130.0 11.9200 12.0200 88.400 86.800 10.0700 9.8900 0.00000 0.00000 0.00 0.000 13.951 12.336 1.618 14.043 12.189 1.854
H15MET 2017-09-29 01:15:00 804 208 900.0 2017.0 272.00 115.0 12.0500 12.1400 87.200 86.100 9.9900 9.8900 0.00000 0.00000 0.00 0.000 14.071 12.271 1.801 14.154 12.189 1.967
H15MET 2017-09-29 01:00:00 803 208 900.0 2017.0 272.00 100.0 12.2000 12.2600 86.500 85.800 10.0200 9.9400 0.00000 0.00000 0.00 0.000 14.211 12.295 1.918 14.267 12.229 2.026
H15MET 2017-09-29 00:45:00 802 208 900.0 2017.0 272.00 45.0 12.3500 12.3700 85.600 85.100 10.0000 9.9300 0.00000 0.00000 0.00 0.000 14.351 12.279 2.067 14.370 12.221 2.141
H15MET 2017-09-29 00:30:00 801 208 900.0 2017.0 272.00 30.0 12.4500 12.5100 86.400 85.800 10.2400 10.1900 0.00000 0.00000 0.00 0.000 14.446 12.478 1.965 14.503 12.436 2.059
H15MET 2017-09-29 00:15:00 800 208 900.0 2017.0 272.00 15.0 12.4700 12.5500 86.600 84.800 10.3000 10.0600 0.00000 0.00000 0.00 0.000 14.465 12.528 1.938 14.541 12.328 2.210
H15MET 2017-09-29 00:00:00 799 208 900.0 2017.0 271.00 2400.0 12.6600 12.7300 85.200 84.200 10.2500 10.1300 0.00000 0.00000 0.00 0.000 14.647 12.486 2.168 14.714 12.386 2.325
H15MET 2017-09-28 23:45:00 798 208 900.0 2017.0 271.00 2345.0 12.9600 12.9800 84.900 84.600 10.4900 10.4400 0.00000 0.00000 0.00 0.000 14.937 12.688 2.256 14.957 12.645 2.303
H15MET 2017-09-28 23:30:00 797 208 900.0 2017.0 271.00 2330.0 12.9300 13.0100 86.300 85.900 10.7000 10.7100 0.00000 0.00000 0.00 0.000 14.908 12.867 2.042 14.986 12.875 2.113
H15MET 2017-09-28 23:15:00 796 208 900.0 2017.0 271.00 2315.0 12.8400 12.9700 87.400 85.000 10.8000 10.5100 0.00000 0.00000 0.00 0.000 14.820 12.953 1.867 14.947 12.705 2.242
H15MET 2017-09-28 23:00:00 795 208 900.0 2017.0 271.00 2300.0 13.0600 13.1400 85.200 83.000 10.6400 10.3100 0.00000 0.00000 0.00 0.000 15.035 12.815 2.225 15.114 12.536 2.569
H15MET 2017-09-28 22:45:00 794 208 900.0 2017.0 271.00 2245.0 13.2200 13.3800 85.500 84.600 10.8300 10.8500 0.00000 0.00000 0.00 0.000 15.193 12.979 2.203 15.353 12.996 2.364
H15MET 2017-09-28 22:30:00 793 208 900.0 2017.0 271.00 2230.0 13.2800 13.5100 87.300 84.200 11.2200 10.8900 0.00000 0.00000 0.00 0.000 15.253 13.319 1.937 15.483 13.030 2.446
H15MET 2017-09-28 22:15:00 792 208 900.0 2017.0 271.00 2215.0 13.3200 13.5400 85.100 81.900 10.8700 10.5200 0.00000 0.00000 0.00 0.000 15.293 13.013 2.279 15.514 12.713 2.808
H15MET 2017-09-28 22:00:00 791 208 900.0 2017.0 271.00 2200.0 13.4900 13.7100 85.600 82.300 11.1300 10.7500 0.00000 0.00000 0.00 0.000 15.463 13.240 2.227 15.686 12.910 2.776
H15MET 2017-09-28 21:45:00 790 208 900.0 2017.0 271.00 2145.0 13.6400 13.8700 86.300 83.500 11.3900 11.1200 0.00000 0.00000 0.00 0.000 15.615 13.470 2.139 15.850 13.231 2.615
H15MET 2017-09-28 21:30:00 789 208 900.0 2017.0 271.00 2130.0 13.7800 13.9900 84.900 81.600 11.2900 10.9000 0.00000 0.00000 0.00 0.000 15.758 13.381 2.379 15.974 13.039 2.939
H15MET 2017-09-28 21:15:00 788 208 900.0 2017.0 271.00 2115.0 13.8800 14.1700 83.000 79.800 11.0500 10.7200 0.00000 0.00000 0.00 0.000 15.861 13.170 2.696 16.162 12.884 3.265
H15MET 2017-09-28 21:00:00 787 208 900.0 2017.0 271.00 2100.0 13.9100 14.2300 83.700 79.200 11.2000 10.6800 0.00000 0.00000 0.00 0.000 15.892 13.302 2.590 16.225 12.850 3.375
H15MET 2017-09-28 20:45:00 786 208 900.0 2017.0 271.00 2045.0 14.0800 14.3900 86.900 82.400 11.9300 11.4400 0.00000 0.00000 0.00 0.000 16.068 13.960 2.105 16.394 13.515 2.885
H15MET 2017-09-28 20:30:00 785 208 900.0 2017.0 271.00 2030.0 14.2300 14.4500 82.800 79.600 11.3500 10.9700 0.00000 0.00000 0.00 0.000 16.225 13.435 2.791 16.457 13.100 3.357
H15MET 2017-09-28 20:15:00 784 208 900.0 2017.0 271.00 2015.0 14.3700 14.6100 80.400 77.200 11.0500 10.6700 0.00000 0.00000 0.00 0.000 16.372 13.170 3.209 16.628 12.841 3.791
H15MET 2017-09-28 20:00:00 783 208 900.0 2017.0 271.00 2000.0 14.4600 14.7700 82.400 78.200 11.5100 11.0100 0.00000 0.00000 0.00 0.000 16.468 13.578 2.898 16.801 13.135 3.663
H15MET 2017-09-28 19:45:00 782 208 900.0 2017.0 271.00 1945.0 14.6900 14.9900 86.000 82.300 12.3800 12.0000 0.00000 0.00000 0.00 0.000 16.715 14.380 2.340 17.041 14.025 3.016
H15MET 2017-09-28 19:30:00 781 208 900.0 2017.0 271.00 1930.0 14.9200 15.2000 83.900 80.200 12.2300 11.8100 0.00000 0.00000 0.00 0.000 16.964 14.239 2.731 17.273 13.850 3.420
H15MET 2017-09-28 19:15:00 780 208 900.0 2017.0 271.00 1915.0 15.1700 15.4600 84.500 80.200 12.5800 12.0700 0.00000 0.00000 0.00 0.000 17.239 14.570 2.672 17.563 14.089 3.478
H15MET 2017-09-28 19:00:00 779 208 900.0 2017.0 271.00 1900.0 15.4400 15.6800 79.300 76.300 11.8700 11.5200 0.00000 0.00000 0.00 0.000 17.541 13.905 3.631 17.813 13.587 4.222
H15MET 2017-09-28 18:45:00 778 208 900.0 2017.0 271.00 1845.0 15.8200 16.1700 78.000 75.900 12.0000 11.9200 0.00000 0.00000 0.00 0.000 17.973 14.025 3.954 18.379 13.951 4.429
H15MET 2017-09-28 18:30:00 777 208 900.0 2017.0 271.00 1830.0 16.0500 16.6000 78.000 73.200 12.2100 11.7800 0.00000 0.00000 0.00 0.000 18.239 14.220 4.013 18.890 13.822 5.062
H15MET 2017-09-28 18:15:00 776 208 900.0 2017.0 271.00 1815.0 16.4200 16.8400 79.400 74.600 12.8400 12.3000 0.00000 0.00000 0.00 0.000 18.675 14.820 3.847 19.180 14.304 4.872
H15MET 2017-09-28 18:00:00 775 208 900.0 2017.0 271.00 1800.0 16.8600 17.3400 74.000 72.500 12.1900 12.3500 0.00000 0.00000 0.00 0.000 19.204 14.201 4.993 19.797 14.351 5.444
H15MET 2017-09-28 17:45:00 774 208 900.0 2017.0 271.00 1745.0 17.1900 17.8100 76.300 70.400 12.9700 12.3600 0.00000 0.00000 0.00 0.000 19.610 14.947 4.648 20.393 14.361 6.036
H15MET 2017-09-28 17:30:00 773 208 900.0 2017.0 271.00 1730.0 17.6300 18.4200 75.100 66.830 13.1700 12.1400 0.00000 0.00000 0.00 0.000 20.163 15.144 5.020 21.189 14.154 7.028
H15MET 2017-09-28 17:15:00 772 208 900.0 2017.0 271.00 1715.0 18.0400 18.7500 73.400 65.230 13.2100 12.0900 0.00000 0.00000 0.00 0.000 20.690 15.183 5.503 21.631 14.108 7.521
H15MET 2017-09-28 17:00:00 771 208 900.0 2017.0 271.00 1700.0 18.2200 18.9000 72.700 64.680 13.2400 12.1000 0.00000 0.00000 0.00 0.000 20.925 15.213 5.713 21.835 14.117 7.712
H15MET 2017-09-28 16:45:00 770 208 900.0 2017.0 271.00 1645.0 18.5900 19.3200 70.600 62.550 13.1500 11.9900 0.00000 0.00000 0.00 0.000 21.416 15.124 6.296 22.414 14.015 8.394
H15MET 2017-09-28 16:30:00 769 208 900.0 2017.0 271.00 1630.0 19.0500 20.1500 67.480 57.790 12.8900 11.5600 0.00500 0.00500 38.47 1.661 22.040 14.869 7.167 23.598 13.623 9.961
H15MET 2017-09-28 16:15:00 768 208 900.0 2017.0 271.00 1615.0 19.7900 20.8600 62.910 52.970 12.5100 10.9000 0.03000 0.02400 58.30 12.050 23.078 14.503 8.560 24.654 13.039 11.595
H15MET 2017-09-28 16:00:00 767 208 900.0 2017.0 271.00 1600.0 19.4200 20.3800 64.710 55.350 12.6000 11.1300 0.00400 0.00400 3.07 0.140 22.554 14.589 7.959 23.936 13.240 10.687
H15MET 2017-09-28 15:45:00 766 208 900.0 2017.0 271.00 1545.0 19.5900 20.5600 62.950 53.730 12.3400 10.8500 0.00600 0.00600 72.70 1.195 22.793 14.342 8.445 24.203 12.996 11.199
H15MET 2017-09-28 15:30:00 765 208 900.0 2017.0 271.00 1530.0 19.7900 20.7900 61.330 52.080 12.1300 10.5800 0.00700 0.00700 59.22 0.587 23.078 14.145 8.924 24.548 12.764 11.764
H15MET 2017-09-28 15:15:00 764 208 900.0 2017.0 271.00 1515.0 20.1600 21.3600 59.350 48.560 11.9800 10.0600 0.00900 0.00900 57.94 1.684 23.613 14.006 9.599 25.422 12.328 13.077
H15MET 2017-09-28 15:00:00 763 208 900.0 2017.0 271.00 1500.0 20.1800 21.3300 60.170 49.230 12.2100 10.2300 0.00000 0.00000 0.00 0.000 23.642 14.220 9.417 25.376 12.469 12.883
H15MET 2017-09-28 14:45:00 762 208 900.0 2017.0 271.00 1445.0 20.2500 21.4600 60.020 48.950 12.2300 10.2800 0.00000 0.00000 0.00 0.000 23.744 14.239 9.493 25.579 12.511 13.058
H15MET 2017-09-28 14:30:00 761 208 900.0 2017.0 271.00 1430.0 20.4100 21.6800 59.410 47.970 12.2300 10.1800 0.00000 0.00000 0.00 0.000 23.980 14.239 9.734 25.925 12.428 13.489
H15MET 2017-09-28 14:15:00 760 208 900.0 2017.0 271.00 1415.0 20.8600 22.2000 55.240 42.630 11.5300 8.8600 0.00000 0.00000 0.00 0.000 24.654 13.596 11.035 26.760 11.372 15.352
H15MET 2017-09-28 14:00:00 759 208 900.0 2017.0 271.00 1400.0 20.9200 22.4400 52.760 38.840 10.9000 7.6700 0.00000 0.00000 0.00 0.000 24.745 13.039 11.690 27.154 10.488 16.607
H15MET 2017-09-28 13:45:00 758 208 900.0 2017.0 271.00 1345.0 21.0600 22.3300 51.000 38.390 10.4700 7.3900 0.02200 0.02100 348.30 4.430 24.959 12.671 12.230 26.973 10.289 16.618
H15MET 2017-09-28 13:30:00 757 208 900.0 2017.0 271.00 1330.0 20.2600 21.4000 61.740 50.410 12.6700 10.6300 0.00000 0.00000 0.00 0.000 23.759 14.656 9.090 25.485 12.807 12.638
H15MET 2017-09-28 13:15:00 756 208 900.0 2017.0 271.00 1315.0 20.4600 21.7200 57.720 46.220 11.8300 9.6500 0.00000 0.00000 0.00 0.000 24.054 13.868 10.170 25.988 11.994 13.977
H15MET 2017-09-28 13:00:00 755 208 900.0 2017.0 271.00 1300.0 20.1900 21.4000 55.740 44.690 10.8700 8.5900 0.00000 0.00000 0.00 0.000 23.657 13.013 10.470 25.485 11.166 14.096
H15MET 2017-09-28 12:45:00 754 208 900.0 2017.0 271.00 1245.0 20.0200 21.3400 56.300 44.500 11.0400 8.7100 0.00000 0.00000 0.00 0.000 23.409 13.161 10.230 25.391 11.257 14.092
H15MET 2017-09-28 12:30:00 753 208 900.0 2017.0 271.00 1230.0 20.0200 21.1300 58.820 47.230 11.6700 9.3900 0.00000 0.00000 0.00 0.000 23.409 13.722 9.640 25.066 11.786 13.228
H15MET 2017-09-28 12:15:00 752 208 900.0 2017.0 271.00 1215.0 19.3200 20.3800 64.220 54.630 12.3600 10.8900 0.00000 0.00000 0.00 0.000 22.414 14.361 8.020 23.936 13.030 10.860
H15MET 2017-09-28 12:00:00 751 208 900.0 2017.0 271.00 1200.0 19.1300 19.9300 66.530 58.360 12.7400 11.5100 0.00000 0.00000 0.00 0.000 22.150 14.724 7.414 23.279 13.578 9.693
H15MET 2017-09-28 11:45:00 750 208 900.0 2017.0 271.00 1145.0 18.8300 19.6300 67.710 63.230 12.7300 12.4400 0.00000 0.00000 0.00 0.000 21.740 14.714 7.020 22.850 14.437 8.402
H15MET 2017-09-28 11:30:00 749 208 900.0 2017.0 271.00 1130.0 18.4800 19.4600 67.870 60.420 12.4300 11.6000 0.00000 0.00000 0.00 0.000 21.269 14.427 6.834 22.610 13.659 8.949
H15MET 2017-09-28 11:15:00 748 208 900.0 2017.0 271.00 1115.0 18.0100 19.0300 69.400 63.550 12.3300 11.9500 0.00000 0.00000 0.00 0.000 20.651 14.333 6.319 22.013 13.978 8.024
H15MET 2017-09-28 11:00:00 747 208 900.0 2017.0 271.00 1100.0 17.5100 18.5600 70.800 62.200 12.1400 11.1800 0.00000 0.00000 0.00 0.000 20.010 14.154 5.843 21.376 13.284 8.080
H15MET 2017-09-28 10:45:00 746 208 900.0 2017.0 271.00 1045.0 16.9500 17.9800 72.200 62.810 11.9100 10.7800 0.00000 0.00000 0.00 0.000 19.314 13.941 5.369 20.612 12.935 7.666
H15MET 2017-09-28 10:30:00 745 208 900.0 2017.0 271.00 1030.0 16.5700 17.6100 75.100 64.600 12.1400 10.8700 0.00000 0.00000 0.00 0.000 18.854 14.154 4.695 20.137 13.013 7.129
H15MET 2017-09-28 10:15:00 744 208 900.0 2017.0 271.00 1015.0 16.5200 17.7400 74.600 64.330 12.0000 10.9200 0.00000 0.00000 0.00 0.000 18.794 14.025 4.774 20.303 13.056 7.242
H15MET 2017-09-28 10:00:00 743 208 900.0 2017.0 271.00 1000.0 16.2700 17.0300 75.100 68.110 11.8500 11.1100 0.00000 0.00000 0.00 0.000 18.497 13.886 4.606 19.412 13.222 6.191
H15MET 2017-09-28 09:45:00 742 208 900.0 2017.0 271.00 945.0 15.3900 16.3100 78.000 70.100 11.5800 10.8500 0.00000 0.00000 0.00 0.000 17.485 13.641 3.847 18.544 12.996 5.545
H15MET 2017-09-28 09:30:00 741 208 900.0 2017.0 271.00 930.0 14.2700 15.0600 82.000 74.000 11.2400 10.4700 0.00000 0.00000 0.00 0.000 16.267 13.337 2.928 17.118 12.671 4.451
H15MET 2017-09-28 09:15:00 740 208 900.0 2017.0 271.00 915.0 13.9100 14.8100 80.900 73.200 10.6800 10.0600 0.00000 0.00000 0.00 0.000 15.892 12.850 3.035 16.844 12.328 4.514
H15MET 2017-09-28 09:00:00 739 208 900.0 2017.0 271.00 900.0 13.9400 14.7300 78.400 70.600 10.2500 9.4300 0.00000 0.00000 0.00 0.000 15.923 12.486 3.439 16.758 11.818 4.927
H15MET 2017-09-28 08:45:00 738 208 900.0 2017.0 271.00 845.0 14.1800 15.3500 77.000 68.420 10.2100 9.5800 0.00000 0.00000 0.00 0.000 16.172 12.453 3.720 17.440 11.937 5.508
H15MET 2017-09-28 08:30:00 737 208 900.0 2017.0 271.00 830.0 13.2900 14.5000 79.100 70.000 9.7500 9.1000 0.00000 0.00000 0.00 0.000 15.263 12.075 3.190 16.511 11.558 4.953
H15MET 2017-09-28 08:15:00 736 208 900.0 2017.0 271.00 815.0 12.0900 12.6200 81.700 74.500 9.0600 8.2000 0.00000 0.00000 0.00 0.000 14.108 11.526 2.582 14.608 10.874 3.725
H15MET 2017-09-28 08:00:00 735 208 900.0 2017.0 271.00 800.0 11.6000 11.9900 85.800 78.000 9.3100 8.2700 0.00000 0.00000 0.00 0.000 13.659 11.722 1.940 14.015 10.926 3.083
H15MET 2017-09-28 07:45:00 734 208 900.0 2017.0 271.00 745.0 11.1700 11.4300 87.500 81.800 9.1700 8.4400 0.00000 0.00000 0.00 0.000 13.275 11.612 1.659 13.506 11.053 2.458
H15MET 2017-09-28 07:30:00 733 208 900.0 2017.0 271.00 730.0 10.9700 11.1100 86.400 84.400 8.7900 8.5800 0.00000 0.00000 0.00 0.000 13.100 11.318 1.782 13.222 11.158 2.063
H15MET 2017-09-28 07:15:00 732 208 900.0 2017.0 271.00 715.0 10.9700 11.1000 84.900 82.700 8.5300 8.2700 0.00000 0.00000 0.00 0.000 13.100 11.120 1.978 13.214 10.926 2.286
H15MET 2017-09-28 07:00:00 731 208 900.0 2017.0 271.00 700.0 11.0900 11.2400 82.200 80.700 8.1600 8.0500 0.00000 0.00000 0.00 0.000 13.205 10.844 2.350 13.337 10.764 2.574
H15MET 2017-09-28 06:45:00 730 208 900.0 2017.0 271.00 645.0 11.0200 11.1700 82.900 80.200 8.2200 7.8800 0.00000 0.00000 0.00 0.000 13.144 10.889 2.248 13.275 10.640 2.628
H15MET 2017-09-28 06:30:00 729 208 900.0 2017.0 271.00 630.0 11.0800 11.2300 81.000 77.300 7.9600 7.3900 0.00000 0.00000 0.00 0.000 13.196 10.698 2.507 13.328 10.289 3.025
H15MET 2017-09-28 06:15:00 728 208 900.0 2017.0 271.00 615.0 11.1200 11.3000 82.700 79.300 8.2900 7.8500 0.00000 0.00000 0.00 0.000 13.231 10.941 2.289 13.390 10.618 2.772
H15MET 2017-09-28 06:00:00 727 208 900.0 2017.0 271.00 600.0 11.1200 11.2700 79.600 75.500 7.7300 7.0900 0.00000 0.00000 0.00 0.000 13.231 10.531 2.699 13.364 10.080 3.274
H15MET 2017-09-28 05:45:00 726 208 900.0 2017.0 271.00 545.0 11.2900 11.4400 80.400 76.500 8.0300 7.4600 0.00000 0.00000 0.00 0.000 13.381 10.749 2.623 13.515 10.339 3.176
H15MET 2017-09-28 05:30:00 725 208 900.0 2017.0 271.00 530.0 11.5600 11.7100 77.600 76.400 7.7800 7.6900 0.00000 0.00000 0.00 0.000 13.623 10.567 3.052 13.759 10.503 3.247
H15MET 2017-09-28 05:15:00 724 208 900.0 2017.0 271.00 515.0 11.7100 11.9000 82.500 79.800 8.8300 8.5100 0.00000 0.00000 0.00 0.000 13.759 11.349 2.408 13.932 11.105 2.814
H15MET 2017-09-28 05:00:00 723 208 900.0 2017.0 271.00 500.0 11.7700 11.9500 81.300 79.000 8.6600 8.4300 0.00000 0.00000 0.00 0.000 13.813 11.219 2.583 13.978 11.045 2.935
H15MET 2017-09-28 04:45:00 722 208 900.0 2017.0 271.00 445.0 11.8500 12.0600 79.500 75.300 8.4300 7.8300 0.00000 0.00000 0.00 0.000 13.886 11.045 2.847 14.080 10.603 3.478
H15MET 2017-09-28 04:30:00 721 208 900.0 2017.0 271.00 430.0 11.9900 12.2300 79.600 75.100 8.5800 7.9400 0.00000 0.00000 0.00 0.000 14.015 11.158 2.859 14.239 10.683 3.545
H15MET 2017-09-28 04:15:00 720 208 900.0 2017.0 271.00 415.0 12.1300 12.3900 77.100 72.900 8.2400 7.6500 0.00000 0.00000 0.00 0.000 14.145 10.904 3.239 14.389 10.474 3.899
H15MET 2017-09-28 04:00:00 719 208 900.0 2017.0 271.00 400.0 12.4600 12.7200 81.600 76.700 9.4000 8.7200 0.00000 0.00000 0.00 0.000 14.456 11.794 2.660 14.704 11.264 3.426
H15MET 2017-09-28 03:45:00 718 208 900.0 2017.0 271.00 345.0 12.6500 12.9700 79.400 73.700 9.1800 8.3700 0.00000 0.00000 0.00 0.000 14.637 11.620 3.015 14.947 11.000 3.931
H15MET 2017-09-28 03:30:00 717 208 900.0 2017.0 271.00 330.0 12.7500 13.0700 78.600 74.600 9.1200 8.6700 0.00000 0.00000 0.00 0.000 14.733 11.573 3.153 15.045 11.226 3.821
H15MET 2017-09-28 03:15:00 716 208 900.0 2017.0 271.00 315.0 12.8400 13.1600 79.800 74.600 9.4400 8.7600 0.00000 0.00000 0.00 0.000 14.820 11.826 2.994 15.134 11.295 3.844
H15MET 2017-09-28 03:00:00 715 208 900.0 2017.0 271.00 300.0 12.9200 13.2200 80.400 73.800 9.6100 8.6500 0.00000 0.00000 0.00 0.000 14.898 11.962 2.920 15.193 11.211 3.981
H15MET 2017-09-28 02:45:00 714 208 900.0 2017.0 271.00 245.0 13.0900 13.4100 76.100 70.400 8.9700 8.1100 0.00000 0.00000 0.00 0.000 15.065 11.457 3.600 15.383 10.808 4.553
H15MET 2017-09-28 02:30:00 713 208 900.0 2017.0 271.00 230.0 13.1900 13.5100 77.900 71.900 9.4100 8.5200 0.00000 0.00000 0.00 0.000 15.164 11.802 3.351 15.483 11.113 4.351
H15MET 2017-09-28 02:15:00 712 208 900.0 2017.0 271.00 215.0 13.3600 13.7200 79.400 72.300 9.8600 8.8200 0.00000 0.00000 0.00 0.000 15.333 12.164 3.159 15.697 11.341 4.348
H15MET 2017-09-28 02:00:00 711 208 900.0 2017.0 271.00 200.0 13.4700 13.8400 77.100 71.000 9.5300 8.6500 0.00000 0.00000 0.00 0.000 15.443 11.897 3.536 15.819 11.211 4.588
H15MET 2017-09-28 01:45:00 710 208 900.0 2017.0 271.00 145.0 13.5400 13.9100 76.800 70.200 9.5300 8.5600 0.00000 0.00000 0.00 0.000 15.514 11.897 3.599 15.892 11.143 4.736
H15MET 2017-09-28 01:30:00 709 208 900.0 2017.0 271.00 130.0 13.7900 14.1700 78.500 72.800 10.1100 9.3600 0.00000 0.00000 0.00 0.000 15.768 12.370 3.390 16.162 11.762 4.396
H15MET 2017-09-28 01:15:00 708 208 900.0 2017.0 271.00 115.0 14.0500 14.5700 72.100 63.610 9.1000 7.7300 0.00000 0.00000 0.00 0.000 16.037 11.558 4.474 16.586 10.531 6.035
H15MET 2017-09-28 01:00:00 707 208 900.0 2017.0 271.00 100.0 14.1100 14.5800 76.400 68.020 10.0200 8.7400 0.00000 0.00000 0.00 0.000 16.099 12.295 3.799 16.596 11.280 5.307
H15MET 2017-09-28 00:45:00 706 208 900.0 2017.0 271.00 45.0 14.1000 14.5800 76.000 67.560 9.9500 8.6400 0.00000 0.00000 0.00 0.000 16.089 12.238 3.861 16.596 11.204 5.384
H15MET 2017-09-28 00:30:00 705 208 900.0 2017.0 271.00 30.0 13.9600 14.3500 77.400 69.930 10.0700 8.9400 0.00000 0.00000 0.00 0.000 15.943 12.336 3.603 16.351 11.433 4.917
H15MET 2017-09-28 00:15:00 704 208 900.0 2017.0 271.00 15.0 13.8900 14.2400 77.600 71.900 10.0300 9.2300 0.00000 0.00000 0.00 0.000 15.871 12.303 3.555 16.235 11.659 4.562
H15MET 2017-09-28 00:00:00 703 208 900.0 2017.0 270.00 2400.0 14.0700 14.4500 76.900 71.300 10.0900 9.3000 0.00000 0.00000 0.00 0.000 16.057 12.353 3.709 16.457 11.715 4.723
H15MET 2017-09-27 23:45:00 702 208 900.0 2017.0 270.00 2345.0 14.2900 14.7200 74.300 67.510 9.7900 8.7600 0.00000 0.00000 0.00 0.000 16.288 12.107 4.186 16.747 11.295 5.441
H15MET 2017-09-27 23:30:00 701 208 900.0 2017.0 270.00 2330.0 14.4800 14.9700 72.200 65.280 9.5300 8.4900 0.00000 0.00000 0.00 0.000 16.489 11.897 4.584 17.019 11.090 5.909
H15MET 2017-09-27 23:15:00 700 208 900.0 2017.0 270.00 2315.0 14.6700 15.2200 71.500 63.230 9.5700 8.2800 0.00000 0.00000 0.00 0.000 16.693 11.929 4.758 17.295 10.933 6.359
H15MET 2017-09-27 23:00:00 699 208 900.0 2017.0 270.00 2300.0 14.8900 15.4800 71.600 62.740 9.8100 8.4100 0.00000 0.00000 0.00 0.000 16.932 12.123 4.809 17.586 11.030 6.553
H15MET 2017-09-27 22:45:00 698 208 900.0 2017.0 270.00 2245.0 15.0500 15.7400 69.030 60.240 9.4200 8.0500 0.00000 0.00000 0.00 0.000 17.107 11.810 5.298 17.881 10.764 7.110
H15MET 2017-09-27 22:30:00 697 208 900.0 2017.0 270.00 2230.0 15.3200 16.1000 66.560 57.030 9.1300 7.5900 0.00500 0.00300 300.60 1.145 17.406 11.581 5.821 18.298 10.431 7.862
H15MET 2017-09-27 22:15:00 696 208 900.0 2017.0 270.00 2215.0 15.1200 15.8600 67.690 59.000 9.1800 7.8600 0.04100 0.03900 246.60 0.808 17.184 11.620 5.552 18.019 10.625 7.388
H15MET 2017-09-27 22:00:00 695 208 900.0 2017.0 270.00 2200.0 15.4300 16.2500 66.570 57.260 9.2400 7.7900 0.01600 0.01200 198.70 6.090 17.530 11.667 5.860 18.473 10.575 7.896
H15MET 2017-09-27 21:45:00 694 208 900.0 2017.0 270.00 2145.0 15.3100 16.2500 68.350 58.710 9.5200 8.1500 0.20500 0.15600 314.00 23.710 17.395 11.889 5.506 18.473 10.837 7.628
H15MET 2017-09-27 21:30:00 693 208 900.0 2017.0 270.00 2130.0 15.4600 16.3800 67.890 58.190 9.5600 8.1400 0.15100 0.08700 301.10 26.410 17.563 11.921 5.640 18.627 10.830 7.788
H15MET 2017-09-27 21:15:00 692 208 900.0 2017.0 270.00 2115.0 15.6800 16.5400 67.200 58.210 9.5900 8.2900 0.11800 0.05400 238.30 22.170 17.813 11.945 5.843 18.818 10.941 7.864
H15MET 2017-09-27 21:00:00 691 208 900.0 2017.0 270.00 2100.0 15.3300 16.1700 73.000 64.320 10.5100 9.4300 0.03600 0.01800 66.08 17.430 17.418 12.705 4.703 18.379 11.818 6.558
H15MET 2017-09-27 20:45:00 690 208 900.0 2017.0 270.00 2045.0 15.4500 16.2900 72.100 62.730 10.4600 9.1600 0.10600 0.07200 237.60 20.660 17.552 12.662 4.897 18.521 11.604 6.903
H15MET 2017-09-27 20:30:00 689 208 900.0 2017.0 270.00 2030.0 15.5200 16.2500 72.400 64.020 10.5700 9.4300 0.01600 0.01200 311.50 7.470 17.631 12.756 4.866 18.473 11.818 6.647
H15MET 2017-09-27 20:15:00 688 208 900.0 2017.0 270.00 2015.0 16.3300 17.0800 67.900 60.160 10.3600 9.2600 0.09800 0.05300 211.50 21.730 18.568 12.578 5.960 19.474 11.683 7.758
H15MET 2017-09-27 20:00:00 687 208 900.0 2017.0 270.00 2000.0 15.8700 16.5400 71.200 63.150 10.6400 9.5000 0.07900 0.03000 180.50 25.970 18.031 12.815 5.193 18.818 11.873 6.934
H15MET 2017-09-27 19:45:00 686 208 900.0 2017.0 270.00 1945.0 15.6200 16.3600 72.800 63.990 10.7400 9.5200 0.01700 0.01700 215.50 2.080 17.745 12.901 4.827 18.603 11.889 6.699
H15MET 2017-09-27 19:30:00 685 208 900.0 2017.0 270.00 1930.0 15.6700 16.2900 75.200 67.150 11.3100 10.1900 0.00000 0.00000 0.00 0.000 17.801 13.399 4.415 18.521 12.436 6.084
H15MET 2017-09-27 19:15:00 684 208 900.0 2017.0 270.00 1915.0 15.9400 16.6800 72.300 64.320 10.9700 9.9000 0.00600 0.00500 218.70 6.040 18.112 13.100 5.017 18.986 12.197 6.774
H15MET 2017-09-27 19:00:00 683 208 900.0 2017.0 270.00 1900.0 16.1500 16.8900 71.600 62.990 11.0100 9.7900 0.01700 0.00700 229.30 12.810 18.356 13.135 5.213 19.241 12.107 7.121
H15MET 2017-09-27 18:45:00 682 208 900.0 2017.0 270.00 1845.0 16.1600 17.0000 72.200 62.640 11.1500 9.8200 0.00000 0.00000 0.00 0.000 18.368 13.258 5.106 19.375 12.131 7.239
H15MET 2017-09-27 18:30:00 681 208 900.0 2017.0 270.00 1830.0 16.3400 17.1700 72.000 62.510 11.2800 9.9400 0.01800 0.00500 229.40 15.380 18.580 13.372 5.202 19.585 12.229 7.342
H15MET 2017-09-27 18:15:00 680 208 900.0 2017.0 270.00 1815.0 16.5200 17.2500 71.600 62.730 11.3700 10.0800 0.00000 0.00000 0.00 0.000 18.794 13.452 5.337 19.684 12.345 7.336
H15MET 2017-09-27 18:00:00 679 208 900.0 2017.0 270.00 1800.0 16.8800 17.6400 70.900 62.380 11.5700 10.3600 0.00000 0.00000 0.00 0.000 19.229 13.632 5.595 20.175 12.578 7.590
H15MET 2017-09-27 17:45:00 678 208 900.0 2017.0 270.00 1745.0 17.2700 18.2000 67.250 57.230 11.1500 9.6000 0.00000 0.00000 0.00 0.000 19.709 13.258 6.455 20.899 11.953 8.938
H15MET 2017-09-27 17:30:00 677 208 900.0 2017.0 270.00 1730.0 17.5100 18.4300 65.880 55.770 11.0600 9.4400 0.00000 0.00000 0.00 0.000 20.010 13.179 6.828 21.202 11.826 9.378
H15MET 2017-09-27 17:15:00 676 208 900.0 2017.0 270.00 1715.0 17.7100 18.6600 64.930 54.790 11.0300 9.3900 0.00000 0.00000 0.00 0.000 20.264 13.152 7.107 21.510 11.786 9.725
H15MET 2017-09-27 17:00:00 675 208 900.0 2017.0 270.00 1700.0 17.9000 18.8300 65.740 55.210 11.4000 9.6600 0.00000 0.00000 0.00 0.000 20.508 13.479 7.026 21.740 12.002 9.737
H15MET 2017-09-27 16:45:00 674 208 900.0 2017.0 270.00 1645.0 18.1600 19.1400 65.360 55.130 11.5600 9.9300 0.00000 0.00000 0.00 0.000 20.846 13.623 7.221 22.164 12.221 9.945
H15MET 2017-09-27 16:30:00 673 208 900.0 2017.0 270.00 1630.0 18.4600 19.4700 64.850 54.270 11.7200 9.9900 0.00000 0.00000 0.00 0.000 21.242 13.768 7.467 22.624 12.271 10.346
H15MET 2017-09-27 16:15:00 672 208 900.0 2017.0 270.00 1615.0 18.7300 19.8500 63.060 51.720 11.5500 9.6200 0.00000 0.00000 0.00 0.000 21.604 13.614 7.981 23.164 11.970 11.184
H15MET 2017-09-27 16:00:00 671 208 900.0 2017.0 270.00 1600.0 18.8500 19.8300 65.130 54.310 12.1600 10.3400 0.00000 0.00000 0.00 0.000 21.767 14.173 7.590 23.135 12.561 10.571
H15MET 2017-09-27 15:45:00 670 208 900.0 2017.0 270.00 1545.0 19.3600 20.3900 62.380 52.080 11.9900 10.2300 0.00000 0.00000 0.00 0.000 22.470 14.015 8.453 23.951 12.469 11.477
H15MET 2017-09-27 15:30:00 669 208 900.0 2017.0 270.00 1530.0 19.5700 20.5100 61.690 51.750 11.9800 10.2100 0.08000 0.01900 126.60 24.790 22.765 14.006 8.721 24.129 12.453 11.642
H15MET 2017-09-27 15:15:00 668 208 900.0 2017.0 270.00 1515.0 19.7100 20.7400 60.660 50.910 11.8600 10.1800 0.05900 0.01900 182.00 19.950 22.964 13.896 9.034 24.473 12.428 12.014
H15MET 2017-09-27 15:00:00 667 208 900.0 2017.0 270.00 1500.0 19.9700 20.9700 61.840 52.150 12.4100 10.7700 0.06900 0.06000 265.80 5.180 23.337 14.408 8.905 24.821 12.927 11.877
H15MET 2017-09-27 14:45:00 666 208 900.0 2017.0 270.00 1445.0 20.2000 21.1900 58.550 49.140 11.7400 10.0200 0.08900 0.07100 277.30 18.350 23.671 13.786 9.812 25.159 12.295 12.796
H15MET 2017-09-27 14:30:00 665 208 900.0 2017.0 270.00 1430.0 19.6800 20.6300 64.150 54.560 12.7100 11.1400 0.00500 0.00400 284.70 8.710 22.921 14.695 8.217 24.308 13.249 11.045
H15MET 2017-09-27 14:15:00 664 208 900.0 2017.0 270.00 1415.0 20.8900 21.7600 56.800 47.880 11.9100 10.1300 0.11900 0.11500 248.20 6.603 24.700 13.941 10.670 26.052 12.386 13.578
H15MET 2017-09-27 14:00:00 663 208 900.0 2017.0 270.00 1400.0 20.4100 21.1600 55.970 47.630 11.2100 9.5000 0.11500 0.04300 231.00 17.850 23.980 13.310 10.558 25.113 11.873 13.151
H15MET 2017-09-27 13:45:00 662 208 900.0 2017.0 270.00 1345.0 20.5500 21.5300 55.750 46.240 11.2900 9.3700 0.04300 0.04300 268.90 0.909 24.188 13.381 10.703 25.688 11.770 13.810
H15MET 2017-09-27 13:30:00 661 208 900.0 2017.0 270.00 1330.0 20.1600 21.3500 55.710 44.980 10.8500 8.7200 0.01800 0.01300 266.00 3.252 23.613 12.996 10.458 25.407 11.264 13.979
H15MET 2017-09-27 13:15:00 660 208 900.0 2017.0 270.00 1315.0 20.5600 21.6800 57.530 46.670 11.8400 9.6900 0.00000 0.00000 0.00 0.000 24.203 13.877 10.279 25.925 12.026 13.826
H15MET 2017-09-27 13:00:00 659 208 900.0 2017.0 270.00 1300.0 20.7200 21.9700 51.330 38.650 10.0900 7.0600 0.00600 0.00600 2.00 2.319 24.443 12.353 11.896 26.388 10.059 16.189
H15MET 2017-09-27 12:45:00 658 208 900.0 2017.0 270.00 1245.0 19.7200 20.8500 57.750 42.750 11.0200 7.5000 0.00800 0.00800 337.60 0.680 22.978 13.144 9.708 24.639 10.367 14.106
H15MET 2017-09-27 12:30:00 657 208 900.0 2017.0 270.00 1230.0 19.7400 20.9200 59.680 47.840 11.6000 9.2800 0.00000 0.00000 0.00 0.000 23.007 13.659 9.276 24.745 11.699 12.907
H15MET 2017-09-27 12:15:00 656 208 900.0 2017.0 270.00 1215.0 19.3300 20.4100 60.430 48.270 11.4800 9.0600 0.00000 0.00000 0.00 0.000 22.428 13.551 8.875 23.980 11.526 12.405
H15MET 2017-09-27 12:00:00 655 208 900.0 2017.0 270.00 1200.0 19.1700 20.2400 58.200 48.110 10.7200 8.8500 0.00000 0.00000 0.00 0.000 22.206 12.884 9.282 23.730 11.364 12.313
H15MET 2017-09-27 11:45:00 654 208 900.0 2017.0 270.00 1145.0 18.9700 19.9700 57.920 50.410 10.4800 9.3300 0.00000 0.00000 0.00 0.000 21.930 12.679 9.228 23.337 11.738 11.573
H15MET 2017-09-27 11:30:00 653 208 900.0 2017.0 270.00 1130.0 18.4600 19.3600 62.580 52.510 11.1200 9.2800 0.00000 0.00000 299.10 0.000 21.242 13.231 7.949 22.470 11.699 10.671
H15MET 2017-09-27 11:15:00 652 208 900.0 2017.0 270.00 1115.0 17.7100 18.6800 67.650 60.890 11.6400 10.9600 0.00000 0.00000 0.00 0.000 20.264 13.695 6.556 21.537 13.091 8.423
H15MET 2017-09-27 11:00:00 651 208 900.0 2017.0 270.00 1100.0 17.6800 18.7100 68.220 59.240 11.7300 10.5500 0.00000 0.00000 0.00 0.000 20.226 13.777 6.428 21.577 12.739 8.795
H15MET 2017-09-27 10:45:00 650 208 900.0 2017.0 270.00 1045.0 17.4100 18.5700 68.050 56.520 11.3900 9.6300 0.13300 0.12500 309.20 6.300 19.885 13.470 6.353 21.389 11.978 9.300
H15MET 2017-09-27 10:30:00 649 208 900.0 2017.0 270.00 1030.0 16.6900 17.5900 75.000 67.810 12.2400 11.5700 0.00000 0.00000 0.00 0.000 18.998 14.248 4.750 20.112 13.632 6.474
H15MET 2017-09-27 10:15:00 648 208 900.0 2017.0 270.00 1015.0 16.6200 17.6700 72.900 65.340 11.7500 11.0900 0.00000 0.00000 0.00 0.000 18.914 13.795 5.126 20.213 13.205 7.006
H15MET 2017-09-27 10:00:00 647 208 900.0 2017.0 270.00 1000.0 16.5000 17.1400 73.800 67.360 11.8000 11.0400 0.00000 0.00000 0.00 0.000 18.770 13.841 4.918 19.548 13.161 6.380
H15MET 2017-09-27 09:45:00 646 208 900.0 2017.0 270.00 945.0 15.4900 16.2800 79.200 71.900 11.9000 11.1900 0.00000 0.00000 0.00 0.000 17.597 13.932 3.660 18.509 13.293 5.201
H15MET 2017-09-27 09:30:00 645 208 900.0 2017.0 270.00 930.0 14.3400 15.1800 84.700 77.400 11.7900 11.2600 0.00000 0.00000 0.00 0.000 16.341 13.831 2.500 17.250 13.355 3.899
H15MET 2017-09-27 09:15:00 644 208 900.0 2017.0 270.00 915.0 13.8800 15.0400 85.500 76.900 11.4900 11.0200 0.00000 0.00000 0.00 0.000 15.861 13.560 2.300 17.096 13.144 3.949
H15MET 2017-09-27 09:00:00 643 208 900.0 2017.0 270.00 900.0 13.9000 14.6000 83.500 75.800 11.1500 10.3800 0.00000 0.00000 0.00 0.000 15.881 13.258 2.620 16.618 12.595 4.021
H15MET 2017-09-27 08:45:00 642 208 900.0 2017.0 270.00 845.0 14.2200 14.8800 82.500 76.400 11.2900 10.7800 0.00000 0.00000 0.00 0.000 16.214 13.381 2.837 16.921 12.935 3.993
H15MET 2017-09-27 08:30:00 641 208 900.0 2017.0 270.00 830.0 13.2600 14.1700 86.200 78.300 10.9900 10.4500 0.00000 0.00000 0.00 0.000 15.233 13.117 2.102 16.162 12.654 3.507
H15MET 2017-09-27 08:15:00 640 208 900.0 2017.0 270.00 815.0 12.0800 12.5200 91.200 84.900 10.6900 10.0400 0.00000 0.00000 0.00 0.000 14.099 12.858 1.241 14.513 12.312 2.191
H15MET 2017-09-27 08:00:00 639 208 900.0 2017.0 270.00 800.0 11.7400 11.9500 93.300 88.200 10.6900 10.0500 0.00000 0.00000 0.00 0.000 13.786 12.858 0.924 13.978 12.320 1.649
H15MET 2017-09-27 07:45:00 638 208 900.0 2017.0 270.00 745.0 11.3600 11.5100 93.400 89.600 10.3300 9.8600 0.00000 0.00000 0.00 0.000 13.444 12.553 0.887 13.578 12.164 1.412
H15MET 2017-09-27 07:30:00 637 208 900.0 2017.0 270.00 730.0 11.3000 11.4900 93.200 90.600 10.2400 10.0000 0.00000 0.00000 0.00 0.000 13.390 12.478 0.911 13.560 12.279 1.275
H15MET 2017-09-27 07:15:00 636 208 900.0 2017.0 270.00 715.0 11.3900 11.5600 93.300 90.500 10.3400 10.0600 0.00000 0.00000 0.00 0.000 13.470 12.561 0.903 13.623 12.328 1.294
H15MET 2017-09-27 07:00:00 635 208 900.0 2017.0 270.00 700.0 11.5500 11.7100 91.500 88.800 10.2100 9.9300 0.00000 0.00000 0.00 0.000 13.614 12.453 1.157 13.759 12.221 1.541
H15MET 2017-09-27 06:45:00 634 208 900.0 2017.0 270.00 645.0 11.6900 11.8800 89.800 86.200 10.0700 9.6600 0.00000 0.00000 0.00 0.000 13.740 12.336 1.402 13.914 12.002 1.920
H15MET 2017-09-27 06:30:00 633 208 900.0 2017.0 270.00 630.0 11.9700 12.1800 90.200 86.200 10.4000 9.9300 0.00000 0.00000 0.00 0.000 13.997 12.612 1.372 14.192 12.221 1.958
H15MET 2017-09-27 06:15:00 632 208 900.0 2017.0 270.00 615.0 12.1600 12.4600 89.100 84.700 10.4200 9.9500 0.00000 0.00000 0.00 0.000 14.173 12.629 1.545 14.456 12.238 2.212
H15MET 2017-09-27 06:00:00 631 208 900.0 2017.0 270.00 600.0 12.2600 12.6600 84.900 78.800 9.7900 9.0800 0.00000 0.00000 0.00 0.000 14.267 12.107 2.154 14.647 11.542 3.105
H15MET 2017-09-27 05:45:00 630 208 900.0 2017.0 270.00 545.0 12.2000 12.5400 84.500 77.600 9.6700 8.7300 0.00000 0.00000 0.00 0.000 14.211 12.010 2.203 14.532 11.272 3.255
H15MET 2017-09-27 05:30:00 629 208 900.0 2017.0 270.00 530.0 12.0900 12.4400 86.000 79.400 9.8300 8.9700 0.00000 0.00000 0.00 0.000 14.108 12.140 1.975 14.437 11.457 2.974
H15MET 2017-09-27 05:15:00 628 208 900.0 2017.0 270.00 515.0 12.0900 12.4300 85.600 79.700 9.7500 9.0200 0.00000 0.00000 0.00 0.000 14.108 12.075 2.032 14.427 11.495 2.929
H15MET 2017-09-27 05:00:00 627 208 900.0 2017.0 270.00 500.0 12.1200 12.4600 85.500 79.800 9.7600 9.0700 0.00000 0.00000 0.00 0.000 14.136 12.083 2.050 14.456 11.534 2.920
H15MET 2017-09-27 04:45:00 626 208 900.0 2017.0 270.00 445.0 12.3200 12.6800 85.600 79.700 9.9700 9.2800 0.00000 0.00000 0.00 0.000 14.323 12.254 2.063 14.666 11.699 2.977
H15MET 2017-09-27 04:30:00 625 208 900.0 2017.0 270.00 430.0 12.5100 12.8700 83.700 77.100 9.8200 8.9600 0.00000 0.00000 0.00 0.000 14.503 12.131 2.364 14.850 11.449 3.401
H15MET 2017-09-27 04:15:00 624 208 900.0 2017.0 270.00 415.0 12.6600 13.0500 83.800 76.900 9.9900 9.0900 0.00000 0.00000 0.00 0.000 14.647 12.271 2.373 15.025 11.550 3.471
H15MET 2017-09-27 04:00:00 623 208 900.0 2017.0 270.00 400.0 12.7800 13.1600 83.200 77.200 10.0100 9.2500 0.00000 0.00000 0.00 0.000 14.762 12.287 2.480 15.134 11.675 3.451
H15MET 2017-09-27 03:45:00 622 208 900.0 2017.0 270.00 345.0 12.9100 13.4000 82.700 75.800 10.0500 9.2200 0.00000 0.00000 0.00 0.000 14.889 12.320 2.576 15.373 11.652 3.720
H15MET 2017-09-27 03:30:00 621 208 900.0 2017.0 270.00 330.0 12.8200 13.3400 83.200 75.300 10.0400 9.0700 0.00000 0.00000 0.00 0.000 14.801 12.312 2.487 15.313 11.534 3.782
H15MET 2017-09-27 03:15:00 620 208 900.0 2017.0 270.00 315.0 12.6700 13.0400 84.900 78.100 10.2000 9.3200 0.00000 0.00000 0.00 0.000 14.656 12.444 2.213 15.016 11.730 3.288
H15MET 2017-09-27 03:00:00 619 208 900.0 2017.0 270.00 300.0 12.6300 13.0000 85.300 78.800 10.2300 9.4100 0.00000 0.00000 0.00 0.000 14.618 12.469 2.149 14.976 11.802 3.175
H15MET 2017-09-27 02:45:00 618 208 900.0 2017.0 270.00 245.0 12.6300 13.0100 85.600 79.000 10.2800 9.4500 0.01400 0.01400 292.50 0.383 14.618 12.511 2.105 14.986 11.833 3.147
H15MET 2017-09-27 02:30:00 617 208 900.0 2017.0 270.00 230.0 12.4700 12.7900 87.800 81.200 10.5000 9.6400 0.00000 0.00000 0.00 0.000 14.465 12.696 1.765 14.772 11.986 2.777
H15MET 2017-09-27 02:15:00 616 208 900.0 2017.0 270.00 215.0 12.3700 12.6400 90.700 85.200 10.8900 10.2300 0.00000 0.00000 0.00 0.000 14.370 13.030 1.336 14.627 12.469 2.165
H15MET 2017-09-27 02:00:00 615 208 900.0 2017.0 270.00 200.0 12.2600 12.5000 93.000 88.700 11.1700 10.6800 0.00000 0.00000 0.00 0.000 14.267 13.275 0.999 14.494 12.850 1.638
H15MET 2017-09-27 01:45:00 614 208 900.0 2017.0 270.00 145.0 12.2100 12.4300 93.000 89.100 11.1200 10.6900 0.00000 0.00000 0.00 0.000 14.220 13.231 0.995 14.427 12.858 1.573
H15MET 2017-09-27 01:30:00 613 208 900.0 2017.0 270.00 130.0 12.2100 12.3700 94.100 90.600 11.2800 10.8800 0.00000 0.00000 0.00 0.000 14.220 13.372 0.839 14.370 13.022 1.351
H15MET 2017-09-27 01:15:00 612 208 900.0 2017.0 270.00 115.0 12.3000 12.5000 91.900 89.100 11.0100 10.7500 0.00000 0.00000 0.00 0.000 14.304 13.135 1.159 14.494 12.910 1.580
H15MET 2017-09-27 01:00:00 611 208 900.0 2017.0 270.00 100.0 12.4600 12.6800 91.500 88.200 11.1200 10.7800 0.00000 0.00000 0.00 0.000 14.456 13.231 1.229 14.666 12.935 1.731
H15MET 2017-09-27 00:45:00 610 208 900.0 2017.0 270.00 45.0 12.5900 12.8900 89.200 84.800 10.8600 10.3900 0.00000 0.00000 0.00 0.000 14.579 13.004 1.575 14.869 12.603 2.260
H15MET 2017-09-27 00:30:00 609 208 900.0 2017.0 270.00 30.0 12.7100 13.0200 88.400 82.000 10.8400 10.0300 0.00000 0.00000 0.00 0.000 14.695 12.987 1.705 14.996 12.303 2.699
H15MET 2017-09-27 00:15:00 608 208 900.0 2017.0 270.00 15.0 12.8900 13.1900 88.500 83.700 11.0300 10.4900 0.00000 0.00000 0.00 0.000 14.869 13.152 1.710 15.164 12.688 2.472
H15MET 2017-09-27 00:00:00 607 208 900.0 2017.0 269.00 2400.0 12.9500 13.2800 86.700 81.000 10.7800 10.0900 0.00000 0.00000 0.00 0.000 14.928 12.935 1.985 15.253 12.353 2.898
H15MET 2017-09-26 23:45:00 606 208 900.0 2017.0 269.00 2345.0 13.0700 13.4400 84.900 78.900 10.6000 9.8500 0.00000 0.00000 0.00 0.000 15.045 12.781 2.272 15.413 12.156 3.252
H15MET 2017-09-26 23:30:00 605 208 900.0 2017.0 269.00 2330.0 13.0700 13.4400 85.900 78.900 10.7600 9.8500 0.01100 0.01100 324.90 1.864 15.045 12.918 2.121 15.413 12.156 3.252
H15MET 2017-09-26 23:15:00 604 208 900.0 2017.0 269.00 2315.0 13.1300 13.5500 86.500 79.600 10.9300 10.0800 0.00000 0.00000 0.00 0.000 15.104 13.065 2.039 15.524 12.345 3.167
H15MET 2017-09-26 23:00:00 603 208 900.0 2017.0 269.00 2300.0 13.1300 13.6000 86.400 79.400 10.9100 10.1000 0.00000 0.00000 0.00 0.000 15.104 13.048 2.054 15.574 12.361 3.208
H15MET 2017-09-26 22:45:00 602 208 900.0 2017.0 269.00 2245.0 13.0400 13.5600 87.400 79.800 11.0000 10.1400 0.06600 0.04900 298.00 15.950 15.016 13.126 1.892 15.534 12.394 3.138
H15MET 2017-09-26 22:30:00 601 208 900.0 2017.0 269.00 2230.0 12.9000 13.3000 89.200 82.900 11.1600 10.4600 0.02700 0.02600 275.70 1.736 14.879 13.266 1.607 15.273 12.662 2.612
H15MET 2017-09-26 22:15:00 600 208 900.0 2017.0 269.00 2215.0 12.8800 13.2500 89.400 83.600 11.1800 10.5400 0.00000 0.00000 0.00 0.000 14.859 13.284 1.575 15.223 12.730 2.497
H15MET 2017-09-26 22:00:00 599 208 900.0 2017.0 269.00 2200.0 12.9800 13.3800 88.800 83.400 11.1700 10.6200 0.00000 0.00000 0.00 0.000 14.957 13.275 1.675 15.353 12.798 2.549
H15MET 2017-09-26 21:45:00 598 208 900.0 2017.0 269.00 2145.0 13.1500 13.5800 88.800 83.400 11.3500 10.8200 0.00200 0.00200 233.10 0.000 15.124 13.435 1.694 15.554 12.970 2.582
H15MET 2017-09-26 21:30:00 597 208 900.0 2017.0 269.00 2130.0 13.3700 13.8000 86.200 80.200 11.1100 10.4400 0.00000 0.00000 282.60 0.004 15.343 13.222 2.117 15.778 12.645 3.124
H15MET 2017-09-26 21:15:00 596 208 900.0 2017.0 269.00 2115.0 13.4700 14.0400 85.900 78.900 11.1600 10.4400 0.03200 0.02800 268.00 6.569 15.443 13.266 2.177 16.026 12.645 3.382
H15MET 2017-09-26 21:00:00 595 208 900.0 2017.0 269.00 2100.0 13.4500 13.9100 86.600 80.200 11.2600 10.5500 0.00500 0.00500 256.40 0.529 15.423 13.355 2.067 15.892 12.739 3.147
H15MET 2017-09-26 20:45:00 594 208 900.0 2017.0 269.00 2045.0 13.6000 14.0400 85.200 79.100 11.1600 10.4800 0.00000 0.00000 0.00 0.000 15.574 13.266 2.305 16.026 12.679 3.349
H15MET 2017-09-26 20:30:00 593 208 900.0 2017.0 269.00 2030.0 13.7100 14.2500 84.600 77.300 11.1600 10.3400 0.00100 0.00100 201.40 0.009 15.686 13.266 2.416 16.246 12.561 3.688
H15MET 2017-09-26 20:15:00 592 208 900.0 2017.0 269.00 2015.0 13.8500 14.4900 84.000 76.700 11.2000 10.4500 0.00000 0.00000 0.00 0.000 15.830 13.302 2.533 16.500 12.654 3.845
H15MET 2017-09-26 20:00:00 591 208 900.0 2017.0 269.00 2000.0 14.0100 14.6400 83.200 75.100 11.2000 10.2700 0.04200 0.04000 229.10 3.627 15.995 13.302 2.687 16.661 12.503 4.149
H15MET 2017-09-26 19:45:00 590 208 900.0 2017.0 269.00 1945.0 13.9400 14.5400 85.100 77.000 11.4800 10.5600 0.00000 0.00000 290.00 0.007 15.923 13.551 2.372 16.553 12.747 3.807
H15MET 2017-09-26 19:30:00 589 208 900.0 2017.0 269.00 1930.0 14.0900 14.5800 84.600 78.000 11.5400 10.8000 0.00500 0.00500 274.30 0.753 16.078 13.605 2.476 16.596 12.953 3.651
H15MET 2017-09-26 19:15:00 588 208 900.0 2017.0 269.00 1915.0 14.2200 14.7500 84.700 78.100 11.6800 10.9800 0.00000 0.00000 0.00 0.000 16.214 13.731 2.481 16.779 13.109 3.675
H15MET 2017-09-26 19:00:00 587 208 900.0 2017.0 269.00 1900.0 14.3800 15.1100 84.800 77.700 11.8500 11.2500 0.03000 0.00100 255.10 14.540 16.383 13.886 2.490 17.173 13.346 3.830
H15MET 2017-09-26 18:45:00 586 208 900.0 2017.0 269.00 1845.0 14.3200 14.8200 86.700 80.500 12.1400 11.5000 0.08500 0.07700 243.40 9.000 16.320 14.154 2.171 16.855 13.569 3.287
H15MET 2017-09-26 18:30:00 585 208 900.0 2017.0 269.00 1830.0 14.7300 15.3200 84.600 78.000 12.1600 11.5000 0.00000 0.00000 253.90 0.008 16.758 14.173 2.581 17.406 13.569 3.829
H15MET 2017-09-26 18:15:00 584 208 900.0 2017.0 269.00 1815.0 14.9700 15.6600 83.700 75.500 12.2400 11.3400 0.04600 0.04300 211.10 5.016 17.019 14.248 2.774 17.790 13.426 4.359
H15MET 2017-09-26 18:00:00 583 208 900.0 2017.0 269.00 1800.0 15.1900 15.9500 83.800 75.600 12.4800 11.6500 0.00600 0.00600 248.80 2.481 17.262 14.475 2.796 18.123 13.704 4.422
H15MET 2017-09-26 17:45:00 582 208 900.0 2017.0 269.00 1745.0 15.3600 16.0700 83.100 74.900 12.5200 11.6200 0.00100 0.00100 211.50 2.563 17.451 14.513 2.949 18.263 13.677 4.584
H15MET 2017-09-26 17:30:00 581 208 900.0 2017.0 269.00 1730.0 15.6300 16.4100 81.700 73.100 12.5100 11.5900 0.00200 0.00200 281.30 0.003 17.756 14.503 3.249 18.663 13.650 5.020
H15MET 2017-09-26 17:15:00 580 208 900.0 2017.0 269.00 1715.0 15.7600 16.5200 80.900 72.300 12.4900 11.5200 0.00000 0.00000 0.00 0.000 17.904 14.484 3.420 18.794 13.587 5.206
H15MET 2017-09-26 17:00:00 579 208 900.0 2017.0 269.00 1700.0 15.9600 16.6700 80.400 71.800 12.5900 11.5500 0.00000 0.00000 0.00 0.000 18.135 14.579 3.554 18.974 13.614 5.351
H15MET 2017-09-26 16:45:00 578 208 900.0 2017.0 269.00 1645.0 16.3100 17.1700 79.300 69.880 12.7100 11.6200 0.00000 0.00000 0.00 0.000 18.544 14.695 3.839 19.585 13.677 5.899
H15MET 2017-09-26 16:30:00 577 208 900.0 2017.0 269.00 1630.0 16.6100 17.5500 76.900 66.780 12.5400 11.2900 0.01300 0.01200 263.70 4.320 18.902 14.532 4.366 20.061 13.381 6.664
H15MET 2017-09-26 16:15:00 576 208 900.0 2017.0 269.00 1615.0 16.4900 17.1800 79.700 71.300 12.9600 11.9400 0.01500 0.01200 334.10 7.070 18.758 14.937 3.808 19.597 13.969 5.624
H15MET 2017-09-26 16:00:00 575 208 900.0 2017.0 269.00 1600.0 16.6300 17.3800 79.300 70.900 13.0400 12.0300 0.00200 0.00200 252.70 4.397 18.926 15.016 3.918 19.847 14.052 5.775
H15MET 2017-09-26 15:45:00 574 208 900.0 2017.0 269.00 1545.0 16.8600 17.7200 78.300 68.850 13.0600 11.9200 0.00300 0.00000 137.80 16.240 19.204 15.035 4.167 20.277 13.951 6.316
H15MET 2017-09-26 15:30:00 573 208 900.0 2017.0 269.00 1530.0 16.9600 17.7300 78.900 69.610 13.2700 12.0900 0.00900 0.00900 249.20 3.073 19.326 15.243 4.078 20.290 14.108 6.166
H15MET 2017-09-26 15:15:00 572 208 900.0 2017.0 269.00 1515.0 17.2900 18.0200 77.900 70.000 13.4100 12.4700 0.02000 0.02000 181.10 1.452 19.734 15.383 4.361 20.664 14.465 6.199
H15MET 2017-09-26 15:00:00 571 208 900.0 2017.0 269.00 1500.0 17.6400 18.4900 76.400 66.970 13.4400 12.2100 0.00900 0.00900 295.70 2.008 20.175 15.413 4.761 21.282 14.220 7.030
H15MET 2017-09-26 14:45:00 570 208 900.0 2017.0 269.00 1445.0 17.2700 17.8600 79.300 71.700 13.6500 12.6600 0.00000 0.00000 0.00 0.000 19.709 15.625 4.080 20.457 14.647 5.789
H15MET 2017-09-26 14:30:00 569 208 900.0 2017.0 269.00 1430.0 17.3600 18.0600 79.800 71.800 13.8300 12.8900 0.00000 0.00000 0.00 0.000 19.822 15.809 4.004 20.716 14.869 5.842
H15MET 2017-09-26 14:15:00 568 208 900.0 2017.0 269.00 1415.0 17.8400 18.7900 78.900 68.930 14.1300 12.9600 0.00000 0.00000 0.00 0.000 20.431 16.120 4.311 21.685 14.937 6.738
H15MET 2017-09-26 14:00:00 567 208 900.0 2017.0 269.00 1400.0 17.8700 19.0100 80.900 68.340 14.5400 12.9900 0.00300 0.00300 103.80 0.532 20.470 16.553 3.910 21.985 14.967 6.961
H15MET 2017-09-26 13:45:00 566 208 900.0 2017.0 269.00 1345.0 17.8700 18.8300 83.000 73.400 14.9400 13.9300 0.00000 0.00000 0.00 0.000 20.470 16.986 3.480 21.740 15.912 5.783
H15MET 2017-09-26 13:30:00 565 208 900.0 2017.0 269.00 1330.0 18.0900 18.9700 80.800 72.600 14.7300 13.9000 0.00000 0.00000 0.00 0.000 20.755 16.758 3.985 21.930 15.881 6.009
H15MET 2017-09-26 13:15:00 564 208 900.0 2017.0 269.00 1315.0 17.7400 18.6700 81.800 72.100 14.5900 13.5300 0.00000 0.00000 0.00 0.000 20.303 16.607 3.695 21.523 15.504 6.005
H15MET 2017-09-26 13:00:00 563 208 900.0 2017.0 269.00 1300.0 17.0100 17.8100 85.600 77.200 14.5600 13.7200 0.00200 0.00200 63.56 0.007 19.388 16.575 2.792 20.393 15.697 4.649
H15MET 2017-09-26 12:45:00 562 208 900.0 2017.0 269.00 1245.0 16.7200 17.5900 87.300 79.500 14.6100 13.9900 0.00400 0.00400 120.00 1.142 19.034 16.628 2.417 20.112 15.974 4.123
H15MET 2017-09-26 12:30:00 561 208 900.0 2017.0 269.00 1230.0 16.5600 17.1800 86.600 79.700 14.3100 13.6400 0.00000 0.00000 0.00 0.000 18.842 16.309 2.525 19.597 15.615 3.978
H15MET 2017-09-26 12:15:00 560 208 900.0 2017.0 269.00 1215.0 16.2000 16.9700 87.300 80.900 14.0800 13.6700 0.00000 0.00000 0.00 0.000 18.415 16.068 2.339 19.339 15.646 3.694
H15MET 2017-09-26 12:00:00 559 208 900.0 2017.0 269.00 1200.0 15.8700 16.7500 87.500 80.000 13.8000 13.2800 0.00000 0.00000 0.00 0.000 18.031 15.778 2.254 19.071 15.253 3.814
H15MET 2017-09-26 11:45:00 558 208 900.0 2017.0 269.00 1145.0 15.5200 16.2400 88.700 82.300 13.6600 13.2300 0.00000 0.00000 0.00 0.000 17.631 15.635 1.992 18.462 15.203 3.268
H15MET 2017-09-26 11:30:00 557 208 900.0 2017.0 269.00 1130.0 15.1600 15.7300 89.500 84.600 13.4500 13.1400 0.00000 0.00000 0.00 0.000 17.228 15.423 1.809 17.870 15.114 2.752
H15MET 2017-09-26 11:15:00 556 208 900.0 2017.0 269.00 1115.0 14.7500 15.4800 90.700 84.800 13.2500 12.9400 0.00000 0.00000 0.00 0.000 16.779 15.223 1.560 17.586 14.918 2.673
H15MET 2017-09-26 11:00:00 555 208 900.0 2017.0 269.00 1100.0 14.3300 15.0000 90.900 84.700 12.8700 12.4500 0.00000 0.00000 0.00 0.000 16.330 14.850 1.486 17.052 14.446 2.609
H15MET 2017-09-26 10:45:00 554 208 900.0 2017.0 269.00 1045.0 13.9000 14.6900 92.000 84.500 12.6200 12.1000 0.00000 0.00000 0.00 0.000 15.881 14.608 1.270 16.715 14.117 2.591
H15MET 2017-09-26 10:30:00 553 208 900.0 2017.0 269.00 1030.0 13.6000 14.3300 92.000 85.700 12.3200 11.9600 0.00000 0.00000 0.00 0.000 15.574 14.323 1.246 16.330 13.988 2.335
H15MET 2017-09-26 10:15:00 552 208 900.0 2017.0 269.00 1015.0 13.7500 14.5200 90.100 84.000 12.1600 11.8500 0.00000 0.00000 0.00 0.000 15.727 14.173 1.557 16.532 13.886 2.645
H15MET 2017-09-26 10:00:00 551 208 900.0 2017.0 269.00 1000.0 13.9100 14.3700 88.000 84.000 11.9500 11.7000 0.00000 0.00000 0.00 0.000 15.892 13.978 1.907 16.372 13.749 2.620
H15MET 2017-09-26 09:45:00 550 208 900.0 2017.0 269.00 945.0 12.5700 13.1800 94.100 89.200 11.6400 11.4400 0.00000 0.00000 0.00 0.000 14.560 13.695 0.859 15.154 13.515 1.637
H15MET 2017-09-26 09:30:00 549 208 900.0 2017.0 269.00 930.0 11.2800 11.8400 97.600 93.400 10.9100 10.8000 0.00000 0.00000 0.00 0.000 13.372 13.048 0.321 13.877 12.953 0.916
H15MET 2017-09-26 09:15:00 548 208 900.0 2017.0 269.00 915.0 11.0800 11.9500 96.700 91.500 10.5800 10.6000 0.00000 0.00000 0.00 0.000 13.196 12.764 0.435 13.978 12.781 1.188
H15MET 2017-09-26 09:00:00 547 208 900.0 2017.0 269.00 900.0 11.2900 11.7800 94.700 90.500 10.4700 10.2800 0.00000 0.00000 0.00 0.000 13.381 12.671 0.709 13.822 12.511 1.313
H15MET 2017-09-26 08:45:00 546 208 900.0 2017.0 269.00 845.0 11.6600 12.0800 95.800 89.200 11.0100 10.3400 0.00000 0.00000 0.00 0.000 13.713 13.135 0.576 14.099 12.561 1.523
H15MET 2017-09-26 08:30:00 545 208 900.0 2017.0 269.00 830.0 10.2700 10.7200 100.000 97.700 10.2700 10.3500 0.00000 0.00000 0.00 0.000 12.503 12.503 0.000 12.884 12.570 0.296
H15MET 2017-09-26 08:15:00 544 208 900.0 2017.0 269.00 815.0 9.0500 9.0700 100.000 100.000 9.0500 9.0700 0.00000 0.00000 0.00 0.000 11.519 11.519 0.000 11.534 11.534 0.000
H15MET 2017-09-26 08:00:00 543 208 900.0 2017.0 269.00 800.0 8.7500 8.6400 100.000 100.000 8.7500 8.6400 0.00000 0.00000 0.00 0.000 11.287 11.287 0.000 11.204 11.204 0.000
H15MET 2017-09-26 07:45:00 542 208 900.0 2017.0 269.00 745.0 8.3800 8.3000 100.000 100.000 8.3800 8.3000 0.00000 0.00000 0.00 0.000 11.008 11.008 0.000 10.948 10.948 0.000
H15MET 2017-09-26 07:30:00 541 208 900.0 2017.0 269.00 730.0 8.1100 7.9800 100.000 100.000 8.1100 7.9800 0.00000 0.00000 0.00 0.000 10.808 10.808 0.000 10.712 10.712 0.000
H15MET 2017-09-26 07:15:00 540 208 900.0 2017.0 269.00 715.0 8.0400 7.9100 100.000 100.000 8.0400 7.9100 0.00000 0.00000 0.00 0.000 10.756 10.756 0.000 10.661 10.661 0.000
H15MET 2017-09-26 07:00:00 539 208 900.0 2017.0 269.00 700.0 7.9900 7.9000 100.000 100.000 7.9900 7.9000 0.00000 0.00000 0.00 0.000 10.720 10.720 0.000 10.654 10.654 0.000
H15MET 2017-09-26 06:45:00 538 208 900.0 2017.0 269.00 645.0 7.9700 7.8800 100.000 100.000 7.9700 7.8800 0.00000 0.00000 0.00 0.000 10.705 10.705 0.000 10.640 10.640 -0.000
H15MET 2017-09-26 06:30:00 537 208 900.0 2017.0 269.00 630.0 7.9700 7.8900 100.000 100.000 7.9700 7.8900 0.00000 0.00000 0.00 0.000 10.705 10.705 0.000 10.647 10.647 -0.000
H15MET 2017-09-26 06:15:00 536 208 900.0 2017.0 269.00 615.0 7.9500 7.8800 100.000 100.000 7.9500 7.8800 0.00000 0.00000 0.00 0.000 10.691 10.691 -0.000 10.640 10.640 -0.000
H15MET 2017-09-26 06:00:00 535 208 900.0 2017.0 269.00 600.0 7.9500 7.8300 100.000 100.000 7.9500 7.8300 0.00000 0.00000 0.00 0.000 10.691 10.691 -0.000 10.603 10.603 0.000
H15MET 2017-09-26 05:45:00 534 208 900.0 2017.0 269.00 545.0 8.0800 7.9900 100.000 100.000 8.0800 7.9900 0.00000 0.00000 0.00 0.000 10.786 10.786 0.000 10.720 10.720 0.000
H15MET 2017-09-26 05:30:00 533 208 900.0 2017.0 269.00 530.0 8.0800 7.9800 100.000 100.000 8.0800 7.9800 0.00000 0.00000 0.00 0.000 10.786 10.786 0.000 10.712 10.712 0.000
H15MET 2017-09-26 05:15:00 532 208 900.0 2017.0 269.00 515.0 8.1000 8.0300 100.000 100.000 8.1000 8.0300 0.00000 0.00000 0.00 0.000 10.800 10.800 0.000 10.749 10.749 0.000
H15MET 2017-09-26 05:00:00 531 208 900.0 2017.0 269.00 500.0 8.0900 8.0200 100.000 100.000 8.0900 8.0200 0.00000 0.00000 0.00 0.000 10.793 10.793 0.000 10.742 10.742 0.000
H15MET 2017-09-26 04:45:00 530 208 900.0 2017.0 269.00 445.0 8.1600 8.0500 100.000 100.000 8.1600 8.0500 0.00000 0.00000 0.00 0.000 10.844 10.844 0.000 10.764 10.764 0.000
H15MET 2017-09-26 04:30:00 529 208 900.0 2017.0 269.00 430.0 8.2400 8.1700 100.000 100.000 8.2400 8.1700 0.00000 0.00000 0.00 0.000 10.904 10.904 0.000 10.852 10.852 0.000
H15MET 2017-09-26 04:15:00 528 208 900.0 2017.0 269.00 415.0 8.3100 8.2400 100.000 100.000 8.3100 8.2400 0.00000 0.00000 0.00 0.000 10.956 10.956 -0.000 10.904 10.904 0.000
H15MET 2017-09-26 04:00:00 527 208 900.0 2017.0 269.00 400.0 8.2800 8.1700 100.000 100.000 8.2800 8.1700 0.00000 0.00000 0.00 0.000 10.933 10.933 0.000 10.852 10.852 0.000
H15MET 2017-09-26 03:45:00 526 208 900.0 2017.0 269.00 345.0 8.3500 8.2500 100.000 100.000 8.3500 8.2500 0.00000 0.00000 0.00 0.000 10.985 10.985 -0.000 10.911 10.911 0.000
H15MET 2017-09-26 03:30:00 525 208 900.0 2017.0 269.00 330.0 8.3800 8.3000 100.000 100.000 8.3800 8.3000 0.00000 0.00000 0.00 0.000 11.008 11.008 0.000 10.948 10.948 0.000
H15MET 2017-09-26 03:15:00 524 208 900.0 2017.0 269.00 315.0 8.4500 8.3700 100.000 100.000 8.4500 8.3700 0.00000 0.00000 0.00 0.000 11.060 11.060 0.000 11.000 11.000 0.000
H15MET 2017-09-26 03:00:00 523 208 900.0 2017.0 269.00 300.0 8.4200 8.3200 100.000 100.000 8.4200 8.3200 0.00000 0.00000 0.00 0.000 11.038 11.038 0.000 10.963 10.963 0.000
H15MET 2017-09-26 02:45:00 522 208 900.0 2017.0 269.00 245.0 8.5000 8.4000 100.000 100.000 8.5000 8.4000 0.00000 0.00000 0.00 0.000 11.098 11.098 -0.000 11.023 11.023 0.000
H15MET 2017-09-26 02:30:00 521 208 900.0 2017.0 269.00 230.0 8.6000 8.5100 100.000 100.000 8.6000 8.5100 0.00000 0.00000 0.00 0.000 11.173 11.173 0.000 11.105 11.105 0.000
H15MET 2017-09-26 02:15:00 520 208 900.0 2017.0 269.00 215.0 8.7100 8.5900 100.000 100.000 8.7100 8.5900 0.00000 0.00000 0.00 0.000 11.257 11.257 0.000 11.166 11.166 0.000
H15MET 2017-09-26 02:00:00 519 208 900.0 2017.0 269.00 200.0 8.8000 8.7100 100.000 100.000 8.8000 8.7100 0.00000 0.00000 0.00 0.000 11.326 11.326 0.000 11.257 11.257 0.000
H15MET 2017-09-26 01:45:00 518 208 900.0 2017.0 269.00 145.0 8.8300 8.7400 100.000 100.000 8.8300 8.7400 0.00000 0.00000 0.00 0.000 11.349 11.349 0.000 11.280 11.280 0.000
H15MET 2017-09-26 01:30:00 517 208 900.0 2017.0 269.00 130.0 8.8900 8.8300 100.000 100.000 8.8900 8.8300 0.00000 0.00000 0.00 0.000 11.395 11.395 0.000 11.349 11.349 0.000
H15MET 2017-09-26 01:15:00 516 208 900.0 2017.0 269.00 115.0 8.9600 8.9200 100.000 100.000 8.9600 8.9200 0.00000 0.00000 0.00 0.000 11.449 11.449 0.000 11.418 11.418 0.000
H15MET 2017-09-26 01:00:00 515 208 900.0 2017.0 269.00 100.0 9.0300 8.9800 100.000 100.000 9.0300 8.9800 0.00000 0.00000 0.00 0.000 11.503 11.503 0.000 11.464 11.464 0.000
H15MET 2017-09-26 00:45:00 514 208 900.0 2017.0 269.00 45.0 8.9900 8.9300 99.800 100.000 8.9600 8.9300 0.00000 0.00000 0.00 0.000 11.472 11.449 0.023 11.426 11.426 0.000
H15MET 2017-09-26 00:30:00 513 208 900.0 2017.0 269.00 30.0 9.0600 8.9500 99.600 99.900 9.0000 8.9300 0.00000 0.00000 0.00 0.000 11.526 11.480 0.046 11.441 11.426 0.011
H15MET 2017-09-26 00:15:00 512 208 900.0 2017.0 269.00 15.0 9.1600 9.0800 99.700 99.900 9.1200 9.0600 0.00000 0.00000 0.00 0.000 11.604 11.573 0.035 11.542 11.526 0.012
H15MET 2017-09-26 00:00:00 511 208 900.0 2017.0 268.00 2400.0 9.2300 9.1800 99.700 99.900 9.1800 9.1700 0.00000 0.00000 0.00 0.000 11.659 11.620 0.035 11.620 11.612 0.012
H15MET 2017-09-25 23:45:00 510 208 900.0 2017.0 268.00 2345.0 9.2400 9.1700 99.400 99.600 9.1500 9.1100 0.00000 0.00000 0.00 0.000 11.667 11.597 0.070 11.612 11.565 0.046
H15MET 2017-09-25 23:30:00 509 208 900.0 2017.0 268.00 2330.0 9.2800 9.1900 99.100 99.000 9.1400 9.0400 0.00000 0.00000 0.00 0.000 11.699 11.589 0.105 11.628 11.511 0.116
H15MET 2017-09-25 23:15:00 508 208 900.0 2017.0 268.00 2315.0 9.3600 9.2600 98.800 98.400 9.1700 9.0200 0.00000 0.00000 0.00 0.000 11.762 11.612 0.141 11.683 11.495 0.187
H15MET 2017-09-25 23:00:00 507 208 900.0 2017.0 268.00 2300.0 9.5500 9.4800 98.900 98.300 9.3800 9.2300 0.00000 0.00000 0.00 0.000 11.913 11.778 0.131 11.857 11.659 0.202
H15MET 2017-09-25 22:45:00 506 208 900.0 2017.0 268.00 2245.0 9.7500 9.7300 98.900 98.400 9.5800 9.4900 0.00000 0.00000 0.00 0.000 12.075 11.937 0.133 12.058 11.865 0.193
H15MET 2017-09-25 22:30:00 505 208 900.0 2017.0 268.00 2230.0 9.8900 9.8600 98.400 97.700 9.6600 9.5100 0.00000 0.00000 0.00 0.000 12.189 12.002 0.195 12.164 11.881 0.280
H15MET 2017-09-25 22:15:00 504 208 900.0 2017.0 268.00 2215.0 10.1600 10.1600 98.200 97.500 9.8900 9.7900 0.00000 0.00000 0.00 0.000 12.411 12.189 0.223 12.411 12.107 0.310
H15MET 2017-09-25 22:00:00 503 208 900.0 2017.0 268.00 2200.0 10.3700 10.3600 98.300 97.600 10.1200 10.0100 0.00000 0.00000 0.00 0.000 12.586 12.378 0.214 12.578 12.287 0.302
H15MET 2017-09-25 21:45:00 502 208 900.0 2017.0 268.00 2145.0 10.6100 10.5500 98.500 97.700 10.3700 10.2000 0.00000 0.00000 0.00 0.000 12.790 12.586 0.192 12.739 12.444 0.293
H15MET 2017-09-25 21:30:00 501 208 900.0 2017.0 268.00 2130.0 10.7800 10.7700 98.100 97.100 10.5000 10.3200 0.00000 0.00000 0.00 0.000 12.935 12.696 0.246 12.927 12.545 0.375
H15MET 2017-09-25 21:15:00 500 208 900.0 2017.0 268.00 2115.0 11.0300 11.0000 98.800 97.900 10.8500 10.6800 0.00000 0.00000 0.00 0.000 13.152 12.996 0.158 13.126 12.850 0.276
H15MET 2017-09-25 21:00:00 499 208 900.0 2017.0 268.00 2100.0 10.9700 10.9600 98.400 97.400 10.7200 10.5700 0.00000 0.00000 0.00 0.000 13.100 12.884 0.210 13.091 12.756 0.340
H15MET 2017-09-25 20:45:00 498 208 900.0 2017.0 268.00 2045.0 11.0200 11.0100 98.200 97.300 10.7500 10.5900 0.00000 0.00000 0.00 0.000 13.144 12.910 0.237 13.135 12.773 0.355
H15MET 2017-09-25 20:30:00 497 208 900.0 2017.0 268.00 2030.0 11.1100 11.0900 98.200 96.700 10.8500 10.5800 0.00000 0.00000 0.00 0.000 13.222 12.996 0.238 13.205 12.764 0.436
H15MET 2017-09-25 20:15:00 496 208 900.0 2017.0 268.00 2015.0 11.1000 11.0900 98.100 96.500 10.8100 10.5600 0.00000 0.00000 0.00 0.000 13.214 12.961 0.251 13.205 12.747 0.462
H15MET 2017-09-25 20:00:00 495 208 900.0 2017.0 268.00 2000.0 11.2000 11.1600 98.100 96.300 10.9100 10.5900 0.00000 0.00000 0.00 0.000 13.302 13.048 0.253 13.266 12.773 0.491
H15MET 2017-09-25 19:45:00 494 208 900.0 2017.0 268.00 1945.0 11.3300 11.3400 97.700 96.700 10.9900 10.8300 0.00000 0.00000 0.00 0.000 13.417 13.117 0.309 13.426 12.979 0.443
H15MET 2017-09-25 19:30:00 493 208 900.0 2017.0 268.00 1930.0 11.5300 11.5100 97.600 96.200 11.1600 10.9200 0.00000 0.00000 0.00 0.000 13.596 13.266 0.326 13.578 13.056 0.516
H15MET 2017-09-25 19:15:00 492 208 900.0 2017.0 268.00 1915.0 11.6400 11.6400 97.400 95.600 11.2400 10.9700 0.00000 0.00000 0.00 0.000 13.695 13.337 0.356 13.695 13.100 0.603
H15MET 2017-09-25 19:00:00 491 208 900.0 2017.0 268.00 1900.0 11.6600 11.6700 96.600 94.400 11.1400 10.8000 0.00000 0.00000 0.00 0.000 13.713 13.249 0.466 13.722 12.953 0.768
H15MET 2017-09-25 18:45:00 490 208 900.0 2017.0 268.00 1845.0 11.8200 11.7400 96.400 93.900 11.2600 10.7900 0.00000 0.00000 0.00 0.000 13.859 13.355 0.499 13.786 12.944 0.841
H15MET 2017-09-25 18:30:00 489 208 900.0 2017.0 268.00 1830.0 12.0400 11.9600 96.100 93.900 11.4400 11.0100 0.00000 0.00000 0.00 0.000 14.062 13.515 0.548 13.988 13.135 0.853
H15MET 2017-09-25 18:15:00 488 208 900.0 2017.0 268.00 1815.0 12.3200 12.2600 96.500 94.800 11.7900 11.4600 0.00000 0.00000 0.00 0.000 14.323 13.831 0.501 14.267 13.533 0.742
H15MET 2017-09-25 18:00:00 487 208 900.0 2017.0 268.00 1800.0 12.5000 12.4300 96.900 94.900 12.0200 11.6400 0.00000 0.00000 0.00 0.000 14.494 14.043 0.449 14.427 13.695 0.736
H15MET 2017-09-25 17:45:00 486 208 900.0 2017.0 268.00 1745.0 12.6400 12.5400 96.300 94.800 12.0700 11.7300 0.00000 0.00000 0.00 0.000 14.627 14.089 0.541 14.532 13.777 0.756
H15MET 2017-09-25 17:30:00 485 208 900.0 2017.0 268.00 1730.0 12.7400 12.6500 95.900 94.500 12.0900 11.7800 0.00000 0.00000 0.00 0.000 14.724 14.108 0.604 14.637 13.822 0.805
H15MET 2017-09-25 17:15:00 484 208 900.0 2017.0 268.00 1715.0 12.7600 12.6900 96.000 94.000 12.1500 11.7600 0.00000 0.00000 0.00 0.000 14.743 14.164 0.590 14.675 13.804 0.881
H15MET 2017-09-25 17:00:00 483 208 900.0 2017.0 268.00 1700.0 12.8600 12.7800 95.600 94.000 12.1800 11.8400 0.00000 0.00000 0.00 0.000 14.840 14.192 0.653 14.762 13.877 0.886
H15MET 2017-09-25 16:45:00 482 208 900.0 2017.0 268.00 1645.0 12.9600 12.8300 94.200 92.700 12.0400 11.6700 0.00000 0.00000 0.00 0.000 14.937 14.062 0.866 14.811 13.722 1.081
H15MET 2017-09-25 16:30:00 481 208 900.0 2017.0 268.00 1630.0 13.1400 13.0100 93.900 92.400 12.1900 11.8000 0.00000 0.00000 0.00 0.000 15.114 14.201 0.922 14.986 13.841 1.139
H15MET 2017-09-25 16:15:00 480 208 900.0 2017.0 268.00 1615.0 13.3800 13.2600 93.300 91.700 12.3200 11.9400 0.00000 0.00000 0.00 0.000 15.353 14.323 1.029 15.233 13.969 1.264
H15MET 2017-09-25 16:00:00 479 208 900.0 2017.0 268.00 1600.0 13.6400 13.4800 91.400 89.300 12.2600 11.7500 0.00000 0.00000 0.00 0.000 15.615 14.267 1.343 15.453 13.795 1.653
H15MET 2017-09-25 15:45:00 478 208 900.0 2017.0 268.00 1545.0 13.8700 13.8000 88.600 86.300 12.0200 11.5500 0.00000 0.00000 0.00 0.000 15.850 14.043 1.807 15.778 13.614 2.162
H15MET 2017-09-25 15:30:00 477 208 900.0 2017.0 268.00 1530.0 14.0300 14.0200 88.300 85.700 12.1300 11.6700 0.00000 0.00000 0.00 0.000 16.016 14.145 1.874 16.005 13.722 2.289
H15MET 2017-09-25 15:15:00 476 208 900.0 2017.0 268.00 1515.0 14.1300 14.1200 88.300 85.800 12.2300 11.7700 0.00000 0.00000 0.00 0.000 16.120 14.239 1.886 16.110 13.813 2.288
H15MET 2017-09-25 15:00:00 475 208 900.0 2017.0 268.00 1500.0 14.0700 14.0300 89.600 86.900 12.3900 11.8800 0.00000 0.00000 0.00 0.000 16.057 14.389 1.670 16.016 13.914 2.098
H15MET 2017-09-25 14:45:00 474 208 900.0 2017.0 268.00 1445.0 13.9900 13.9400 88.000 85.800 12.0400 11.6000 0.00000 0.00000 0.00 0.000 15.974 14.062 1.917 15.923 13.659 2.261
H15MET 2017-09-25 14:30:00 473 208 900.0 2017.0 268.00 1430.0 14.1800 14.2300 85.600 83.600 11.8000 11.4900 0.00000 0.00000 0.00 0.000 16.172 13.841 2.329 16.225 13.560 2.661
H15MET 2017-09-25 14:15:00 472 208 900.0 2017.0 268.00 1415.0 14.1300 14.1600 88.000 85.300 12.1700 11.7200 0.00000 0.00000 0.00 0.000 16.120 14.182 1.934 16.151 13.768 2.374
H15MET 2017-09-25 14:00:00 471 208 900.0 2017.0 268.00 1400.0 13.8600 13.7900 86.700 83.800 11.6700 11.1100 0.00000 0.00000 0.00 0.000 15.840 13.722 2.107 15.768 13.222 2.554
H15MET 2017-09-25 13:45:00 470 208 900.0 2017.0 268.00 1345.0 13.7800 13.6700 86.000 83.400 11.4800 10.9000 0.00000 0.00000 0.00 0.000 15.758 13.551 2.206 15.646 13.039 2.597
H15MET 2017-09-25 13:30:00 469 208 900.0 2017.0 268.00 1330.0 13.6200 13.4500 87.900 84.600 11.6600 10.9200 0.00000 0.00000 0.00 0.000 15.595 13.713 1.887 15.423 13.056 2.375
H15MET 2017-09-25 13:15:00 468 208 900.0 2017.0 268.00 1315.0 13.4500 13.4000 86.400 83.200 11.2300 10.6100 0.00000 0.00000 0.00 0.000 15.423 13.328 2.098 15.373 12.790 2.583
H15MET 2017-09-25 13:00:00 467 208 900.0 2017.0 268.00 1300.0 13.5300 13.5300 87.500 84.700 11.5000 10.9900 0.00000 0.00000 0.00 0.000 15.504 13.569 1.938 15.504 13.117 2.372
H15MET 2017-09-25 12:45:00 466 208 900.0 2017.0 268.00 1245.0 13.4500 13.4300 88.400 86.300 11.5700 11.1800 0.00000 0.00000 0.00 0.000 15.423 13.632 1.789 15.403 13.284 2.110
H15MET 2017-09-25 12:30:00 465 208 900.0 2017.0 268.00 1230.0 13.5600 13.5200 89.700 86.200 11.9000 11.2700 0.00000 0.00000 0.00 0.000 15.534 13.932 1.600 15.494 13.364 2.138
H15MET 2017-09-25 12:15:00 464 208 900.0 2017.0 268.00 1215.0 13.4600 13.3400 87.600 83.600 11.4200 10.6200 0.00000 0.00000 0.00 0.000 15.433 13.497 1.914 15.313 12.798 2.511
H15MET 2017-09-25 12:00:00 463 208 900.0 2017.0 268.00 1200.0 12.8100 12.7400 90.900 87.100 11.3600 10.6500 0.00000 0.00000 0.00 0.000 14.791 13.444 1.346 14.724 12.824 1.899
H15MET 2017-09-25 11:45:00 462 208 900.0 2017.0 268.00 1145.0 12.7000 12.7300 90.600 86.600 11.2100 10.5500 0.00000 0.00000 0.00 0.000 14.685 13.310 1.380 14.714 12.739 1.972
H15MET 2017-09-25 11:30:00 461 208 900.0 2017.0 268.00 1130.0 12.6800 12.6800 91.200 87.900 11.2700 10.7300 0.00000 0.00000 0.00 0.000 14.666 13.364 1.291 14.666 12.892 1.775
H15MET 2017-09-25 11:15:00 460 208 900.0 2017.0 268.00 1115.0 12.5700 12.5300 93.600 90.900 11.5700 11.0900 0.00000 0.00000 0.00 0.000 14.560 13.632 0.932 14.522 13.205 1.322
H15MET 2017-09-25 11:00:00 459 208 900.0 2017.0 268.00 1100.0 12.3000 12.2100 94.900 92.500 11.5100 11.0400 0.00000 0.00000 0.00 0.000 14.304 13.578 0.730 14.220 13.161 1.066
H15MET 2017-09-25 10:45:00 458 208 900.0 2017.0 268.00 1045.0 11.9200 11.8200 96.100 94.300 11.3200 10.9400 0.00000 0.00000 0.00 0.000 13.951 13.408 0.544 13.859 13.074 0.790
H15MET 2017-09-25 10:30:00 457 208 900.0 2017.0 268.00 1030.0 11.8900 11.6400 96.500 94.500 11.3500 10.7800 0.00000 0.00000 0.00 0.000 13.923 13.435 0.487 13.695 12.935 0.753
H15MET 2017-09-25 10:15:00 456 208 900.0 2017.0 268.00 1015.0 11.6100 11.3400 97.700 95.800 11.2600 10.6900 0.00000 0.00000 0.00 0.000 13.668 13.355 0.314 13.426 12.858 0.564
H15MET 2017-09-25 10:00:00 455 208 900.0 2017.0 268.00 1000.0 11.1500 10.9000 98.200 96.900 10.8800 10.4200 0.00000 0.00000 0.00 0.000 13.258 13.022 0.239 13.039 12.629 0.404
H15MET 2017-09-25 09:45:00 454 208 900.0 2017.0 268.00 945.0 10.7900 10.5600 98.700 97.600 10.5900 10.2000 0.00000 0.00000 0.00 0.000 12.944 12.773 0.168 12.747 12.444 0.306
H15MET 2017-09-25 09:30:00 453 208 900.0 2017.0 268.00 930.0 10.5700 10.3500 99.000 98.000 10.4200 10.0500 0.00000 0.00000 0.00 0.000 12.756 12.629 0.128 12.570 12.320 0.251
H15MET 2017-09-25 09:15:00 452 208 900.0 2017.0 268.00 915.0 10.3400 10.1100 99.200 98.700 10.2200 9.9200 0.00000 0.00000 0.00 0.000 12.561 12.461 0.100 12.370 12.213 0.161
H15MET 2017-09-25 09:00:00 451 208 900.0 2017.0 268.00 900.0 10.1400 9.8900 99.400 99.200 10.0600 9.7700 0.00000 0.00000 0.00 0.000 12.394 12.328 0.074 12.189 12.091 0.098
H15MET 2017-09-25 08:45:00 450 208 900.0 2017.0 268.00 845.0 9.9900 9.7700 100.000 99.900 9.9900 9.7600 0.00000 0.00000 0.00 0.000 12.271 12.271 0.000 12.091 12.083 0.012
H15MET 2017-09-25 08:30:00 449 208 900.0 2017.0 268.00 830.0 9.7600 9.5500 100.000 100.000 9.7600 9.5500 0.00000 0.00000 0.00 0.000 12.083 12.083 0.000 11.913 11.913 0.000
H15MET 2017-09-25 08:15:00 448 208 900.0 2017.0 268.00 815.0 9.4300 9.2300 100.000 100.000 9.4300 9.2300 0.00000 0.00000 0.00 0.000 11.818 11.818 0.000 11.659 11.659 0.000
H15MET 2017-09-25 08:00:00 447 208 900.0 2017.0 268.00 800.0 9.2400 9.0200 100.000 100.000 9.2400 9.0200 0.00000 0.00000 0.00 0.000 11.667 11.667 -0.000 11.495 11.495 0.000
H15MET 2017-09-25 07:45:00 446 208 900.0 2017.0 268.00 745.0 9.0700 8.8500 100.000 100.000 9.0700 8.8500 0.00000 0.00000 0.00 0.000 11.534 11.534 0.000 11.364 11.364 0.000
H15MET 2017-09-25 07:30:00 445 208 900.0 2017.0 268.00 730.0 8.8700 8.6500 100.000 100.000 8.8700 8.6500 0.00000 0.00000 0.00 0.000 11.379 11.379 -0.000 11.211 11.211 0.000
H15MET 2017-09-25 07:15:00 444 208 900.0 2017.0 268.00 715.0 8.7000 8.5400 100.000 100.000 8.7000 8.5400 0.00000 0.00000 0.00 0.000 11.249 11.249 0.000 11.128 11.128 0.000
H15MET 2017-09-25 07:00:00 443 208 900.0 2017.0 268.00 700.0 8.4800 8.3700 100.000 100.000 8.4800 8.3700 0.00000 0.00000 0.00 0.000 11.083 11.083 0.000 11.000 11.000 0.000
H15MET 2017-09-25 06:45:00 442 208 900.0 2017.0 268.00 645.0 8.3300 8.1700 100.000 100.000 8.3300 8.1700 0.00000 0.00000 0.00 0.000 10.970 10.970 0.000 10.852 10.852 0.000
H15MET 2017-09-25 06:30:00 441 208 900.0 2017.0 268.00 630.0 8.2600 8.1600 100.000 100.000 8.2600 8.1600 0.00000 0.00000 0.00 0.000 10.918 10.918 0.000 10.844 10.844 0.000
H15MET 2017-09-25 06:15:00 440 208 900.0 2017.0 268.00 615.0 8.1200 8.0400 100.000 100.000 8.1200 8.0400 0.00000 0.00000 0.00 0.000 10.815 10.815 0.000 10.756 10.756 0.000
H15MET 2017-09-25 06:00:00 439 208 900.0 2017.0 268.00 600.0 8.0300 7.8900 100.000 100.000 8.0300 7.8900 0.00000 0.00000 0.00 0.000 10.749 10.749 0.000 10.647 10.647 -0.000
H15MET 2017-09-25 05:45:00 438 208 900.0 2017.0 268.00 545.0 7.9700 7.8200 100.000 100.000 7.9700 7.8200 0.00000 0.00000 0.00 0.000 10.705 10.705 0.000 10.596 10.596 0.000
H15MET 2017-09-25 05:30:00 437 208 900.0 2017.0 268.00 530.0 7.8900 7.7800 100.000 100.000 7.8900 7.7800 0.00000 0.00000 0.00 0.000 10.647 10.647 -0.000 10.567 10.567 -0.000
H15MET 2017-09-25 05:15:00 436 208 900.0 2017.0 268.00 515.0 7.8100 7.7200 100.000 100.000 7.8100 7.7200 0.00000 0.00000 0.00 0.000 10.589 10.589 0.000 10.524 10.524 0.000
H15MET 2017-09-25 05:00:00 435 208 900.0 2017.0 268.00 500.0 7.8900 7.8300 100.000 100.000 7.8900 7.8300 0.00000 0.00000 0.00 0.000 10.647 10.647 -0.000 10.603 10.603 0.000
H15MET 2017-09-25 04:45:00 434 208 900.0 2017.0 268.00 445.0 8.0800 8.0400 100.000 100.000 8.0800 8.0400 0.00000 0.00000 0.00 0.000 10.786 10.786 0.000 10.756 10.756 0.000
H15MET 2017-09-25 04:30:00 433 208 900.0 2017.0 268.00 430.0 8.1900 8.1300 100.000 100.000 8.1900 8.1300 0.00000 0.00000 0.00 0.000 10.867 10.867 0.000 10.822 10.822 -0.000
H15MET 2017-09-25 04:15:00 432 208 900.0 2017.0 268.00 415.0 8.2300 8.1100 100.000 100.000 8.2300 8.1100 0.00000 0.00000 0.00 0.000 10.896 10.896 0.000 10.808 10.808 0.000
H15MET 2017-09-25 04:00:00 431 208 900.0 2017.0 268.00 400.0 8.3100 8.1900 100.000 100.000 8.3100 8.1900 0.00000 0.00000 0.00 0.000 10.956 10.956 -0.000 10.867 10.867 0.000
H15MET 2017-09-25 03:45:00 430 208 900.0 2017.0 268.00 345.0 8.3200 8.2100 100.000 100.000 8.3200 8.2100 0.00000 0.00000 0.00 0.000 10.963 10.963 0.000 10.881 10.881 0.000
H15MET 2017-09-25 03:30:00 429 208 900.0 2017.0 268.00 330.0 8.2700 8.1600 100.000 100.000 8.2700 8.1600 0.00000 0.00000 0.00 0.000 10.926 10.926 0.000 10.844 10.844 0.000
H15MET 2017-09-25 03:15:00 428 208 900.0 2017.0 268.00 315.0 8.3000 8.1800 100.000 100.000 8.3000 8.1800 0.00000 0.00000 0.00 0.000 10.948 10.948 0.000 10.859 10.859 0.000
H15MET 2017-09-25 03:00:00 427 208 900.0 2017.0 268.00 300.0 8.2800 8.1700 100.000 100.000 8.2800 8.1700 0.00000 0.00000 0.00 0.000 10.933 10.933 0.000 10.852 10.852 0.000
H15MET 2017-09-25 02:45:00 426 208 900.0 2017.0 268.00 245.0 8.1600 8.0800 100.000 100.000 8.1600 8.0800 0.00000 0.00000 0.00 0.000 10.844 10.844 0.000 10.786 10.786 0.000
H15MET 2017-09-25 02:30:00 425 208 900.0 2017.0 268.00 230.0 8.1200 8.0300 100.000 100.000 8.1200 8.0300 0.00000 0.00000 0.00 0.000 10.815 10.815 0.000 10.749 10.749 0.000
H15MET 2017-09-25 02:15:00 424 208 900.0 2017.0 268.00 215.0 8.1600 8.0800 100.000 100.000 8.1600 8.0800 0.00000 0.00000 0.00 0.000 10.844 10.844 0.000 10.786 10.786 0.000
H15MET 2017-09-25 02:00:00 423 208 900.0 2017.0 268.00 200.0 8.2300 8.1400 100.000 100.000 8.2300 8.1400 0.00000 0.00000 0.00 0.000 10.896 10.896 0.000 10.830 10.830 0.000
H15MET 2017-09-25 01:45:00 422 208 900.0 2017.0 268.00 145.0 8.3100 8.2300 100.000 100.000 8.3100 8.2300 0.00000 0.00000 0.00 0.000 10.956 10.956 -0.000 10.896 10.896 0.000
H15MET 2017-09-25 01:30:00 421 208 900.0 2017.0 268.00 130.0 8.3800 8.3100 100.000 100.000 8.3800 8.3100 0.00000 0.00000 0.00 0.000 11.008 11.008 0.000 10.956 10.956 -0.000
H15MET 2017-09-25 01:15:00 420 208 900.0 2017.0 268.00 115.0 8.3800 8.3000 100.000 100.000 8.3800 8.3000 0.00000 0.00000 0.00 0.000 11.008 11.008 0.000 10.948 10.948 0.000
H15MET 2017-09-25 01:00:00 419 208 900.0 2017.0 268.00 100.0 8.4800 8.4200 100.000 100.000 8.4800 8.4200 0.00000 0.00000 0.00 0.000 11.083 11.083 0.000 11.038 11.038 0.000
H15MET 2017-09-25 00:45:00 418 208 900.0 2017.0 268.00 45.0 8.5500 8.5000 100.000 100.000 8.5500 8.5000 0.00000 0.00000 0.00 0.000 11.135 11.135 -0.000 11.098 11.098 -0.000
H15MET 2017-09-25 00:30:00 417 208 900.0 2017.0 268.00 30.0 8.5500 8.5200 100.000 100.000 8.5500 8.5200 0.00000 0.00000 0.00 0.000 11.135 11.135 -0.000 11.113 11.113 0.000
H15MET 2017-09-25 00:15:00 416 208 900.0 2017.0 268.00 15.0 8.6500 8.5700 100.000 100.000 8.6400 8.5700 0.00000 0.00000 0.00 0.000 11.211 11.204 0.000 11.151 11.151 0.000
H15MET 2017-09-25 00:00:00 415 208 900.0 2017.0 267.00 2400.0 8.7100 8.6300 99.800 100.000 8.6800 8.6300 0.00000 0.00000 0.00 0.000 11.257 11.234 0.023 11.196 11.196 0.000
H15MET 2017-09-24 23:45:00 414 208 900.0 2017.0 267.00 2345.0 8.7600 8.7000 99.600 99.800 8.7000 8.6700 0.00000 0.00000 0.00 0.000 11.295 11.249 0.045 11.249 11.226 0.022
H15MET 2017-09-24 23:30:00 413 208 900.0 2017.0 267.00 2330.0 8.8000 8.7700 99.600 99.900 8.7500 8.7600 0.00000 0.00000 0.00 0.000 11.326 11.287 0.045 11.303 11.295 0.011
H15MET 2017-09-24 23:15:00 412 208 900.0 2017.0 267.00 2315.0 8.8400 8.8100 99.500 99.700 8.7600 8.7600 0.00000 0.00000 0.00 0.000 11.356 11.295 0.057 11.333 11.295 0.034
H15MET 2017-09-24 23:00:00 411 208 900.0 2017.0 267.00 2300.0 8.8800 8.8800 98.900 98.700 8.7200 8.6800 0.00000 0.00000 0.00 0.000 11.387 11.264 0.125 11.387 11.234 0.148
H15MET 2017-09-24 22:45:00 410 208 900.0 2017.0 267.00 2245.0 9.1700 9.1600 98.800 99.200 9.0000 9.0500 0.00000 0.00000 0.00 0.000 11.612 11.480 0.139 11.604 11.519 0.093
H15MET 2017-09-24 22:30:00 409 208 900.0 2017.0 267.00 2230.0 9.4000 9.3900 99.400 99.800 9.3100 9.3600 0.00000 0.00000 0.00 0.000 11.794 11.722 0.071 11.786 11.762 0.024
H15MET 2017-09-24 22:15:00 408 208 900.0 2017.0 267.00 2215.0 9.4500 9.4700 99.900 99.800 9.4300 9.4400 0.00000 0.00000 0.00 0.000 11.833 11.818 0.012 11.849 11.826 0.024
H15MET 2017-09-24 22:00:00 407 208 900.0 2017.0 267.00 2200.0 9.4100 9.4200 99.800 99.900 9.3800 9.4000 0.00000 0.00000 0.00 0.000 11.802 11.778 0.024 11.810 11.794 0.012
H15MET 2017-09-24 21:45:00 406 208 900.0 2017.0 267.00 2145.0 9.3600 9.3300 99.400 99.300 9.2700 9.2300 0.00000 0.00000 0.00 0.000 11.762 11.691 0.071 11.738 11.659 0.082
H15MET 2017-09-24 21:30:00 405 208 900.0 2017.0 267.00 2130.0 9.5000 9.4500 99.100 98.600 9.3600 9.2300 0.00000 0.00000 0.00 0.000 11.873 11.762 0.107 11.833 11.659 0.166
H15MET 2017-09-24 21:15:00 404 208 900.0 2017.0 267.00 2115.0 9.7300 9.7600 99.200 98.400 9.6100 9.5200 0.00000 0.00000 0.00 0.000 12.058 11.962 0.096 12.083 11.889 0.193
H15MET 2017-09-24 21:00:00 403 208 900.0 2017.0 267.00 2100.0 9.8400 9.8900 99.100 98.700 9.7100 9.6900 0.00000 0.00000 0.00 0.000 12.148 12.042 0.109 12.189 12.026 0.158
H15MET 2017-09-24 20:45:00 402 208 900.0 2017.0 267.00 2045.0 10.0000 10.0100 99.300 98.900 9.8900 9.8500 0.00000 0.00000 0.00 0.000 12.279 12.189 0.086 12.287 12.156 0.135
H15MET 2017-09-24 20:30:00 401 208 900.0 2017.0 267.00 2030.0 9.8600 9.8200 99.100 98.500 9.7200 9.6000 0.00000 0.00000 0.00 0.000 12.164 12.050 0.109 12.131 11.953 0.182
H15MET 2017-09-24 20:15:00 400 208 900.0 2017.0 267.00 2015.0 9.9400 9.8900 98.500 98.100 9.7100 9.6000 0.00000 0.00000 0.00 0.000 12.229 12.042 0.183 12.189 11.953 0.232
H15MET 2017-09-24 20:00:00 399 208 900.0 2017.0 267.00 2000.0 10.2500 10.2700 98.700 98.900 10.0600 10.1100 0.00000 0.00000 0.00 0.000 12.486 12.328 0.162 12.503 12.370 0.138
H15MET 2017-09-24 19:45:00 398 208 900.0 2017.0 267.00 1945.0 10.2900 10.3300 98.700 99.100 10.1000 10.1900 0.00000 0.00000 0.00 0.000 12.519 12.361 0.163 12.553 12.436 0.113
H15MET 2017-09-24 19:30:00 397 208 900.0 2017.0 267.00 1930.0 10.2400 10.2700 97.400 97.400 9.8500 9.8700 0.00000 0.00000 0.00 0.000 12.478 12.156 0.324 12.503 12.172 0.325
H15MET 2017-09-24 19:15:00 396 208 900.0 2017.0 267.00 1915.0 10.4700 10.5000 97.200 96.600 10.0500 9.9900 0.00000 0.00000 0.00 0.000 12.671 12.320 0.355 12.696 12.271 0.432
H15MET 2017-09-24 19:00:00 395 208 900.0 2017.0 267.00 1900.0 10.5700 10.7200 96.600 96.400 10.0500 10.1800 0.00000 0.00000 0.00 0.000 12.756 12.320 0.434 12.884 12.428 0.464
H15MET 2017-09-24 18:45:00 394 208 900.0 2017.0 267.00 1845.0 10.8000 10.9300 96.500 95.800 10.2600 10.2900 0.00000 0.00000 0.00 0.000 12.953 12.494 0.453 13.065 12.519 0.549
H15MET 2017-09-24 18:30:00 393 208 900.0 2017.0 267.00 1830.0 11.0700 11.2000 95.800 94.800 10.4200 10.4000 0.00000 0.00000 0.00 0.000 13.187 12.629 0.554 13.302 12.612 0.692
H15MET 2017-09-24 18:15:00 392 208 900.0 2017.0 267.00 1815.0 11.4200 11.5600 96.100 94.400 10.8100 10.7000 0.00000 0.00000 0.00 0.000 13.497 12.961 0.526 13.623 12.867 0.763
H15MET 2017-09-24 18:00:00 391 208 900.0 2017.0 267.00 1800.0 11.7700 11.9100 95.200 93.200 11.0200 10.8400 0.00000 0.00000 0.00 0.000 13.813 13.144 0.663 13.941 12.987 0.948
H15MET 2017-09-24 17:45:00 390 208 900.0 2017.0 267.00 1745.0 12.1300 12.2400 93.800 90.400 11.1600 10.7200 0.00000 0.00000 0.00 0.000 14.145 13.266 0.877 14.248 12.884 1.368
H15MET 2017-09-24 17:30:00 389 208 900.0 2017.0 267.00 1730.0 12.2800 12.4100 93.300 89.500 11.2400 10.7300 0.00000 0.00000 0.00 0.000 14.286 13.337 0.957 14.408 12.892 1.513
H15MET 2017-09-24 17:15:00 388 208 900.0 2017.0 267.00 1715.0 12.5000 12.6400 93.500 89.400 11.4700 10.9300 0.00000 0.00000 0.00 0.000 14.494 13.542 0.942 14.627 13.065 1.551
H15MET 2017-09-24 17:00:00 387 208 900.0 2017.0 267.00 1700.0 12.7800 12.9500 93.400 89.500 11.7500 11.2600 0.00000 0.00000 0.00 0.000 14.762 13.795 0.974 14.928 13.355 1.567
H15MET 2017-09-24 16:45:00 386 208 900.0 2017.0 267.00 1645.0 13.1100 13.3600 93.200 89.400 12.0300 11.6600 0.00000 0.00000 0.00 0.000 15.085 14.052 1.026 15.333 13.713 1.625
H15MET 2017-09-24 16:30:00 385 208 900.0 2017.0 267.00 1630.0 13.3100 13.5800 91.700 87.600 11.9900 11.5600 0.00000 0.00000 0.00 0.000 15.283 14.015 1.268 15.554 13.623 1.929
H15MET 2017-09-24 16:15:00 384 208 900.0 2017.0 267.00 1615.0 13.6900 14.0100 89.000 84.200 11.9000 11.3700 0.00000 0.00000 0.00 0.000 15.666 13.932 1.723 15.995 13.452 2.527
H15MET 2017-09-24 16:00:00 383 208 900.0 2017.0 267.00 1600.0 14.4600 14.9700 85.800 78.300 12.1100 11.2200 0.00000 0.00000 0.00 0.000 16.468 14.127 2.338 17.019 13.319 3.693
H15MET 2017-09-24 15:45:00 382 208 900.0 2017.0 267.00 1545.0 15.0100 15.5700 81.600 74.000 11.8600 10.9100 0.00000 0.00000 0.00 0.000 17.063 13.896 3.140 17.688 13.048 4.599
H15MET 2017-09-24 15:30:00 381 208 900.0 2017.0 267.00 1530.0 14.8100 15.4200 83.000 76.000 11.9500 11.2000 0.00000 0.00000 0.00 0.000 16.844 13.978 2.864 17.518 13.302 4.204
H15MET 2017-09-24 15:15:00 380 208 900.0 2017.0 267.00 1515.0 15.4400 16.1200 75.300 66.830 11.0100 9.8800 0.04000 0.04000 58.07 2.023 17.541 13.135 4.333 18.321 12.180 6.077
H15MET 2017-09-24 15:00:00 379 208 900.0 2017.0 267.00 1500.0 14.9500 15.6800 78.500 69.080 11.2000 9.9700 0.00200 0.00200 63.27 1.934 16.997 13.302 3.654 17.813 12.254 5.508
H15MET 2017-09-24 14:45:00 378 208 900.0 2017.0 267.00 1445.0 14.6500 15.4200 81.000 69.790 11.4100 9.8900 0.00200 0.00200 64.77 0.461 16.671 13.488 3.168 17.518 12.189 5.292
H15MET 2017-09-24 14:30:00 377 208 900.0 2017.0 267.00 1430.0 14.7600 15.6400 79.200 68.390 11.1400 9.7400 0.01000 0.01000 315.80 2.161 16.790 13.249 3.492 17.767 12.066 5.616
H15MET 2017-09-24 14:15:00 376 208 900.0 2017.0 267.00 1415.0 14.7600 15.6700 81.000 66.870 11.5100 9.4600 0.01900 0.01900 149.90 1.189 16.790 13.578 3.190 17.801 11.841 5.898
H15MET 2017-09-24 14:00:00 375 208 900.0 2017.0 267.00 1400.0 15.1400 15.9500 75.800 65.750 10.8900 9.5300 0.00000 0.00000 0.00 0.000 17.206 13.030 4.164 18.123 11.897 6.207
H15MET 2017-09-24 13:45:00 374 208 900.0 2017.0 267.00 1345.0 15.0100 15.7500 74.100 61.020 10.3300 8.1600 0.01000 0.00900 306.30 3.767 17.063 12.553 4.419 17.893 10.844 6.975
H15MET 2017-09-24 13:30:00 373 208 900.0 2017.0 267.00 1330.0 14.5500 15.4000 80.500 66.850 11.2300 9.2500 0.00000 0.00000 0.00 0.000 16.564 13.328 3.230 17.496 11.675 5.800
H15MET 2017-09-24 13:15:00 372 208 900.0 2017.0 267.00 1315.0 14.3000 15.0500 82.100 71.400 11.2900 9.9000 0.00000 0.00000 0.00 0.000 16.298 13.381 2.917 17.107 12.197 4.893
H15MET 2017-09-24 13:00:00 371 208 900.0 2017.0 267.00 1300.0 14.0400 14.7500 82.300 70.900 11.0800 9.4800 0.00500 0.00500 327.10 1.151 16.026 13.196 2.837 16.779 11.857 4.883
H15MET 2017-09-24 12:45:00 370 208 900.0 2017.0 267.00 1245.0 14.2700 14.8700 78.600 69.900 10.5600 9.3600 0.00200 0.00200 342.90 4.376 16.267 12.747 3.481 16.910 11.762 5.090
H15MET 2017-09-24 12:30:00 369 208 900.0 2017.0 267.00 1230.0 13.9200 14.4200 79.200 67.200 10.3300 8.3800 0.00000 0.00000 5.73 0.000 15.902 12.553 3.308 16.426 11.008 5.388
H15MET 2017-09-24 12:15:00 368 208 900.0 2017.0 267.00 1215.0 13.1300 13.5700 89.500 80.700 11.4400 10.3000 0.00000 0.00000 0.00 0.000 15.104 13.515 1.586 15.544 12.528 3.000
H15MET 2017-09-24 12:00:00 367 208 900.0 2017.0 267.00 1200.0 12.7800 13.2500 91.300 86.600 11.3900 11.0600 0.00000 0.00000 0.00 0.000 14.762 13.470 1.284 15.223 13.179 2.040
H15MET 2017-09-24 11:45:00 366 208 900.0 2017.0 267.00 1145.0 12.3600 13.0000 92.100 85.900 11.1300 10.7000 0.00000 0.00000 0.00 0.000 14.361 13.240 1.135 14.976 12.867 2.112
H15MET 2017-09-24 11:30:00 365 208 900.0 2017.0 267.00 1130.0 11.9300 12.5200 93.300 85.400 10.8800 10.1300 0.01800 0.01700 273.40 5.890 13.960 13.022 0.935 14.513 12.386 2.119
H15MET 2017-09-24 11:15:00 364 208 900.0 2017.0 267.00 1115.0 11.5600 12.0900 94.500 88.100 10.7100 10.1800 0.00000 0.00000 0.00 0.000 13.623 12.875 0.749 14.108 12.428 1.679
H15MET 2017-09-24 11:00:00 363 208 900.0 2017.0 267.00 1100.0 11.1500 11.6300 94.700 89.900 10.3200 10.0300 0.00000 0.00000 0.00 0.000 13.258 12.545 0.703 13.686 12.303 1.382
H15MET 2017-09-24 10:45:00 362 208 900.0 2017.0 267.00 1045.0 10.8700 11.1600 94.600 88.800 10.0400 9.3900 0.00400 0.00400 70.60 1.584 13.013 12.312 0.703 13.266 11.786 1.486
H15MET 2017-09-24 10:30:00 361 208 900.0 2017.0 267.00 1030.0 10.9000 11.5500 93.500 86.000 9.8900 9.2900 0.00000 0.00000 0.00 0.000 13.039 12.189 0.848 13.614 11.707 1.906
H15MET 2017-09-24 10:15:00 360 208 900.0 2017.0 267.00 1015.0 11.4600 12.2500 90.600 83.600 9.9800 9.5600 0.00000 0.00000 0.00 0.000 13.533 12.262 1.272 14.257 11.921 2.338
H15MET 2017-09-24 10:00:00 359 208 900.0 2017.0 267.00 1000.0 11.5500 12.1000 89.500 83.100 9.8800 9.3300 0.00000 0.00000 0.00 0.000 13.614 12.180 1.429 14.117 11.738 2.386
H15MET 2017-09-24 09:45:00 358 208 900.0 2017.0 267.00 945.0 9.8700 10.5500 96.300 91.000 9.3000 9.1300 0.00000 0.00000 0.00 0.000 12.172 11.715 0.450 12.739 11.581 1.146
H15MET 2017-09-24 09:30:00 357 208 900.0 2017.0 267.00 930.0 8.8800 9.4700 98.600 93.500 8.6700 8.4700 0.00000 0.00000 0.00 0.000 11.387 11.226 0.159 11.849 11.075 0.770
H15MET 2017-09-24 09:15:00 356 208 900.0 2017.0 267.00 915.0 8.7500 9.5700 98.300 92.300 8.5000 8.3900 0.00000 0.00000 0.00 0.000 11.287 11.098 0.192 11.929 11.015 0.919
H15MET 2017-09-24 09:00:00 355 208 900.0 2017.0 267.00 900.0 8.8700 9.2800 99.700 93.100 8.8200 8.2200 0.00000 0.00000 0.00 0.000 11.379 11.341 0.034 11.699 10.889 0.807
H15MET 2017-09-24 08:45:00 354 208 900.0 2017.0 267.00 845.0 8.9200 9.0600 100.000 98.500 8.9200 8.8400 0.00000 0.00000 0.00 0.000 11.418 11.418 0.000 11.526 11.356 0.173
H15MET 2017-09-24 08:30:00 353 208 900.0 2017.0 267.00 830.0 7.7100 7.8900 100.000 100.000 7.7100 7.8900 0.00000 0.00000 0.00 0.000 10.517 10.517 0.000 10.647 10.647 -0.000
H15MET 2017-09-24 08:15:00 352 208 900.0 2017.0 267.00 815.0 6.6790 6.6300 100.000 100.000 6.6790 6.6300 0.00000 0.00000 0.00 0.000 9.799 9.799 0.000 9.766 9.766 0.000
H15MET 2017-09-24 08:00:00 351 208 900.0 2017.0 267.00 800.0 6.2480 6.1800 100.000 100.000 6.2480 6.1800 0.00000 0.00000 0.00 0.000 9.512 9.512 0.000 9.468 9.468 0.000
H15MET 2017-09-24 07:45:00 350 208 900.0 2017.0 267.00 745.0 5.7480 5.6970 100.000 100.000 5.7480 5.6970 0.00000 0.00000 0.00 0.000 9.189 9.189 0.000 9.156 9.156 0.000
H15MET 2017-09-24 07:30:00 349 208 900.0 2017.0 267.00 730.0 5.4230 5.2380 100.000 100.000 5.4230 5.2380 0.00000 0.00000 0.00 0.000 8.984 8.984 0.000 8.869 8.869 0.000
H15MET 2017-09-24 07:15:00 348 208 900.0 2017.0 267.00 715.0 5.2970 5.1300 100.000 100.000 5.2970 5.1300 0.00000 0.00000 0.00 0.000 8.905 8.905 0.000 8.802 8.802 0.000
H15MET 2017-09-24 07:00:00 347 208 900.0 2017.0 267.00 700.0 5.2400 5.0640 100.000 100.000 5.2400 5.0640 0.00000 0.00000 0.00 0.000 8.870 8.870 0.000 8.762 8.762 0.000
H15MET 2017-09-24 06:45:00 346 208 900.0 2017.0 267.00 645.0 5.1770 5.0170 100.000 100.000 5.1770 5.0170 0.00000 0.00000 0.00 0.000 8.831 8.831 0.000 8.733 8.733 0.000
H15MET 2017-09-24 06:30:00 345 208 900.0 2017.0 267.00 630.0 5.1580 4.9930 100.000 100.000 5.1580 4.9930 0.00000 0.00000 0.00 0.000 8.819 8.819 0.000 8.718 8.718 0.000
H15MET 2017-09-24 06:15:00 344 208 900.0 2017.0 267.00 615.0 5.1840 5.0180 100.000 100.000 5.1840 5.0180 0.00000 0.00000 0.00 0.000 8.835 8.835 0.000 8.734 8.734 0.000
H15MET 2017-09-24 06:00:00 343 208 900.0 2017.0 267.00 600.0 5.1790 5.0260 100.000 100.000 5.1790 5.0260 0.00000 0.00000 0.00 0.000 8.832 8.832 0.000 8.738 8.738 0.000
H15MET 2017-09-24 05:45:00 342 208 900.0 2017.0 267.00 545.0 5.2130 5.0690 100.000 100.000 5.2130 5.0690 0.00000 0.00000 0.00 0.000 8.853 8.853 0.000 8.765 8.765 0.000
H15MET 2017-09-24 05:30:00 341 208 900.0 2017.0 267.00 530.0 5.3020 5.1480 100.000 100.000 5.3020 5.1480 0.00000 0.00000 0.00 0.000 8.908 8.908 0.000 8.813 8.813 0.000
H15MET 2017-09-24 05:15:00 340 208 900.0 2017.0 267.00 515.0 5.3790 5.2060 100.000 100.000 5.3790 5.2060 0.00000 0.00000 0.00 0.000 8.956 8.956 0.000 8.849 8.849 0.000
H15MET 2017-09-24 05:00:00 339 208 900.0 2017.0 267.00 500.0 5.4110 5.2670 100.000 100.000 5.4110 5.2670 0.00000 0.00000 0.00 0.000 8.976 8.976 0.000 8.887 8.887 0.000
H15MET 2017-09-24 04:45:00 338 208 900.0 2017.0 267.00 445.0 5.4310 5.2640 100.000 100.000 5.4310 5.2640 0.00000 0.00000 0.00 0.000 8.989 8.989 0.000 8.885 8.885 0.000
H15MET 2017-09-24 04:30:00 337 208 900.0 2017.0 267.00 430.0 5.5060 5.3290 100.000 100.000 5.5060 5.3290 0.00000 0.00000 0.00 0.000 9.036 9.036 0.000 8.925 8.925 0.000
H15MET 2017-09-24 04:15:00 336 208 900.0 2017.0 267.00 415.0 5.5320 5.3750 100.000 100.000 5.5320 5.3750 0.00000 0.00000 0.00 0.000 9.052 9.052 0.000 8.954 8.954 0.000
H15MET 2017-09-24 04:00:00 335 208 900.0 2017.0 267.00 400.0 5.5680 5.3820 100.000 100.000 5.5680 5.3820 0.00000 0.00000 0.00 0.000 9.075 9.075 0.000 8.958 8.958 0.000
H15MET 2017-09-24 03:45:00 334 208 900.0 2017.0 267.00 345.0 5.6190 5.4240 100.000 100.000 5.6190 5.4240 0.00000 0.00000 0.00 0.000 9.107 9.107 0.000 8.984 8.984 0.000
H15MET 2017-09-24 03:30:00 333 208 900.0 2017.0 267.00 330.0 5.6320 5.4760 100.000 100.000 5.6320 5.4760 0.00000 0.00000 0.00 0.000 9.115 9.115 0.000 9.017 9.017 0.000
H15MET 2017-09-24 03:15:00 332 208 900.0 2017.0 267.00 315.0 5.6890 5.5040 100.000 100.000 5.6890 5.5040 0.00000 0.00000 0.00 0.000 9.151 9.151 0.000 9.034 9.034 0.000
H15MET 2017-09-24 03:00:00 331 208 900.0 2017.0 267.00 300.0 5.7780 5.5940 100.000 100.000 5.7780 5.5940 0.00000 0.00000 0.00 0.000 9.208 9.208 0.000 9.091 9.091 0.000
H15MET 2017-09-24 02:45:00 330 208 900.0 2017.0 267.00 245.0 5.8870 5.7080 100.000 100.000 5.8870 5.7080 0.00000 0.00000 0.00 0.000 9.278 9.278 0.000 9.163 9.163 0.000
H15MET 2017-09-24 02:30:00 329 208 900.0 2017.0 267.00 230.0 5.9390 5.7800 100.000 100.000 5.9380 5.7800 0.00000 0.00000 0.00 0.000 9.311 9.310 0.000 9.209 9.209 0.000
H15MET 2017-09-24 02:15:00 328 208 900.0 2017.0 267.00 215.0 5.9730 5.8010 100.000 100.000 5.9730 5.8010 0.00000 0.00000 0.00 0.000 9.333 9.333 0.000 9.223 9.223 0.000
H15MET 2017-09-24 02:00:00 327 208 900.0 2017.0 267.00 200.0 6.0400 5.8710 100.000 100.000 6.0400 5.8710 0.00000 0.00000 0.00 0.000 9.376 9.376 0.000 9.267 9.267 0.000
H15MET 2017-09-24 01:45:00 326 208 900.0 2017.0 267.00 145.0 6.1140 5.9250 100.000 100.000 6.1140 5.9250 0.00000 0.00000 0.00 0.000 9.425 9.425 0.000 9.302 9.302 0.000
H15MET 2017-09-24 01:30:00 325 208 900.0 2017.0 267.00 130.0 6.1770 6.0150 100.000 100.000 6.1770 6.0150 0.00000 0.00000 0.00 0.000 9.466 9.466 0.000 9.360 9.360 0.000
H15MET 2017-09-24 01:15:00 324 208 900.0 2017.0 267.00 115.0 6.2130 6.0500 100.000 100.000 6.2130 6.0490 0.00000 0.00000 0.00 0.000 9.489 9.489 0.000 9.383 9.382 0.000
H15MET 2017-09-24 01:00:00 323 208 900.0 2017.0 267.00 100.0 6.3030 6.1440 100.000 100.000 6.3030 6.1440 0.00000 0.00000 0.00 0.000 9.549 9.549 0.000 9.444 9.444 0.000
H15MET 2017-09-24 00:45:00 322 208 900.0 2017.0 267.00 45.0 6.3340 6.2060 100.000 100.000 6.3340 6.2060 0.00000 0.00000 0.00 0.000 9.569 9.569 0.000 9.485 9.485 0.000
H15MET 2017-09-24 00:30:00 321 208 900.0 2017.0 267.00 30.0 6.3920 6.2370 100.000 100.000 6.3920 6.2370 0.00000 0.00000 0.00 0.000 9.607 9.607 0.000 9.505 9.505 0.000
H15MET 2017-09-24 00:15:00 320 208 900.0 2017.0 267.00 15.0 6.4800 6.3140 100.000 100.000 6.4800 6.3140 0.00000 0.00000 0.00 0.000 9.666 9.666 0.000 9.556 9.556 0.000
H15MET 2017-09-24 00:00:00 319 208 900.0 2017.0 266.00 2400.0 6.5690 6.3880 100.000 100.000 6.5690 6.3880 0.00000 0.00000 0.00 0.000 9.725 9.725 0.000 9.605 9.605 0.000
H15MET 2017-09-23 23:45:00 318 208 900.0 2017.0 266.00 2345.0 6.6530 6.4670 100.000 100.000 6.6530 6.4670 0.00000 0.00000 0.00 0.000 9.782 9.782 0.000 9.657 9.657 0.000
H15MET 2017-09-23 23:30:00 317 208 900.0 2017.0 266.00 2330.0 6.7470 6.5760 100.000 100.000 6.7470 6.5760 0.00000 0.00000 0.00 0.000 9.845 9.845 0.000 9.730 9.730 0.000
H15MET 2017-09-23 23:15:00 316 208 900.0 2017.0 266.00 2315.0 6.8200 6.6500 100.000 100.000 6.8200 6.6500 0.00000 0.00000 0.00 0.000 9.895 9.895 0.000 9.780 9.780 0.000
H15MET 2017-09-23 23:00:00 315 208 900.0 2017.0 266.00 2300.0 6.8640 6.7020 100.000 100.000 6.8640 6.7020 0.00000 0.00000 0.00 0.000 9.925 9.925 0.000 9.815 9.815 0.000
H15MET 2017-09-23 22:45:00 314 208 900.0 2017.0 266.00 2245.0 6.8930 6.7310 100.000 100.000 6.8930 6.7310 0.00000 0.00000 0.00 0.000 9.945 9.945 0.000 9.834 9.834 0.000
H15MET 2017-09-23 22:30:00 313 208 900.0 2017.0 266.00 2230.0 6.9640 6.7910 100.000 100.000 6.9640 6.7910 0.00000 0.00000 0.00 0.000 9.993 9.993 0.000 9.875 9.875 0.000
H15MET 2017-09-23 22:15:00 312 208 900.0 2017.0 266.00 2215.0 7.1100 6.9380 100.000 100.000 7.1100 6.9380 0.00000 0.00000 0.00 0.000 10.094 10.094 0.000 9.975 9.975 0.000
H15MET 2017-09-23 22:00:00 311 208 900.0 2017.0 266.00 2200.0 7.3700 7.2500 100.000 100.000 7.3700 7.2500 0.00000 0.00000 0.00 0.000 10.275 10.275 0.000 10.191 10.191 0.000
H15MET 2017-09-23 21:45:00 310 208 900.0 2017.0 266.00 2145.0 7.6300 7.5500 100.000 100.000 7.6300 7.5500 0.00000 0.00000 0.00 0.000 10.460 10.460 -0.000 10.403 10.403 0.000
H15MET 2017-09-23 21:30:00 309 208 900.0 2017.0 266.00 2130.0 7.3800 7.3100 100.000 100.000 7.3800 7.3100 0.00000 0.00000 0.00 0.000 10.282 10.282 0.000 10.233 10.233 0.000
H15MET 2017-09-23 21:15:00 308 208 900.0 2017.0 266.00 2115.0 7.5400 7.4700 100.000 100.000 7.5400 7.4700 0.00000 0.00000 0.00 0.000 10.396 10.396 0.000 10.346 10.346 -0.000
H15MET 2017-09-23 21:00:00 307 208 900.0 2017.0 266.00 2100.0 7.6700 7.6600 100.000 100.000 7.6700 7.6600 0.00000 0.00000 0.00 0.000 10.488 10.488 0.000 10.481 10.481 0.000
H15MET 2017-09-23 20:45:00 306 208 900.0 2017.0 266.00 2045.0 7.5400 7.4500 100.000 100.000 7.5400 7.4500 0.00000 0.00000 0.00 0.000 10.396 10.396 0.000 10.332 10.332 0.000
H15MET 2017-09-23 20:30:00 305 208 900.0 2017.0 266.00 2030.0 7.6100 7.4900 100.000 100.000 7.6100 7.4900 0.00000 0.00000 0.00 0.000 10.445 10.445 0.000 10.360 10.360 0.000
H15MET 2017-09-23 20:15:00 304 208 900.0 2017.0 266.00 2015.0 7.8700 7.7900 100.000 100.000 7.8700 7.7900 0.00000 0.00000 0.00 0.000 10.632 10.632 -0.000 10.575 10.575 0.000
H15MET 2017-09-23 20:00:00 303 208 900.0 2017.0 266.00 2000.0 8.1200 8.0300 100.000 100.000 8.1200 8.0300 0.00000 0.00000 0.00 0.000 10.815 10.815 0.000 10.749 10.749 0.000
H15MET 2017-09-23 19:45:00 302 208 900.0 2017.0 266.00 1945.0 8.2600 8.1600 100.000 100.000 8.2600 8.1600 0.00000 0.00000 0.00 0.000 10.918 10.918 0.000 10.844 10.844 0.000
H15MET 2017-09-23 19:30:00 301 208 900.0 2017.0 266.00 1930.0 8.1800 8.1000 100.000 100.000 8.1800 8.1000 0.00000 0.00000 0.00 0.000 10.859 10.859 0.000 10.800 10.800 0.000
H15MET 2017-09-23 19:15:00 300 208 900.0 2017.0 266.00 1915.0 8.3400 8.3000 100.000 100.000 8.3300 8.2900 0.00200 0.00200 127.20 0.117 10.978 10.970 0.000 10.948 10.941 0.000
H15MET 2017-09-23 19:00:00 299 208 900.0 2017.0 266.00 1900.0 8.4000 8.3600 99.600 99.300 8.3400 8.2500 0.00000 0.00000 0.00 0.000 11.023 10.978 0.044 10.993 10.911 0.077
H15MET 2017-09-23 18:45:00 298 208 900.0 2017.0 266.00 1845.0 8.6800 8.6700 99.300 98.800 8.5900 8.4900 0.00000 0.00000 0.00 0.000 11.234 11.166 0.079 11.226 11.090 0.135
H15MET 2017-09-23 18:30:00 297 208 900.0 2017.0 266.00 1830.0 8.9700 8.9500 99.200 98.600 8.8400 8.7400 0.00000 0.00000 0.00 0.000 11.457 11.356 0.092 11.441 11.280 0.160
H15MET 2017-09-23 18:15:00 296 208 900.0 2017.0 266.00 1815.0 9.2800 9.1500 99.000 97.500 9.1400 8.7800 0.00000 0.00000 0.00 0.000 11.699 11.589 0.117 11.597 11.310 0.290
H15MET 2017-09-23 18:00:00 295 208 900.0 2017.0 266.00 1800.0 9.5100 9.3800 98.800 97.100 9.3400 8.9400 0.00000 0.00000 0.00 0.000 11.881 11.746 0.143 11.778 11.433 0.342
H15MET 2017-09-23 17:45:00 294 208 900.0 2017.0 266.00 1745.0 9.6700 9.5400 98.400 96.800 9.4200 9.0600 0.00000 0.00000 0.00 0.000 12.010 11.810 0.192 11.905 11.526 0.381
H15MET 2017-09-23 17:30:00 293 208 900.0 2017.0 266.00 1730.0 9.7900 9.6400 98.100 96.200 9.5000 9.0600 0.00000 0.00000 0.00 0.000 12.107 11.873 0.230 11.986 11.526 0.455
H15MET 2017-09-23 17:15:00 292 208 900.0 2017.0 266.00 1715.0 9.9800 9.8200 98.100 96.000 9.6900 9.2100 0.00000 0.00000 0.00 0.000 12.262 12.026 0.233 12.131 11.644 0.485
H15MET 2017-09-23 17:00:00 291 208 900.0 2017.0 266.00 1700.0 10.2400 10.0700 97.600 95.600 9.8700 9.4000 0.00000 0.00000 0.00 0.000 12.478 12.172 0.299 12.336 11.794 0.543
H15MET 2017-09-23 16:45:00 290 208 900.0 2017.0 266.00 1645.0 10.5400 10.3500 96.900 95.200 10.0600 9.6200 0.00000 0.00000 0.00 0.000 12.730 12.328 0.395 12.570 11.970 0.603
H15MET 2017-09-23 16:30:00 289 208 900.0 2017.0 266.00 1630.0 10.7500 10.5100 96.100 94.700 10.1500 9.7000 0.00000 0.00000 0.00 0.000 12.910 12.403 0.503 12.705 12.034 0.673
H15MET 2017-09-23 16:15:00 288 208 900.0 2017.0 266.00 1615.0 10.9000 10.6900 96.400 95.100 10.3400 9.9300 0.00000 0.00000 0.00 0.000 13.039 12.561 0.469 12.858 12.221 0.630
H15MET 2017-09-23 16:00:00 287 208 900.0 2017.0 266.00 1600.0 10.8100 10.6300 96.800 95.400 10.3200 9.9300 0.00000 0.00000 0.00 0.000 12.961 12.545 0.415 12.807 12.221 0.589
H15MET 2017-09-23 15:45:00 286 208 900.0 2017.0 266.00 1545.0 10.7000 10.6400 97.600 96.700 10.3400 10.1400 0.00000 0.00000 0.00 0.000 12.867 12.561 0.309 12.815 12.394 0.423
H15MET 2017-09-23 15:30:00 285 208 900.0 2017.0 266.00 1530.0 10.3100 10.1300 97.700 97.400 9.9700 9.7400 0.00000 0.00000 0.00 0.000 12.536 12.254 0.288 12.386 12.066 0.322
H15MET 2017-09-23 15:15:00 284 208 900.0 2017.0 266.00 1515.0 10.4100 10.1200 97.600 97.100 10.0500 9.6800 0.00000 0.00000 0.00 0.000 12.620 12.320 0.303 12.378 12.018 0.359
H15MET 2017-09-23 15:00:00 283 208 900.0 2017.0 266.00 1500.0 10.3500 10.0400 98.000 97.500 10.0500 9.6600 0.00000 0.00000 0.00 0.000 12.570 12.320 0.251 12.312 12.002 0.308
H15MET 2017-09-23 14:45:00 282 208 900.0 2017.0 266.00 1445.0 10.1200 9.8300 98.400 97.900 9.8800 9.5100 0.00000 0.00000 0.00 0.000 12.378 12.180 0.198 12.140 11.881 0.255
H15MET 2017-09-23 14:30:00 281 208 900.0 2017.0 266.00 1430.0 10.0200 9.7600 99.000 98.500 9.8700 9.5400 0.00000 0.00000 0.00 0.000 12.295 12.172 0.123 12.083 11.905 0.181
H15MET 2017-09-23 14:15:00 280 208 900.0 2017.0 266.00 1415.0 10.0100 9.7700 98.800 98.600 9.8300 9.5500 0.00000 0.00000 0.00 0.000 12.287 12.140 0.147 12.091 11.913 0.169
H15MET 2017-09-23 14:00:00 279 208 900.0 2017.0 266.00 1400.0 10.1400 9.8900 98.100 97.700 9.8600 9.5300 0.00000 0.00000 0.00 0.000 12.394 12.164 0.235 12.189 11.897 0.280
H15MET 2017-09-23 13:45:00 278 208 900.0 2017.0 266.00 1345.0 10.4100 10.1200 98.300 97.700 10.1400 9.7800 0.00000 0.00000 0.00 0.000 12.620 12.394 0.215 12.378 12.099 0.285
H15MET 2017-09-23 13:30:00 277 208 900.0 2017.0 266.00 1330.0 10.5600 10.3600 98.000 97.000 10.2600 9.9200 0.00000 0.00000 0.00 0.000 12.747 12.494 0.255 12.578 12.213 0.377
H15MET 2017-09-23 13:15:00 276 208 900.0 2017.0 266.00 1315.0 10.8400 10.7700 98.200 95.700 10.5600 10.1200 0.01700 0.01700 124.40 0.048 12.987 12.747 0.234 12.927 12.378 0.556
H15MET 2017-09-23 13:00:00 275 208 900.0 2017.0 266.00 1300.0 11.0400 10.9600 97.600 93.200 10.6800 9.9100 0.00000 0.00000 0.00 0.000 13.161 12.850 0.316 13.091 12.205 0.890
H15MET 2017-09-23 12:45:00 274 208 900.0 2017.0 266.00 1245.0 10.7000 10.6900 99.000 96.200 10.5400 10.1100 0.00000 0.00000 0.00 0.000 12.867 12.730 0.129 12.858 12.370 0.489
H15MET 2017-09-23 12:30:00 273 208 900.0 2017.0 266.00 1230.0 10.1100 10.0000 99.300 98.100 10.0000 9.7100 0.00400 0.00400 41.33 4.323 12.370 12.279 0.087 12.279 12.042 0.233
H15MET 2017-09-23 12:15:00 272 208 900.0 2017.0 266.00 1215.0 10.0200 9.9100 99.700 98.600 9.9800 9.7100 0.05800 0.05700 65.00 3.775 12.295 12.262 0.037 12.205 12.042 0.171
H15MET 2017-09-23 12:00:00 271 208 900.0 2017.0 266.00 1200.0 10.1900 10.2900 99.700 97.600 10.1300 9.9300 0.07200 0.07100 88.10 1.431 12.436 12.386 0.037 12.519 12.221 0.300
H15MET 2017-09-23 11:45:00 270 208 900.0 2017.0 266.00 1145.0 9.9800 10.1300 100.000 98.600 9.9800 9.9100 0.01100 0.01000 249.60 1.457 12.262 12.262 0.000 12.386 12.205 0.173
H15MET 2017-09-23 11:30:00 269 208 900.0 2017.0 266.00 1130.0 9.6700 9.5500 100.000 99.700 9.6700 9.5100 0.00000 0.00000 0.00 0.000 12.010 12.010 0.000 11.913 11.881 0.036
H15MET 2017-09-23 11:15:00 268 208 900.0 2017.0 266.00 1115.0 9.4100 9.2900 100.000 99.700 9.4100 9.2500 0.00000 0.00000 0.00 0.000 11.802 11.802 0.000 11.707 11.675 0.035
H15MET 2017-09-23 11:00:00 267 208 900.0 2017.0 266.00 1100.0 9.2900 9.1100 100.000 99.800 9.2900 9.0800 0.00000 0.00000 0.00 0.000 11.707 11.707 0.000 11.565 11.542 0.023
H15MET 2017-09-23 10:45:00 266 208 900.0 2017.0 266.00 1045.0 9.0500 8.9100 100.000 100.000 9.0500 8.9000 0.00000 0.00000 0.00 0.000 11.519 11.519 0.000 11.410 11.402 0.000
H15MET 2017-09-23 10:30:00 265 208 900.0 2017.0 266.00 1030.0 8.8200 8.5200 100.000 100.000 8.8200 8.5200 0.00000 0.00000 0.00 0.000 11.341 11.341 0.000 11.113 11.113 0.000
H15MET 2017-09-23 10:15:00 264 208 900.0 2017.0 266.00 1015.0 8.4200 8.1600 100.000 100.000 8.4200 8.1600 0.00000 0.00000 0.00 0.000 11.038 11.038 0.000 10.844 10.844 0.000
H15MET 2017-09-23 10:00:00 263 208 900.0 2017.0 266.00 1000.0 8.1500 7.8500 100.000 100.000 8.1500 7.8500 0.00000 0.00000 0.00 0.000 10.837 10.837 -0.000 10.618 10.618 0.000
H15MET 2017-09-23 09:45:00 262 208 900.0 2017.0 266.00 945.0 8.1200 7.7100 100.000 100.000 8.1200 7.7100 0.00000 0.00000 0.00 0.000 10.815 10.815 0.000 10.517 10.517 0.000
H15MET 2017-09-23 09:30:00 261 208 900.0 2017.0 266.00 930.0 7.6400 7.3500 100.000 100.000 7.6400 7.3500 0.00000 0.00000 0.00 0.000 10.467 10.467 0.000 10.261 10.261 0.000
H15MET 2017-09-23 09:15:00 260 208 900.0 2017.0 266.00 915.0 7.2900 6.9180 100.000 100.000 7.2900 6.9180 0.00000 0.00000 0.00 0.000 10.219 10.219 0.000 9.962 9.962 0.000
H15MET 2017-09-23 09:00:00 259 208 900.0 2017.0 266.00 900.0 7.2500 7.0100 100.000 100.000 7.2500 7.0100 0.00000 0.00000 0.00 0.000 10.191 10.191 0.000 10.025 10.025 0.000
H15MET 2017-09-23 08:45:00 258 208 900.0 2017.0 266.00 845.0 6.9600 6.6440 100.000 100.000 6.9600 6.6440 0.00000 0.00000 0.00 0.000 9.990 9.990 0.000 9.776 9.776 0.000
H15MET 2017-09-23 08:30:00 257 208 900.0 2017.0 266.00 830.0 6.4970 6.1650 100.000 100.000 6.4970 6.1650 0.00000 0.00000 0.00 0.000 9.677 9.677 0.000 9.458 9.458 0.000
H15MET 2017-09-23 08:15:00 256 208 900.0 2017.0 266.00 815.0 6.3060 5.9300 100.000 100.000 6.3060 5.9300 0.00000 0.00000 0.00 0.000 9.550 9.550 0.000 9.305 9.305 0.000
H15MET 2017-09-23 08:00:00 255 208 900.0 2017.0 266.00 800.0 6.1230 5.7920 100.000 100.000 6.1230 5.7920 0.00000 0.00000 0.00 0.000 9.430 9.430 0.000 9.217 9.217 0.000
H15MET 2017-09-23 07:45:00 254 208 900.0 2017.0 266.00 745.0 5.8880 5.5920 100.000 100.000 5.8880 5.5920 0.00000 0.00000 0.00 0.000 9.278 9.278 0.000 9.090 9.090 0.000
H15MET 2017-09-23 07:30:00 253 208 900.0 2017.0 266.00 730.0 5.6880 5.3930 100.000 100.000 5.6880 5.3930 0.00000 0.00000 0.00 0.000 9.151 9.151 0.000 8.965 8.965 0.000
H15MET 2017-09-23 07:15:00 252 208 900.0 2017.0 266.00 715.0 5.4940 5.2380 100.000 100.000 5.4940 5.2380 0.00000 0.00000 0.00 0.000 9.028 9.028 0.000 8.869 8.869 0.000
H15MET 2017-09-23 07:00:00 251 208 900.0 2017.0 266.00 700.0 5.2750 5.0190 100.000 100.000 5.2750 5.0190 0.00000 0.00000 0.00 0.000 8.892 8.892 0.000 8.734 8.734 0.000
H15MET 2017-09-23 06:45:00 250 208 900.0 2017.0 266.00 645.0 5.0880 4.8510 100.000 100.000 5.0880 4.8510 0.00000 0.00000 0.00 0.000 8.776 8.776 0.000 8.632 8.632 0.000
H15MET 2017-09-23 06:30:00 249 208 900.0 2017.0 266.00 630.0 4.9900 4.7800 100.000 100.000 4.9900 4.7800 0.00000 0.00000 0.00 0.000 8.717 8.717 0.000 8.590 8.590 0.000
H15MET 2017-09-23 06:15:00 248 208 900.0 2017.0 266.00 615.0 4.9440 4.7260 100.000 100.000 4.9440 4.7260 0.00000 0.00000 0.00 0.000 8.689 8.689 0.000 8.557 8.557 0.000
H15MET 2017-09-23 06:00:00 247 208 900.0 2017.0 266.00 600.0 4.8730 4.6490 100.000 100.000 4.8730 4.6490 0.00000 0.00000 0.00 0.000 8.646 8.646 0.000 8.511 8.511 0.000
H15MET 2017-09-23 05:45:00 246 208 900.0 2017.0 266.00 545.0 4.8140 4.5860 100.000 100.000 4.8140 4.5860 0.00000 0.00000 0.00 0.000 8.610 8.610 0.000 8.474 8.474 0.000
H15MET 2017-09-23 05:30:00 245 208 900.0 2017.0 266.00 530.0 4.7860 4.5540 100.000 100.000 4.7860 4.5540 0.00000 0.00000 0.00 0.000 8.593 8.593 0.000 8.455 8.455 0.000
H15MET 2017-09-23 05:15:00 244 208 900.0 2017.0 266.00 515.0 4.8500 4.6620 100.000 100.000 4.8500 4.6620 0.00000 0.00000 0.00 0.000 8.632 8.632 0.000 8.519 8.519 0.000
H15MET 2017-09-23 05:00:00 243 208 900.0 2017.0 266.00 500.0 4.7940 4.5900 100.000 100.000 4.7940 4.5900 0.00000 0.00000 0.00 0.000 8.598 8.598 0.000 8.476 8.476 0.000
H15MET 2017-09-23 04:45:00 242 208 900.0 2017.0 266.00 445.0 4.7960 4.5810 100.000 100.000 4.7960 4.5810 0.00000 0.00000 0.00 0.000 8.599 8.599 0.000 8.471 8.471 0.000
H15MET 2017-09-23 04:30:00 241 208 900.0 2017.0 266.00 430.0 4.7720 4.5610 100.000 100.000 4.7720 4.5610 0.00000 0.00000 0.00 0.000 8.585 8.585 0.000 8.459 8.459 0.000
H15MET 2017-09-23 04:15:00 240 208 900.0 2017.0 266.00 415.0 4.7510 4.5490 100.000 100.000 4.7510 4.5490 0.00000 0.00000 0.00 0.000 8.572 8.572 0.000 8.452 8.452 0.000
H15MET 2017-09-23 04:00:00 239 208 900.0 2017.0 266.00 400.0 4.6790 4.4860 100.000 100.000 4.6790 4.4860 0.00000 0.00000 0.00 0.000 8.529 8.529 0.000 8.415 8.415 0.000
H15MET 2017-09-23 03:45:00 238 208 900.0 2017.0 266.00 345.0 4.6280 4.4420 100.000 100.000 4.6280 4.4420 0.00000 0.00000 0.00 0.000 8.499 8.499 0.000 8.389 8.389 0.000
H15MET 2017-09-23 03:30:00 237 208 900.0 2017.0 266.00 330.0 4.6400 4.4160 100.000 100.000 4.6400 4.4160 0.00000 0.00000 0.00 0.000 8.506 8.506 0.000 8.373 8.373 0.000
H15MET 2017-09-23 03:15:00 236 208 900.0 2017.0 266.00 315.0 4.6490 4.4540 100.000 100.000 4.6490 4.4540 0.00000 0.00000 0.00 0.000 8.511 8.511 0.000 8.396 8.396 0.000
H15MET 2017-09-23 03:00:00 235 208 900.0 2017.0 266.00 300.0 4.5760 4.3710 100.000 100.000 4.5760 4.3710 0.00000 0.00000 0.00 0.000 8.468 8.468 0.000 8.347 8.347 0.000
H15MET 2017-09-23 02:45:00 234 208 900.0 2017.0 266.00 245.0 4.4570 4.2830 100.000 100.000 4.4570 4.2830 0.00000 0.00000 0.00 0.000 8.398 8.398 0.000 8.296 8.296 0.000
H15MET 2017-09-23 02:30:00 233 208 900.0 2017.0 266.00 230.0 4.3320 4.1410 100.000 100.000 4.3320 4.1410 0.00000 0.00000 0.00 0.000 8.324 8.324 0.000 8.213 8.213 0.000
H15MET 2017-09-23 02:15:00 232 208 900.0 2017.0 266.00 215.0 4.2990 4.1010 100.000 100.000 4.2990 4.1010 0.00000 0.00000 0.00 0.000 8.305 8.305 0.000 8.190 8.190 0.000
H15MET 2017-09-23 02:00:00 231 208 900.0 2017.0 266.00 200.0 4.2480 4.0630 100.000 100.000 4.2480 4.0630 0.00000 0.00000 0.00 0.000 8.275 8.275 0.000 8.168 8.168 0.000
H15MET 2017-09-23 01:45:00 230 208 900.0 2017.0 266.00 145.0 4.2890 4.1430 100.000 100.000 4.2890 4.1430 0.00000 0.00000 0.00 0.000 8.299 8.299 0.000 8.214 8.214 0.000
H15MET 2017-09-23 01:30:00 229 208 900.0 2017.0 266.00 130.0 4.3060 4.1880 100.000 100.000 4.3060 4.1880 0.00000 0.00000 0.00 0.000 8.309 8.309 0.000 8.240 8.240 0.000
H15MET 2017-09-23 01:15:00 228 208 900.0 2017.0 266.00 115.0 4.2730 4.1030 100.000 100.000 4.2730 4.1030 0.00000 0.00000 0.00 0.000 8.290 8.290 0.000 8.191 8.191 0.000
H15MET 2017-09-23 01:00:00 227 208 900.0 2017.0 266.00 100.0 4.2940 4.1400 100.000 100.000 4.2940 4.1400 0.00000 0.00000 0.00 0.000 8.302 8.302 0.000 8.213 8.213 0.000
H15MET 2017-09-23 00:45:00 226 208 900.0 2017.0 266.00 45.0 4.3530 4.2230 100.000 100.000 4.3530 4.2230 0.00000 0.00000 0.00 0.000 8.336 8.336 0.000 8.261 8.261 0.000
H15MET 2017-09-23 00:30:00 225 208 900.0 2017.0 266.00 30.0 4.4320 4.3060 100.000 100.000 4.4320 4.3060 0.00000 0.00000 0.00 0.000 8.383 8.383 0.000 8.309 8.309 0.000
H15MET 2017-09-23 00:15:00 224 208 900.0 2017.0 266.00 15.0 4.5370 4.4140 100.000 100.000 4.5370 4.4140 0.00000 0.00000 0.00 0.000 8.445 8.445 0.000 8.372 8.372 0.000
H15MET 2017-09-23 00:00:00 223 208 900.0 2017.0 265.00 2400.0 4.6220 4.4530 100.000 100.000 4.6220 4.4530 0.00000 0.00000 0.00 0.000 8.495 8.495 0.000 8.395 8.395 0.000
H15MET 2017-09-22 23:45:00 222 208 900.0 2017.0 265.00 2345.0 4.6820 4.5080 100.000 100.000 4.6820 4.5080 0.00000 0.00000 0.00 0.000 8.531 8.531 0.000 8.428 8.428 0.000
H15MET 2017-09-22 23:30:00 221 208 900.0 2017.0 265.00 2330.0 4.7720 4.5720 100.000 100.000 4.7720 4.5720 0.00000 0.00000 0.00 0.000 8.585 8.585 0.000 8.465 8.465 0.000
H15MET 2017-09-22 23:15:00 220 208 900.0 2017.0 265.00 2315.0 4.9030 4.7160 100.000 100.000 4.9030 4.7160 0.00000 0.00000 0.00 0.000 8.664 8.664 0.000 8.551 8.551 0.000
H15MET 2017-09-22 23:00:00 219 208 900.0 2017.0 265.00 2300.0 5.0340 4.8550 100.000 100.000 5.0340 4.8550 0.00000 0.00000 0.00 0.000 8.743 8.743 0.000 8.635 8.635 0.000
H15MET 2017-09-22 22:45:00 218 208 900.0 2017.0 265.00 2245.0 5.1030 4.9430 100.000 100.000 5.1030 4.9430 0.00000 0.00000 0.00 0.000 8.786 8.786 0.000 8.688 8.688 0.000
H15MET 2017-09-22 22:30:00 217 208 900.0 2017.0 265.00 2230.0 5.2650 5.1560 100.000 100.000 5.2650 5.1560 0.00000 0.00000 0.00 0.000 8.885 8.885 0.000 8.818 8.818 0.000
H15MET 2017-09-22 22:15:00 216 208 900.0 2017.0 265.00 2215.0 5.1660 4.9940 100.000 100.000 5.1660 4.9940 0.00000 0.00000 0.00 0.000 8.824 8.824 0.000 8.719 8.719 0.000
H15MET 2017-09-22 22:00:00 215 208 900.0 2017.0 265.00 2200.0 5.2400 5.0540 100.000 100.000 5.2400 5.0540 0.00000 0.00000 0.00 0.000 8.870 8.870 0.000 8.756 8.756 0.000
H15MET 2017-09-22 21:45:00 214 208 900.0 2017.0 265.00 2145.0 5.3560 5.1870 100.000 100.000 5.3560 5.1870 0.00000 0.00000 0.00 0.000 8.942 8.942 0.000 8.837 8.837 0.000
H15MET 2017-09-22 21:30:00 213 208 900.0 2017.0 265.00 2130.0 5.6410 5.4340 100.000 100.000 5.6410 5.4340 0.00000 0.00000 0.00 0.000 9.121 9.121 0.000 8.990 8.990 0.000
H15MET 2017-09-22 21:15:00 212 208 900.0 2017.0 265.00 2115.0 5.8580 5.6170 100.000 100.000 5.8580 5.6170 0.00000 0.00000 0.00 0.000 9.259 9.259 0.000 9.106 9.106 0.000
H15MET 2017-09-22 21:00:00 211 208 900.0 2017.0 265.00 2100.0 5.8780 5.6560 100.000 100.000 5.8780 5.6560 0.00000 0.00000 0.00 0.000 9.272 9.272 0.000 9.130 9.130 0.000
H15MET 2017-09-22 20:45:00 210 208 900.0 2017.0 265.00 2045.0 6.2540 6.0310 100.000 100.000 6.2530 6.0310 0.00000 0.00000 0.00 0.000 9.516 9.516 0.000 9.371 9.371 0.000
H15MET 2017-09-22 20:30:00 209 208 900.0 2017.0 265.00 2030.0 6.4720 6.1780 100.000 100.000 6.4720 6.1780 0.00000 0.00000 0.00 0.000 9.661 9.661 0.000 9.466 9.466 0.000
H15MET 2017-09-22 20:15:00 208 208 900.0 2017.0 265.00 2015.0 6.5440 6.2540 100.000 100.000 6.5440 6.2540 0.00000 0.00000 0.00 0.000 9.709 9.709 0.000 9.516 9.516 0.000
H15MET 2017-09-22 20:00:00 207 208 900.0 2017.0 265.00 2000.0 6.4990 6.2480 100.000 100.000 6.4990 6.2480 0.00000 0.00000 0.00 0.000 9.679 9.679 0.000 9.512 9.512 0.000
H15MET 2017-09-22 19:45:00 206 208 900.0 2017.0 265.00 1945.0 6.5140 6.2500 100.000 100.000 6.5140 6.2500 0.00000 0.00000 0.00 0.000 9.689 9.689 0.000 9.514 9.514 0.000
H15MET 2017-09-22 19:30:00 205 208 900.0 2017.0 265.00 1930.0 6.2920 6.0560 100.000 100.000 6.2920 6.0560 0.00000 0.00000 0.00 0.000 9.541 9.541 0.000 9.387 9.387 0.000
H15MET 2017-09-22 19:15:00 204 208 900.0 2017.0 265.00 1915.0 6.2230 6.0000 100.000 100.000 6.2230 6.0000 0.00000 0.00000 0.00 0.000 9.496 9.496 0.000 9.351 9.351 0.000
H15MET 2017-09-22 19:00:00 203 208 900.0 2017.0 265.00 1900.0 6.3410 6.1150 100.000 100.000 6.3410 6.1150 0.00000 0.00000 0.00 0.000 9.574 9.574 0.000 9.425 9.425 0.000
H15MET 2017-09-22 18:45:00 202 208 900.0 2017.0 265.00 1845.0 6.3520 6.1310 100.000 100.000 6.3520 6.1310 0.00000 0.00000 0.00 0.000 9.581 9.581 0.000 9.436 9.436 0.000
H15MET 2017-09-22 18:30:00 201 208 900.0 2017.0 265.00 1830.0 6.4570 6.2550 100.000 100.000 6.4570 6.2550 0.00000 0.00000 0.00 0.000 9.651 9.651 0.000 9.517 9.517 0.000
H15MET 2017-09-22 18:15:00 200 208 900.0 2017.0 265.00 1815.0 6.5720 6.4040 100.000 100.000 6.5720 6.4040 0.00000 0.00000 0.00 0.000 9.727 9.727 0.000 9.615 9.615 0.000
H15MET 2017-09-22 18:00:00 199 208 900.0 2017.0 265.00 1800.0 6.6910 6.5330 100.000 100.000 6.6910 6.5330 0.00000 0.00000 0.00 0.000 9.807 9.807 0.000 9.701 9.701 0.000
H15MET 2017-09-22 17:45:00 198 208 900.0 2017.0 265.00 1745.0 6.7830 6.5910 100.000 100.000 6.7830 6.5910 0.00000 0.00000 0.00 0.000 9.870 9.870 0.000 9.740 9.740 0.000
H15MET 2017-09-22 17:30:00 197 208 900.0 2017.0 265.00 1730.0 6.7610 6.5960 100.000 100.000 6.7560 6.5960 0.00000 0.00000 0.00 0.000 9.855 9.851 0.000 9.743 9.743 0.000
H15MET 2017-09-22 17:15:00 196 208 900.0 2017.0 265.00 1715.0 6.7650 6.5410 99.600 99.900 6.7060 6.5240 0.00000 0.00000 0.00 0.000 9.857 9.818 0.039 9.707 9.695 0.010
H15MET 2017-09-22 17:00:00 195 208 900.0 2017.0 265.00 1700.0 6.8740 6.7440 98.300 97.800 6.6170 6.4180 0.06600 0.05900 295.90 11.160 9.932 9.758 0.169 9.843 9.625 0.217
H15MET 2017-09-22 16:45:00 194 208 900.0 2017.0 265.00 1645.0 7.3500 7.1400 98.400 96.900 7.1100 6.6840 0.19900 0.19100 242.10 9.580 10.261 10.094 0.164 10.115 9.803 0.314
H15MET 2017-09-22 16:30:00 193 208 900.0 2017.0 265.00 1630.0 7.7700 7.5700 99.000 99.200 7.6200 7.4600 0.00600 0.00600 230.90 0.000 10.560 10.453 0.106 10.417 10.339 0.083
H15MET 2017-09-22 16:15:00 192 208 900.0 2017.0 265.00 1615.0 7.9600 7.7100 98.700 99.000 7.7700 7.5600 0.00000 0.00000 0.00 0.000 10.698 10.560 0.139 10.517 10.410 0.105
H15MET 2017-09-22 16:00:00 191 208 900.0 2017.0 265.00 1600.0 7.9600 7.7000 98.300 98.400 7.7100 7.4600 0.00000 0.00000 0.00 0.000 10.698 10.517 0.182 10.510 10.339 0.168
H15MET 2017-09-22 15:45:00 190 208 900.0 2017.0 265.00 1545.0 8.0000 7.7300 97.500 97.000 7.6300 7.2700 0.00000 0.00000 0.00 0.000 10.727 10.460 0.268 10.531 10.205 0.316
H15MET 2017-09-22 15:30:00 189 208 900.0 2017.0 265.00 1530.0 8.2200 7.9600 97.300 96.900 7.8200 7.5000 0.00000 0.00000 0.00 0.000 10.889 10.596 0.294 10.698 10.367 0.332
H15MET 2017-09-22 15:15:00 188 208 900.0 2017.0 265.00 1515.0 8.4900 8.2400 97.200 96.900 8.0700 7.7900 0.00000 0.00000 0.00 0.000 11.090 10.778 0.311 10.904 10.575 0.338
H15MET 2017-09-22 15:00:00 187 208 900.0 2017.0 265.00 1500.0 8.6300 8.4300 97.300 97.300 8.2200 8.0200 0.00000 0.00000 0.00 0.000 11.196 10.889 0.302 11.045 10.742 0.298
H15MET 2017-09-22 14:45:00 186 208 900.0 2017.0 265.00 1445.0 8.9500 8.6600 96.600 95.800 8.4300 8.0300 0.00000 0.00000 0.00 0.000 11.441 11.045 0.389 11.219 10.749 0.471
H15MET 2017-09-22 14:30:00 185 208 900.0 2017.0 265.00 1430.0 9.1900 8.9300 96.400 95.800 8.6600 8.2900 0.00000 0.00000 0.00 0.000 11.628 11.219 0.419 11.426 10.941 0.480
H15MET 2017-09-22 14:15:00 184 208 900.0 2017.0 265.00 1415.0 9.3100 9.0600 96.200 95.200 8.7400 8.3400 0.00000 0.00000 0.00 0.000 11.722 11.280 0.445 11.526 10.978 0.553
H15MET 2017-09-22 14:00:00 183 208 900.0 2017.0 265.00 1400.0 8.9300 8.7400 97.000 97.100 8.4700 8.3000 0.00000 0.00000 0.00 0.000 11.426 11.075 0.343 11.280 10.948 0.327
H15MET 2017-09-22 13:45:00 182 208 900.0 2017.0 265.00 1345.0 8.5900 8.2300 97.400 97.500 8.2100 7.8600 0.00000 0.00000 0.00 0.000 11.166 10.881 0.290 10.896 10.625 0.272
H15MET 2017-09-22 13:30:00 181 208 900.0 2017.0 265.00 1330.0 8.3200 7.9900 97.700 97.500 7.9800 7.6200 0.00000 0.00000 0.00 0.000 10.963 10.712 0.252 10.720 10.453 0.268
H15MET 2017-09-22 13:15:00 180 208 900.0 2017.0 265.00 1315.0 8.5100 8.2300 97.500 97.400 8.1300 7.8400 0.00000 0.00000 0.00 0.000 11.105 10.822 0.278 10.896 10.611 0.283
H15MET 2017-09-22 13:00:00 179 208 900.0 2017.0 265.00 1300.0 8.8200 8.5300 96.400 96.000 8.2800 7.9300 0.00000 0.00000 0.00 0.000 11.341 10.933 0.408 11.120 10.676 0.445
H15MET 2017-09-22 12:45:00 178 208 900.0 2017.0 265.00 1245.0 9.0700 8.7900 96.300 95.400 8.5100 8.1000 0.00000 0.00000 0.00 0.000 11.534 11.105 0.427 11.318 10.800 0.521
H15MET 2017-09-22 12:30:00 177 208 900.0 2017.0 265.00 1230.0 9.1500 8.9600 95.700 94.300 8.5000 8.0900 0.00000 0.00000 0.00 0.000 11.597 11.098 0.499 11.449 10.793 0.653
H15MET 2017-09-22 12:15:00 176 208 900.0 2017.0 265.00 1215.0 9.4200 9.2400 95.200 93.600 8.6900 8.2600 0.00000 0.00000 0.00 0.000 11.810 11.242 0.567 11.667 10.918 0.747
H15MET 2017-09-22 12:00:00 175 208 900.0 2017.0 265.00 1200.0 9.4200 9.3700 93.500 90.900 8.4200 7.9600 0.00000 0.00000 0.00 0.000 11.810 11.038 0.768 11.770 10.698 1.071
H15MET 2017-09-22 11:45:00 174 208 900.0 2017.0 265.00 1145.0 9.5500 9.3300 90.500 88.200 8.0500 7.4500 0.03800 0.03300 326.80 10.350 11.913 10.764 1.132 11.738 10.332 1.385
H15MET 2017-09-22 11:30:00 173 208 900.0 2017.0 265.00 1130.0 9.0000 8.8400 93.600 91.300 8.0100 7.4900 0.03400 0.03200 322.90 4.263 11.480 10.734 0.735 11.356 10.360 0.988
H15MET 2017-09-22 11:15:00 172 208 900.0 2017.0 265.00 1115.0 8.8000 8.5700 96.200 94.600 8.2200 7.7400 0.01500 0.01500 326.20 0.753 11.326 10.889 0.430 11.151 10.539 0.602
H15MET 2017-09-22 11:00:00 171 208 900.0 2017.0 265.00 1100.0 8.4300 8.3300 98.500 96.400 8.2100 7.7900 0.00100 0.00100 291.60 0.007 11.045 10.881 0.166 10.970 10.575 0.395
H15MET 2017-09-22 10:45:00 170 208 900.0 2017.0 265.00 1045.0 8.0400 8.2800 97.600 93.300 7.6900 7.2600 0.01000 0.01000 55.94 0.858 10.756 10.503 0.258 10.933 10.198 0.733
H15MET 2017-09-22 10:30:00 169 208 900.0 2017.0 265.00 1030.0 7.9900 8.4700 95.300 91.700 7.2900 7.1900 0.00000 0.00000 0.00 0.000 10.720 10.219 0.504 11.075 10.149 0.919
H15MET 2017-09-22 10:15:00 168 208 900.0 2017.0 265.00 1015.0 8.5300 8.4500 91.400 89.200 7.2100 6.7750 0.02200 0.02200 324.40 2.854 11.120 10.163 0.956 11.060 9.864 1.195
H15MET 2017-09-22 10:00:00 167 208 900.0 2017.0 265.00 1000.0 7.5400 7.5600 94.700 93.800 6.7510 6.6220 0.00000 0.00000 0.00 0.000 10.396 9.848 0.551 10.410 9.761 0.645
H15MET 2017-09-22 09:45:00 166 208 900.0 2017.0 265.00 945.0 6.0100 5.8660 99.900 99.900 5.9990 5.8570 0.00000 0.00000 0.00 0.000 9.357 9.350 0.009 9.264 9.258 0.009
H15MET 2017-09-22 09:30:00 165 208 900.0 2017.0 265.00 930.0 5.6220 5.0100 100.000 100.000 5.6220 5.0100 0.01400 0.01400 280.60 1.059 9.109 9.109 0.000 8.729 8.729 0.000
H15MET 2017-09-22 09:15:00 164 208 900.0 2017.0 265.00 915.0 5.1680 4.8340 100.000 100.000 5.1670 4.8340 0.08000 0.07900 277.60 4.762 8.825 8.825 0.000 8.622 8.622 0.000
H15MET 2017-09-22 09:00:00 163 208 900.0 2017.0 265.00 900.0 4.6620 4.1710 100.000 100.000 4.6620 4.1710 0.01100 0.01100 138.20 1.511 8.519 8.519 0.000 8.231 8.231 0.000
H15MET 2017-09-22 08:45:00 162 208 900.0 2017.0 265.00 845.0 4.3820 3.9740 100.000 100.000 4.3820 3.9730 0.00000 0.00000 0.00 0.000 8.353 8.353 0.000 8.117 8.117 0.000
H15MET 2017-09-22 08:30:00 161 208 900.0 2017.0 265.00 830.0 3.9690 3.5880 100.000 100.000 3.9690 3.5870 0.00000 0.00000 0.00 0.000 8.114 8.114 0.000 7.899 7.899 0.000
H15MET 2017-09-22 08:15:00 160 208 900.0 2017.0 265.00 815.0 3.9900 3.5620 100.000 100.000 3.9900 3.5620 0.00400 0.00400 121.00 0.103 8.126 8.126 0.000 7.885 7.885 0.000
H15MET 2017-09-22 08:00:00 159 208 900.0 2017.0 265.00 800.0 3.8770 3.4040 100.000 100.000 3.8770 3.4040 0.00000 0.00000 0.00 0.000 8.062 8.062 0.000 7.797 7.797 0.000
H15MET 2017-09-22 07:45:00 158 208 900.0 2017.0 265.00 745.0 3.7050 3.3060 100.000 100.000 3.7050 3.3060 0.00000 0.00000 0.00 0.000 7.965 7.965 -0.000 7.743 7.743 -0.000
H15MET 2017-09-22 07:30:00 157 208 900.0 2017.0 265.00 730.0 3.3170 2.9490 100.000 100.000 3.3170 2.9490 0.00000 0.00000 0.00 0.000 7.749 7.749 -0.000 7.550 7.550 0.000
H15MET 2017-09-22 07:15:00 156 208 900.0 2017.0 265.00 715.0 3.2900 2.9320 100.000 100.000 3.2900 2.9320 0.00000 0.00000 0.00 0.000 7.735 7.735 0.000 7.541 7.541 0.000
H15MET 2017-09-22 07:00:00 155 208 900.0 2017.0 265.00 700.0 3.2860 2.9750 100.000 100.000 3.2860 2.9750 0.00000 0.00000 0.00 0.000 7.732 7.732 0.000 7.564 7.564 0.000
H15MET 2017-09-22 06:45:00 154 208 900.0 2017.0 265.00 645.0 3.2480 2.9600 100.000 100.000 3.2480 2.9600 0.00000 0.00000 0.00 0.000 7.712 7.712 0.000 7.556 7.556 0.000
H15MET 2017-09-22 06:30:00 153 208 900.0 2017.0 265.00 630.0 3.4250 3.1060 100.000 100.000 3.4250 3.1060 0.00000 0.00000 0.00 0.000 7.809 7.809 0.000 7.635 7.635 0.000
H15MET 2017-09-22 06:15:00 152 208 900.0 2017.0 265.00 615.0 3.4820 3.1670 100.000 100.000 3.4820 3.1670 0.00000 0.00000 0.00 0.000 7.840 7.840 0.000 7.668 7.668 0.000
H15MET 2017-09-22 06:00:00 151 208 900.0 2017.0 265.00 600.0 3.4770 3.1840 100.000 100.000 3.4770 3.1830 0.00200 0.00200 209.00 1.743 7.838 7.838 0.000 7.677 7.676 0.000
H15MET 2017-09-22 05:45:00 150 208 900.0 2017.0 265.00 545.0 3.5920 3.3440 100.000 100.000 3.5920 3.3440 0.00000 0.00000 0.00 0.000 7.902 7.902 -0.000 7.764 7.764 0.000
H15MET 2017-09-22 05:30:00 149 208 900.0 2017.0 265.00 530.0 3.6780 3.3890 100.000 100.000 3.6780 3.3890 0.00000 0.00000 0.00 0.000 7.950 7.950 0.000 7.789 7.789 0.000
H15MET 2017-09-22 05:15:00 148 208 900.0 2017.0 265.00 515.0 3.8350 3.5520 100.000 100.000 3.8350 3.5520 0.00000 0.00000 0.00 0.000 8.038 8.038 0.000 7.879 7.879 0.000
H15MET 2017-09-22 05:00:00 147 208 900.0 2017.0 265.00 500.0 3.8350 3.5290 100.000 100.000 3.8350 3.5290 0.00000 0.00000 0.00 0.000 8.038 8.038 0.000 7.867 7.867 0.000
H15MET 2017-09-22 04:45:00 146 208 900.0 2017.0 265.00 445.0 3.8280 3.5060 100.000 100.000 3.8280 3.5060 0.00000 0.00000 0.00 0.000 8.034 8.034 0.000 7.854 7.854 0.000
H15MET 2017-09-22 04:30:00 145 208 900.0 2017.0 265.00 430.0 3.9280 3.6240 100.000 100.000 3.9280 3.6240 0.00000 0.00000 0.00 0.000 8.091 8.091 0.000 7.920 7.920 0.000
H15MET 2017-09-22 04:15:00 144 208 900.0 2017.0 265.00 415.0 4.0000 3.7080 100.000 100.000 4.0000 3.7080 0.00000 0.00000 0.00 0.000 8.132 8.132 0.000 7.967 7.967 0.000
H15MET 2017-09-22 04:00:00 143 208 900.0 2017.0 265.00 400.0 4.0920 3.8000 100.000 100.000 4.0910 3.8000 0.00000 0.00000 0.00 0.000 8.185 8.184 0.000 8.018 8.018 0.000
H15MET 2017-09-22 03:45:00 142 208 900.0 2017.0 265.00 345.0 4.0700 3.7690 100.000 100.000 4.0700 3.7690 0.00000 0.00000 0.00 0.000 8.172 8.172 0.000 8.001 8.001 0.000
H15MET 2017-09-22 03:30:00 141 208 900.0 2017.0 265.00 330.0 3.9990 3.7400 100.000 100.000 3.9990 3.7400 0.00000 0.00000 0.00 0.000 8.132 8.132 0.000 7.985 7.985 -0.000
H15MET 2017-09-22 03:15:00 140 208 900.0 2017.0 265.00 315.0 3.8980 3.6420 100.000 100.000 3.8980 3.6420 0.00000 0.00000 0.00 0.000 8.074 8.074 0.000 7.930 7.930 0.000
H15MET 2017-09-22 03:00:00 139 208 900.0 2017.0 265.00 300.0 3.8160 3.5710 100.000 100.000 3.8160 3.5710 0.00000 0.00000 0.00 0.000 8.027 8.027 0.000 7.890 7.890 0.000
H15MET 2017-09-22 02:45:00 138 208 900.0 2017.0 265.00 245.0 3.7650 3.5440 100.000 100.000 3.7650 3.5440 0.00000 0.00000 0.00 0.000 7.999 7.999 0.000 7.875 7.875 0.000
H15MET 2017-09-22 02:30:00 137 208 900.0 2017.0 265.00 230.0 3.8530 3.6730 100.000 100.000 3.8530 3.6730 0.00000 0.00000 0.00 0.000 8.048 8.048 0.000 7.947 7.947 0.000
H15MET 2017-09-22 02:15:00 136 208 900.0 2017.0 265.00 215.0 3.8960 3.6930 100.000 100.000 3.8960 3.6930 0.00000 0.00000 0.00 0.000 8.073 8.073 0.000 7.958 7.958 0.000
H15MET 2017-09-22 02:00:00 135 208 900.0 2017.0 265.00 200.0 3.8630 3.6430 100.000 100.000 3.8630 3.6430 0.00000 0.00000 0.00 0.000 8.054 8.054 0.000 7.930 7.930 0.000
H15MET 2017-09-22 01:45:00 134 208 900.0 2017.0 265.00 145.0 3.8140 3.5630 100.000 100.000 3.8140 3.5630 0.00000 0.00000 0.00 0.000 8.026 8.026 0.000 7.885 7.885 0.000
H15MET 2017-09-22 01:30:00 133 208 900.0 2017.0 265.00 130.0 3.7070 3.4800 100.000 100.000 3.7070 3.4800 0.00000 0.00000 0.00 0.000 7.966 7.966 0.000 7.839 7.839 0.000
H15MET 2017-09-22 01:15:00 132 208 900.0 2017.0 265.00 115.0 3.5120 3.3070 100.000 100.000 3.5120 3.3070 0.00000 0.00000 0.00 0.000 7.857 7.857 0.000 7.744 7.744 0.000
H15MET 2017-09-22 01:00:00 131 208 900.0 2017.0 265.00 100.0 3.5180 3.2990 100.000 100.000 3.5180 3.2990 0.00000 0.00000 0.00 0.000 7.860 7.860 0.000 7.740 7.740 0.000
H15MET 2017-09-22 00:45:00 130 208 900.0 2017.0 265.00 45.0 3.5070 3.2960 100.000 100.000 3.5070 3.2960 0.00000 0.00000 0.00 0.000 7.854 7.854 0.000 7.738 7.738 0.000
H15MET 2017-09-22 00:30:00 129 208 900.0 2017.0 265.00 30.0 3.5540 3.3350 100.000 100.000 3.5540 3.3350 0.00000 0.00000 0.00 0.000 7.880 7.880 -0.000 7.759 7.759 0.000
H15MET 2017-09-22 00:15:00 128 208 900.0 2017.0 265.00 15.0 3.6690 3.4720 100.000 100.000 3.6690 3.4720 0.00000 0.00000 0.00 0.000 7.945 7.945 0.000 7.835 7.835 0.000
H15MET 2017-09-22 00:00:00 127 208 900.0 2017.0 264.00 2400.0 3.8350 3.6140 100.000 100.000 3.8350 3.6140 0.00000 0.00000 0.00 0.000 8.038 8.038 0.000 7.914 7.914 0.000
H15MET 2017-09-21 23:45:00 126 208 900.0 2017.0 264.00 2345.0 4.1280 3.9290 100.000 100.000 4.1280 3.9290 0.00000 0.00000 0.00 0.000 8.206 8.206 0.000 8.092 8.092 0.000
H15MET 2017-09-21 23:30:00 125 208 900.0 2017.0 264.00 2330.0 4.5530 4.3350 100.000 100.000 4.5530 4.3350 0.00000 0.00000 0.00 0.000 8.454 8.454 0.000 8.326 8.326 0.000
H15MET 2017-09-21 23:15:00 124 208 900.0 2017.0 264.00 2315.0 4.7300 4.5110 100.000 100.000 4.7300 4.5110 0.00000 0.00000 0.00 0.000 8.560 8.560 0.000 8.429 8.429 0.000
H15MET 2017-09-21 23:00:00 123 208 900.0 2017.0 264.00 2300.0 4.7030 4.5000 100.000 100.000 4.7030 4.5000 0.00000 0.00000 0.00 0.000 8.543 8.543 0.000 8.423 8.423 0.000
H15MET 2017-09-21 22:45:00 122 208 900.0 2017.0 264.00 2245.0 4.6990 4.4980 100.000 100.000 4.6990 4.4980 0.00000 0.00000 0.00 0.000 8.541 8.541 0.000 8.422 8.422 0.000
H15MET 2017-09-21 22:30:00 121 208 900.0 2017.0 264.00 2230.0 4.5170 4.2890 100.000 100.000 4.5170 4.2890 0.00000 0.00000 0.00 0.000 8.433 8.433 0.000 8.299 8.299 0.000
H15MET 2017-09-21 22:15:00 120 208 900.0 2017.0 264.00 2215.0 4.4860 4.2460 100.000 100.000 4.4860 4.2460 0.00000 0.00000 0.00 0.000 8.415 8.415 0.000 8.274 8.274 0.000
H15MET 2017-09-21 22:00:00 119 208 900.0 2017.0 264.00 2200.0 4.5220 4.2940 100.000 100.000 4.5220 4.2940 0.00000 0.00000 0.00 0.000 8.436 8.436 0.000 8.302 8.302 0.000
H15MET 2017-09-21 21:45:00 118 208 900.0 2017.0 264.00 2145.0 4.6660 4.4700 100.000 100.000 4.6660 4.4700 0.00000 0.00000 0.00 0.000 8.521 8.521 0.000 8.405 8.405 0.000
H15MET 2017-09-21 21:30:00 117 208 900.0 2017.0 264.00 2130.0 4.7740 4.5870 100.000 100.000 4.7740 4.5870 0.00000 0.00000 0.00 0.000 8.586 8.586 0.000 8.474 8.474 0.000
H15MET 2017-09-21 21:15:00 116 208 900.0 2017.0 264.00 2115.0 4.9150 4.6780 100.000 100.000 4.9140 4.6780 0.00000 0.00000 0.00 0.000 8.671 8.670 0.000 8.529 8.529 0.000
H15MET 2017-09-21 21:00:00 115 208 900.0 2017.0 264.00 2100.0 5.0580 4.8280 100.000 100.000 5.0580 4.8280 0.00000 0.00000 0.00 0.000 8.758 8.758 0.000 8.618 8.618 0.000
H15MET 2017-09-21 20:45:00 114 208 900.0 2017.0 264.00 2045.0 5.1130 4.8810 100.000 100.000 5.1130 4.8810 0.00000 0.00000 0.00 0.000 8.792 8.792 0.000 8.650 8.650 0.000
H15MET 2017-09-21 20:30:00 113 208 900.0 2017.0 264.00 2030.0 5.2010 4.9590 100.000 100.000 5.2010 4.9590 0.00000 0.00000 0.00 0.000 8.846 8.846 0.000 8.698 8.698 0.000
H15MET 2017-09-21 20:15:00 112 208 900.0 2017.0 264.00 2015.0 5.1790 4.9580 100.000 100.000 5.1790 4.9570 0.00000 0.00000 0.00 0.000 8.832 8.832 0.000 8.697 8.696 0.000
H15MET 2017-09-21 20:00:00 111 208 900.0 2017.0 264.00 2000.0 5.1270 4.9200 100.000 100.000 5.1270 4.9200 0.00000 0.00000 0.00 0.000 8.800 8.800 0.000 8.674 8.674 0.000
H15MET 2017-09-21 19:45:00 110 208 900.0 2017.0 264.00 1945.0 4.9780 4.7760 100.000 100.000 4.9780 4.7760 0.00000 0.00000 0.00 0.000 8.709 8.709 0.000 8.587 8.587 0.000
H15MET 2017-09-21 19:30:00 109 208 900.0 2017.0 264.00 1930.0 4.8940 4.6860 100.000 100.000 4.8940 4.6850 0.00000 0.00000 0.00 0.000 8.658 8.658 0.000 8.533 8.533 0.000
H15MET 2017-09-21 19:15:00 108 208 900.0 2017.0 264.00 1915.0 4.9990 4.7990 99.900 100.000 4.9870 4.7990 0.00000 0.00000 0.00 0.000 8.722 8.715 0.009 8.601 8.601 0.000
H15MET 2017-09-21 19:00:00 107 208 900.0 2017.0 264.00 1900.0 5.2810 5.0710 100.000 100.000 5.2760 5.0710 0.00000 0.00000 0.00 0.000 8.895 8.892 0.000 8.766 8.766 0.000
H15MET 2017-09-21 18:45:00 106 208 900.0 2017.0 264.00 1845.0 5.4090 5.2070 99.900 100.000 5.3910 5.2070 0.00000 0.00000 0.00 0.000 8.975 8.964 0.009 8.849 8.849 0.000
H15MET 2017-09-21 18:30:00 105 208 900.0 2017.0 264.00 1830.0 5.6590 5.4490 99.900 100.000 5.6480 5.4490 0.00000 0.00000 0.00 0.000 9.132 9.125 0.009 9.000 9.000 0.000
H15MET 2017-09-21 18:15:00 104 208 900.0 2017.0 264.00 1815.0 5.9400 5.7200 100.000 100.000 5.9340 5.7200 0.00000 0.00000 0.00 0.000 9.312 9.308 0.000 9.171 9.171 0.000
H15MET 2017-09-21 18:00:00 103 208 900.0 2017.0 264.00 1800.0 6.1900 5.9570 99.900 100.000 6.1820 5.9560 0.00000 0.00000 0.00 0.000 9.474 9.469 0.009 9.323 9.322 0.000
H15MET 2017-09-21 17:45:00 102 208 900.0 2017.0 264.00 1745.0 6.3140 6.0840 99.700 100.000 6.2710 6.0840 0.00000 0.00000 0.00 0.000 9.556 9.527 0.029 9.405 9.405 0.000
H15MET 2017-09-21 17:30:00 101 208 900.0 2017.0 264.00 1730.0 6.5760 6.2740 99.800 100.000 6.5440 6.2740 0.00000 0.00000 0.00 0.000 9.730 9.709 0.019 9.529 9.529 0.000
H15MET 2017-09-21 17:15:00 100 208 900.0 2017.0 264.00 1715.0 6.7630 6.4890 100.000 100.000 6.7600 6.4890 0.00000 0.00000 0.00 0.000 9.856 9.854 0.000 9.672 9.672 0.000
H15MET 2017-09-21 17:00:00 99 208 900.0 2017.0 264.00 1700.0 6.6110 6.3250 99.700 100.000 6.5700 6.3200 0.00000 0.00000 0.00 0.000 9.754 9.726 0.029 9.563 9.560 0.000
H15MET 2017-09-21 16:45:00 98 208 900.0 2017.0 264.00 1645.0 6.8130 6.5620 99.700 100.000 6.7660 6.5600 0.00000 0.00000 0.00 0.000 9.890 9.858 0.030 9.721 9.719 0.000
H15MET 2017-09-21 16:30:00 97 208 900.0 2017.0 264.00 1630.0 6.7900 6.5330 99.400 99.900 6.7070 6.5130 0.00000 0.00000 0.00 0.000 9.874 9.818 0.059 9.701 9.688 0.010
H15MET 2017-09-21 16:15:00 96 208 900.0 2017.0 264.00 1615.0 6.8130 6.5290 99.100 99.600 6.6870 6.4690 0.00000 0.00000 0.00 0.000 9.890 9.805 0.089 9.699 9.659 0.039
H15MET 2017-09-21 16:00:00 95 208 900.0 2017.0 264.00 1600.0 6.9140 6.5950 99.200 99.600 6.7950 6.5340 0.00000 0.00000 0.00 0.000 9.959 9.878 0.080 9.743 9.702 0.039
H15MET 2017-09-21 15:45:00 94 208 900.0 2017.0 264.00 1545.0 6.8110 6.5710 99.200 99.800 6.6970 6.5420 0.00000 0.00000 0.00 0.000 9.889 9.811 0.079 9.727 9.707 0.019
H15MET 2017-09-21 15:30:00 93 208 900.0 2017.0 264.00 1530.0 6.8270 6.5390 98.800 99.100 6.6520 6.4110 0.00000 0.00000 0.00 0.000 9.900 9.781 0.119 9.705 9.620 0.087
H15MET 2017-09-21 15:15:00 92 208 900.0 2017.0 264.00 1515.0 7.0500 6.6260 99.100 99.300 6.9230 6.5250 0.00000 0.00000 0.00 0.000 10.052 9.965 0.090 9.764 9.696 0.068
H15MET 2017-09-21 15:00:00 91 208 900.0 2017.0 264.00 1500.0 7.0200 6.6340 99.100 99.400 6.8910 6.5490 0.00000 0.00000 0.00 0.000 10.032 9.943 0.090 9.769 9.712 0.059
H15MET 2017-09-21 14:45:00 90 208 900.0 2017.0 264.00 1445.0 6.9030 6.5630 99.200 99.500 6.7800 6.4850 0.00000 0.00000 0.00 0.000 9.951 9.868 0.080 9.721 9.669 0.049
H15MET 2017-09-21 14:30:00 89 208 900.0 2017.0 264.00 1430.0 6.7380 6.4190 98.600 98.500 6.5280 6.1960 0.00000 0.00000 0.00 0.000 9.839 9.698 0.138 9.625 9.478 0.144
H15MET 2017-09-21 14:15:00 88 208 900.0 2017.0 264.00 1415.0 6.6910 6.3660 98.300 96.400 6.4360 5.8400 0.01100 0.01100 316.40 0.935 9.807 9.637 0.167 9.590 9.247 0.345
H15MET 2017-09-21 14:00:00 87 208 900.0 2017.0 264.00 1400.0 6.6910 6.3510 97.900 96.000 6.3780 5.7650 0.00000 0.00000 0.00 0.000 9.807 9.598 0.206 9.580 9.200 0.383
H15MET 2017-09-21 13:45:00 86 208 900.0 2017.0 264.00 1345.0 6.7740 6.4250 99.300 98.400 6.6740 6.1910 0.00000 0.00000 0.00 0.000 9.864 9.796 0.069 9.629 9.475 0.154
H15MET 2017-09-21 13:30:00 85 208 900.0 2017.0 264.00 1330.0 6.7600 6.2010 100.000 99.000 6.7600 6.0550 0.00000 0.00000 0.00 0.000 9.854 9.854 0.000 9.481 9.386 0.095
H15MET 2017-09-21 13:15:00 84 208 900.0 2017.0 264.00 1315.0 6.4260 5.9700 100.000 99.800 6.4260 5.9470 0.00000 0.00000 0.00 0.000 9.630 9.630 0.000 9.331 9.316 0.019
H15MET 2017-09-21 13:00:00 83 208 900.0 2017.0 264.00 1300.0 6.0530 5.6950 100.000 100.000 6.0530 5.6950 0.00000 0.00000 0.00 0.000 9.385 9.385 0.000 9.155 9.155 0.000
H15MET 2017-09-21 12:45:00 82 208 900.0 2017.0 264.00 1245.0 5.7900 5.5000 99.900 99.900 5.7780 5.4930 0.00000 0.00000 0.00 0.000 9.215 9.208 0.009 9.032 9.027 0.009
H15MET 2017-09-21 12:30:00 81 208 900.0 2017.0 264.00 1230.0 5.9480 5.5450 100.000 100.000 5.9450 5.5440 0.00000 0.00000 0.00 0.000 9.317 9.315 0.000 9.060 9.059 0.000
H15MET 2017-09-21 12:15:00 80 208 900.0 2017.0 264.00 1215.0 5.9190 5.5610 100.000 100.000 5.9190 5.5610 0.00000 0.00000 0.00 0.000 9.298 9.298 0.000 9.070 9.070 0.000
H15MET 2017-09-21 12:00:00 79 208 900.0 2017.0 264.00 1200.0 5.7150 5.3950 100.000 100.000 5.7150 5.3950 0.00000 0.00000 0.00 0.000 9.168 9.168 0.000 8.966 8.966 0.000
H15MET 2017-09-21 11:45:00 78 208 900.0 2017.0 264.00 1145.0 5.6420 5.2490 100.000 100.000 5.6420 5.2490 0.00000 0.00000 0.00 0.000 9.121 9.121 0.000 8.875 8.875 0.000
H15MET 2017-09-21 11:30:00 77 208 900.0 2017.0 264.00 1130.0 5.7760 5.4180 100.000 100.000 5.7690 5.4180 0.00000 0.00000 0.00 0.000 9.207 9.202 0.000 8.980 8.980 0.000
H15MET 2017-09-21 11:15:00 76 208 900.0 2017.0 264.00 1115.0 5.9810 5.4900 100.000 100.000 5.9780 5.4860 0.00000 0.00000 0.00 0.000 9.338 9.336 0.000 9.026 9.023 0.000
H15MET 2017-09-21 11:00:00 75 208 900.0 2017.0 264.00 1100.0 5.9000 5.3220 99.700 99.500 5.8600 5.2470 0.00000 0.00000 0.00 0.000 9.286 9.260 0.028 8.921 8.874 0.045
H15MET 2017-09-21 10:45:00 74 208 900.0 2017.0 264.00 1045.0 5.7310 5.2640 99.900 98.700 5.7150 5.0730 0.00400 0.00400 50.43 2.868 9.178 9.168 0.009 8.885 8.767 0.116
H15MET 2017-09-21 10:30:00 73 208 900.0 2017.0 264.00 1030.0 5.6720 5.1420 100.000 99.200 5.6720 5.0270 0.10000 0.08400 319.30 13.330 9.140 9.140 0.000 8.809 8.739 0.070
H15MET 2017-09-21 10:15:00 72 208 900.0 2017.0 264.00 1015.0 5.3890 4.9580 100.000 100.000 5.3890 4.9580 0.04500 0.04500 279.20 1.539 8.962 8.962 0.000 8.697 8.697 0.000
H15MET 2017-09-21 10:00:00 71 208 900.0 2017.0 264.00 1000.0 5.1480 4.7250 100.000 100.000 5.1480 4.7250 0.00000 0.00000 0.00 0.000 8.813 8.813 0.000 8.557 8.557 0.000
H15MET 2017-09-21 09:45:00 70 208 900.0 2017.0 264.00 945.0 5.0120 4.5920 100.000 100.000 5.0120 4.5920 0.00000 0.00000 0.00 0.000 8.730 8.730 0.000 8.477 8.477 0.000
H15MET 2017-09-21 09:30:00 69 208 900.0 2017.0 264.00 930.0 4.8990 4.4260 100.000 100.000 4.8990 4.4260 0.00000 0.00000 0.00 0.000 8.661 8.661 0.000 8.379 8.379 0.000
H15MET 2017-09-21 09:15:00 68 208 900.0 2017.0 264.00 915.0 4.6410 4.1430 100.000 100.000 4.6410 4.1430 0.00000 0.00000 0.00 0.000 8.506 8.506 0.000 8.214 8.214 0.000
H15MET 2017-09-21 09:00:00 67 208 900.0 2017.0 264.00 900.0 4.4770 4.1160 100.000 100.000 4.4770 4.1160 0.00000 0.00000 0.00 0.000 8.409 8.409 0.000 8.199 8.199 0.000
H15MET 2017-09-21 08:45:00 66 208 900.0 2017.0 264.00 845.0 4.4720 3.9820 100.000 100.000 4.4720 3.9820 0.00000 0.00000 0.00 0.000 8.406 8.406 0.000 8.122 8.122 0.000
H15MET 2017-09-21 08:30:00 65 208 900.0 2017.0 264.00 830.0 4.2570 3.8470 100.000 100.000 4.2570 3.8470 0.00000 0.00000 0.00 0.000 8.280 8.280 0.000 8.045 8.045 0.000
H15MET 2017-09-21 08:15:00 64 208 900.0 2017.0 264.00 815.0 4.2270 3.8560 100.000 100.000 4.2270 3.8550 0.00600 0.00600 270.30 0.231 8.263 8.263 0.000 8.050 8.050 0.000
H15MET 2017-09-21 08:00:00 63 208 900.0 2017.0 264.00 800.0 4.2050 3.8580 100.000 100.000 4.2050 3.8580 0.00000 0.00000 0.00 0.000 8.250 8.250 0.000 8.051 8.051 0.000
H15MET 2017-09-21 07:45:00 62 208 900.0 2017.0 264.00 745.0 4.0940 3.8040 100.000 100.000 4.0940 3.8040 0.00000 0.00000 0.00 0.000 8.186 8.186 0.000 8.021 8.021 0.000
H15MET 2017-09-21 07:30:00 61 208 900.0 2017.0 264.00 730.0 3.9520 3.6730 100.000 100.000 3.9520 3.6730 0.00000 0.00000 0.00 0.000 8.105 8.105 0.000 7.947 7.947 0.000
H15MET 2017-09-21 07:15:00 60 208 900.0 2017.0 264.00 715.0 3.8180 3.4210 100.000 100.000 3.8180 3.4210 0.00000 0.00000 0.00 0.000 8.029 8.029 0.000 7.807 7.807 -0.000
H15MET 2017-09-21 07:00:00 59 208 900.0 2017.0 264.00 700.0 3.5860 3.2550 100.000 100.000 3.5860 3.2550 0.00000 0.00000 0.00 0.000 7.898 7.898 0.000 7.716 7.716 0.000
H15MET 2017-09-21 06:45:00 58 208 900.0 2017.0 264.00 645.0 3.6000 3.2410 100.000 100.000 3.6000 3.2410 0.00000 0.00000 0.00 0.000 7.906 7.906 -0.000 7.708 7.708 0.000
H15MET 2017-09-21 06:30:00 57 208 900.0 2017.0 264.00 630.0 3.5510 3.2080 100.000 100.000 3.5510 3.2080 0.00000 0.00000 0.00 0.000 7.879 7.879 0.000 7.690 7.690 -0.000
H15MET 2017-09-21 06:15:00 56 208 900.0 2017.0 264.00 615.0 3.4430 3.1170 100.000 100.000 3.4430 3.1170 0.00000 0.00000 0.00 0.000 7.819 7.819 0.000 7.640 7.640 -0.000
H15MET 2017-09-21 06:00:00 55 208 900.0 2017.0 264.00 600.0 3.3850 3.1180 100.000 100.000 3.3850 3.1180 0.00000 0.00000 0.00 0.000 7.787 7.787 0.000 7.641 7.641 0.000
H15MET 2017-09-21 05:45:00 54 208 900.0 2017.0 264.00 545.0 3.4330 3.1710 100.000 100.000 3.4330 3.1710 0.00000 0.00000 0.00 0.000 7.813 7.813 0.000 7.670 7.670 0.000
H15MET 2017-09-21 05:30:00 53 208 900.0 2017.0 264.00 530.0 3.3300 3.0580 100.000 100.000 3.3300 3.0580 0.00000 0.00000 0.00 0.000 7.757 7.757 0.000 7.609 7.609 0.000
H15MET 2017-09-21 05:15:00 52 208 900.0 2017.0 264.00 515.0 3.2900 3.0170 100.000 100.000 3.2900 3.0170 0.00000 0.00000 0.00 0.000 7.735 7.735 0.000 7.586 7.586 0.000
H15MET 2017-09-21 05:00:00 51 208 900.0 2017.0 264.00 500.0 3.1860 2.8950 100.000 100.000 3.1860 2.8950 0.00000 0.00000 0.00 0.000 7.678 7.678 0.000 7.521 7.521 -0.000
H15MET 2017-09-21 04:45:00 50 208 900.0 2017.0 264.00 445.0 2.9730 2.7170 100.000 100.000 2.9730 2.7170 0.00000 0.00000 0.00 0.000 7.563 7.563 0.000 7.426 7.426 0.000
H15MET 2017-09-21 04:30:00 49 208 900.0 2017.0 264.00 430.0 2.8440 2.6220 100.000 100.000 2.8440 2.6220 0.00000 0.00000 0.00 0.000 7.494 7.494 0.000 7.376 7.376 0.000
H15MET 2017-09-21 04:15:00 48 208 900.0 2017.0 264.00 415.0 3.2200 3.0230 100.000 100.000 3.2200 3.0230 0.00000 0.00000 0.00 0.000 7.696 7.696 0.000 7.590 7.590 0.000
H15MET 2017-09-21 04:00:00 47 208 900.0 2017.0 264.00 400.0 3.4760 3.2930 100.000 100.000 3.4760 3.2930 0.00000 0.00000 0.00 0.000 7.837 7.837 0.000 7.736 7.736 0.000
H15MET 2017-09-21 03:45:00 46 208 900.0 2017.0 264.00 345.0 3.7760 3.5060 100.000 100.000 3.7760 3.5060 0.00000 0.00000 0.00 0.000 8.005 8.005 0.000 7.854 7.854 0.000
H15MET 2017-09-21 03:30:00 45 208 900.0 2017.0 264.00 330.0 3.8760 3.6230 100.000 100.000 3.8760 3.6230 0.00000 0.00000 0.00 0.000 8.062 8.062 0.000 7.919 7.919 0.000
H15MET 2017-09-21 03:15:00 44 208 900.0 2017.0 264.00 315.0 3.8890 3.6120 100.000 100.000 3.8890 3.6120 0.00000 0.00000 0.00 0.000 8.069 8.069 0.000 7.913 7.913 0.000
H15MET 2017-09-21 03:00:00 43 208 900.0 2017.0 264.00 300.0 3.9040 3.5960 100.000 100.000 3.9040 3.5960 0.00000 0.00000 0.00 0.000 8.077 8.077 0.000 7.904 7.904 0.000
H15MET 2017-09-21 02:45:00 42 208 900.0 2017.0 264.00 245.0 3.8940 3.6100 100.000 100.000 3.8940 3.6100 0.00000 0.00000 0.00 0.000 8.072 8.072 0.000 7.912 7.912 0.000
H15MET 2017-09-21 02:30:00 41 208 900.0 2017.0 264.00 230.0 3.9350 3.6400 100.000 100.000 3.9350 3.6400 0.00000 0.00000 0.00 0.000 8.095 8.095 0.000 7.928 7.928 0.000
H15MET 2017-09-21 02:15:00 40 208 900.0 2017.0 264.00 215.0 3.9470 3.6450 100.000 100.000 3.9470 3.6450 0.00000 0.00000 0.00 0.000 8.102 8.102 0.000 7.931 7.931 0.000
H15MET 2017-09-21 02:00:00 39 208 900.0 2017.0 264.00 200.0 3.9570 3.5960 100.000 100.000 3.9570 3.5960 0.00000 0.00000 0.00 0.000 8.108 8.108 0.000 7.904 7.904 0.000
H15MET 2017-09-21 01:45:00 38 208 900.0 2017.0 264.00 145.0 3.9490 3.6050 100.000 100.000 3.9490 3.6050 0.00000 0.00000 0.00 0.000 8.103 8.103 0.000 7.909 7.909 0.000
H15MET 2017-09-21 01:30:00 37 208 900.0 2017.0 264.00 130.0 3.8640 3.5500 100.000 100.000 3.8640 3.5500 0.00000 0.00000 0.00 0.000 8.055 8.055 0.000 7.878 7.878 0.000
H15MET 2017-09-21 01:15:00 36 208 900.0 2017.0 264.00 115.0 3.8480 3.5470 100.000 100.000 3.8480 3.5470 0.00000 0.00000 0.00 0.000 8.046 8.046 0.000 7.877 7.877 0.000
H15MET 2017-09-21 01:00:00 35 208 900.0 2017.0 264.00 100.0 3.9090 3.6280 100.000 100.000 3.9090 3.6280 0.00000 0.00000 0.00 0.000 8.080 8.080 0.000 7.922 7.922 0.000
H15MET 2017-09-21 00:45:00 34 208 900.0 2017.0 264.00 45.0 4.0410 3.7540 100.000 100.000 4.0410 3.7540 0.00000 0.00000 0.00 0.000 8.156 8.156 0.000 7.992 7.992 -0.000
H15MET 2017-09-21 00:30:00 33 208 900.0 2017.0 264.00 30.0 4.0290 3.7670 100.000 100.000 4.0290 3.7670 0.00000 0.00000 0.00 0.000 8.149 8.149 0.000 8.000 8.000 0.000
H15MET 2017-09-21 00:15:00 32 208 900.0 2017.0 264.00 15.0 3.9650 3.6860 100.000 100.000 3.9650 3.6860 0.00000 0.00000 0.00 0.000 8.112 8.112 0.000 7.954 7.954 0.000